Provisional Data: Sterling Run near Sterling Run, PA


Please select a monitoring station.
Please select start date.
Please select start date.

Toggle Unit: C/F Toggle Unit: C/F
Sample Time Temperature (C) Temperature (F) Specific Conductivity (mS/cm) pH   Turbidity (NTU+) DO (mg/L)
8/1/2022 12:00:00 AM 18.91 66.038 0.092 6.49 1.18 7.46
8/1/2022 12:15:00 AM 18.87 65.966 0.092 6.5 1.08 7.49
8/1/2022 12:30:00 AM 18.87 65.966 0.092 6.51 1.19 7.42
8/1/2022 12:45:00 AM 18.8 65.84 0.092 6.57 1.26 7.45
8/1/2022 1:00:00 AM 18.73 65.714 0.092 6.51 1.16 7.58
8/1/2022 1:15:00 AM 18.71 65.67799 0.092 6.52 1.16 7.62
8/1/2022 1:30:00 AM 18.68 65.624 0.092 6.55 1.16 7.62
8/1/2022 1:45:00 AM 18.63 65.534 0.092 6.54 1.33 7.7
8/1/2022 2:00:00 AM 18.57 65.426 0.092 6.57 1.13 7.81
8/1/2022 2:15:00 AM 18.56 65.408 0.092 6.55 1.28 7.79
8/1/2022 2:30:00 AM 18.56 65.408 0.092 6.54 1.2 7.73
8/1/2022 2:45:00 AM 18.49 65.282 0.092 6.56 1.14 7.78
8/1/2022 3:00:00 AM 18.43 65.174 0.092 6.55 1.15 7.83
8/1/2022 3:15:00 AM 18.41 65.138 0.092 6.58 1.16 7.79
8/1/2022 3:30:00 AM 18.37 65.066 0.092 6.56 1.16 7.87
8/1/2022 3:45:00 AM 18.34 65.012 0.092 6.6 1.14 7.95
8/1/2022 4:00:00 AM 18.35 65.03 0.092 6.62 1.2 7.9
8/1/2022 4:15:00 AM 18.33 64.994 0.092 6.55 1.22 7.84
8/1/2022 4:30:00 AM 18.29 64.922 0.092 6.58 1.19 7.89
8/1/2022 4:45:00 AM 18.29 64.922 0.092 6.55 1.15 7.86
8/1/2022 5:00:00 AM 18.26 64.868 0.092 6.6 1.41 7.92
8/1/2022 5:15:00 AM 18.25 64.85 0.092 6.55 1.14 7.91
8/1/2022 5:30:00 AM 18.22 64.796 0.092 6.56 1.18 7.9
8/1/2022 5:45:00 AM 18.21 64.778 0.092 6.59 1.15 7.89
8/1/2022 6:00:00 AM 18.18 64.724 0.092 6.6 1.25 7.88
8/1/2022 6:15:00 AM 18.16 64.688 0.092 6.56 1.17 7.89
8/1/2022 6:30:00 AM 18.16 64.688 0.092 6.55 1.18 7.85
8/1/2022 6:45:00 AM 18.15 64.67 0.092 6.59 1.29 7.86
8/1/2022 7:00:00 AM 18.13 64.634 0.092 6.56 1.2 7.91
8/1/2022 7:15:00 AM 18.12 64.616 0.092 6.56 1.2 7.92
8/1/2022 7:30:00 AM 18.1 64.58 0.092 6.56 1.19 7.98
8/1/2022 7:45:00 AM 18.08 64.544 0.092 6.62 1.13 8.05
8/1/2022 8:00:00 AM 18.1 64.58 0.092 6.63 1.24 8.03
8/1/2022 8:15:00 AM 18.08 64.544 0.091 6.64 1.16 8.11
8/1/2022 8:30:00 AM 18.11 64.598 0.091 6.58 1.16 8.12
8/1/2022 8:45:00 AM 18.13 64.634 0.091 6.63 1.17 8.13
8/1/2022 9:00:00 AM 18.19 64.742 0.092 6.59 1.1 8.06
8/1/2022 9:15:00 AM 18.24 64.832 0.092 6.54 1.17 8.04
8/1/2022 9:30:00 AM 18.33 64.994 0.092 6.54 1.18 8
8/1/2022 9:45:00 AM 18.5 65.3 0.092 6.55 1.09 7.91
8/1/2022 10:00:00 AM 18.64 65.552 0.092 6.52 1.14 7.85
8/1/2022 10:15:00 AM 18.86 65.948 0.091 6.58 1.19 8.12
8/1/2022 10:30:00 AM 18.93 66.074 0.091 6.57 1.12 8.14
8/1/2022 10:45:00 AM 18.98 66.164 0.092 6.51 1.11 7.9
8/1/2022 11:00:00 AM 19.01 66.218 0.093 6.47 1.45 7.34
8/1/2022 11:15:00 AM 18.97 66.146 0.094 6.36 1.23 6.27
8/1/2022 11:30:00 AM 19.06 66.308 0.095 6.3 1.15 6.08
8/1/2022 11:45:00 AM 19.37 66.866 0.093 6.36 1.22 6.57
8/1/2022 12:00:00 PM 19.27 66.686 0.095 6.3 1.16 5.98
8/1/2022 12:15:00 PM 19.48 67.064 0.094 6.31 1.15 5.93
8/1/2022 12:30:00 PM 19.39 66.902 0.095 6.28 1.18 5.65
8/1/2022 12:45:00 PM 19.58 67.244 0.095 6.32 1.1 5.55
8/1/2022 1:00:00 PM 19.65 67.37 0.094 6.3 1.12 5.86
8/1/2022 1:15:00 PM 19.87 67.766 0.094 6.34 1.17 6.2
8/1/2022 1:30:00 PM 19.81 67.658 0.094 6.32 1.22 6.04
8/1/2022 1:45:00 PM 19.9 67.82 0.094 6.32 1.19 6.03
8/1/2022 2:00:00 PM 19.86 67.748 0.094 6.35 1.14 5.91
8/1/2022 2:15:00 PM 20.05 68.09 0.093 6.36 1.58 6.46
8/1/2022 2:30:00 PM 20.04 68.07201 0.093 6.33 1.21 6.24
8/1/2022 2:45:00 PM 19.99 67.982 0.094 6.37 1.14 6.1
8/1/2022 3:00:00 PM 20.12 68.216 0.094 6.33 1.11 6.17
8/1/2022 3:15:00 PM 20.05 68.09 0.094 6.32 1.45 5.99
8/1/2022 3:30:00 PM 20.01 68.018 0.094 6.3 1.15 5.83
8/1/2022 3:45:00 PM 20.26 68.468 0.093 6.37 4.26 6.43
8/1/2022 4:00:00 PM 20.15 68.27 0.094 6.34 1.65 6.33
8/1/2022 4:15:00 PM 20.31 68.558 0.093 6.36 1.19 6.54
8/1/2022 4:30:00 PM 20.43 68.774 0.092 6.38 1.16 6.79
8/1/2022 4:45:00 PM 20.38 68.684 0.093 6.37 1.22 6.65
8/1/2022 5:00:00 PM 20.62 69.116 0.092 6.49 1.29 7.15
8/1/2022 5:15:00 PM 20.69 69.242 0.091 6.51 1.48 7.46
8/1/2022 5:30:00 PM 20.83 69.494 0.091 6.53 1.16 7.64
8/1/2022 5:45:00 PM 20.73 69.314 0.092 6.46 1.49 7.22
8/1/2022 6:00:00 PM 20.51 68.918 0.093 6.4 1.32 6.77
8/1/2022 6:15:00 PM 20.37 68.666 0.093 6.38 1.1 6.57
8/1/2022 6:30:00 PM 20.46 68.828 0.093 6.38 1.18 6.63
8/1/2022 6:45:00 PM 20.32 68.576 0.094 6.42 1.16 6.35
8/1/2022 7:00:00 PM 20.23 68.414 0.094 6.3 1.11 5.96
8/1/2022 7:15:00 PM 20.28 68.504 0.095 6.3 1.28 5.68
8/1/2022 7:30:00 PM 20.2 68.36 0.095 6.33 1.23 5.56
8/1/2022 7:45:00 PM 20.25 68.45 0.095 6.32 1.25 5.65
8/1/2022 8:00:00 PM 20.2 68.36 0.096 6.27 1.11 5.27
8/1/2022 8:15:00 PM 20.3 68.54 0.095 6.33 1.23 5.81
8/1/2022 8:30:00 PM 20.28 68.504 0.094 6.35 1.14 6.01
8/1/2022 8:45:00 PM 20.25 68.45 0.095 6.35 1.15 6.05
8/1/2022 9:00:00 PM 20.14 68.252 0.096 6.27 1.1 4.94
8/1/2022 9:15:00 PM 20.11 68.198 0.097 6.28 1.14 4.64
8/1/2022 9:30:00 PM 20.15 68.27 0.096 6.28 1.25 4.88
8/1/2022 9:45:00 PM 20.1 68.18 0.097 6.27 1.25 4.61
8/1/2022 10:00:00 PM 20.05 68.09 0.098 6.25 1.37 4.13
8/1/2022 10:15:00 PM 20.06 68.108 0.098 6.24 1.2 4.25
8/1/2022 10:30:00 PM 20.04 68.07201 0.098 6.28 1.31 4.19
8/1/2022 10:45:00 PM 19.99 67.982 0.098 6.23 1.21 4.04
8/1/2022 11:00:00 PM 19.97 67.946 0.097 6.26 1.29 4.08
8/1/2022 11:15:00 PM 19.97 67.946 0.097 6.27 1.16 4.6
8/1/2022 11:30:00 PM 19.91 67.838 0.096 6.3 1.15 5.03
8/1/2022 11:45:00 PM 19.88 67.784 0.096 6.36 1.14 5.34
8/2/2022 12:00:00 AM 19.89 67.802 0.095 6.36 1.1 5.82
8/2/2022 12:15:00 AM 19.86 67.748 0.094 6.42 1.13 6.1
8/2/2022 12:30:00 AM 19.8 67.64 0.094 6.43 1.13 6.38
8/2/2022 12:45:00 AM 19.76 67.568 0.093 6.42 1.14 6.54
8/2/2022 1:00:00 AM 19.71 67.478 0.093 6.43 1.16 6.97
8/2/2022 1:15:00 AM 19.68 67.424 0.092 6.46 1.09 7.04
8/2/2022 1:30:00 AM 19.66 67.388 0.092 6.47 1.33 7.03
8/2/2022 1:45:00 AM 19.63 67.334 0.093 6.45 5.45 6.98
8/2/2022 2:00:00 AM 19.6 67.28 0.093 6.47 1.62 7.02
8/2/2022 2:15:00 AM 19.56 67.208 0.093 6.47 1.7 7.08
8/2/2022 2:30:00 AM 19.54 67.172 0.093 6.48 1.14 7.13
8/2/2022 2:45:00 AM 19.51 67.118 0.093 6.48 1.11 7.13
8/2/2022 3:00:00 AM 19.5 67.1 0.093 6.47 1.15 7.01
8/2/2022 3:15:00 AM 19.47 67.046 0.093 6.47 1.31 7.02
8/2/2022 3:30:00 AM 19.46 67.028 0.093 6.46 1.03 6.97
8/2/2022 3:45:00 AM 19.41 66.938 0.093 6.49 1.25 7.15
8/2/2022 4:00:00 AM 19.41 66.938 0.093 6.48 1.05 7.12
8/2/2022 4:15:00 AM 19.42 66.956 0.093 6.47 1.1 7.09
8/2/2022 4:30:00 AM 19.39 66.902 0.093 6.47 1.09 7.09
8/2/2022 4:45:00 AM 19.36 66.848 0.093 6.48 1.24 7.15
8/2/2022 5:00:00 AM 19.38 66.884 0.093 6.46 1.52 6.97
8/2/2022 5:15:00 AM 19.36 66.848 0.093 6.46 1.16 6.96
8/2/2022 5:30:00 AM 19.34 66.812 0.093 6.45 1.23 6.89
8/2/2022 5:45:00 AM 19.31 66.758 0.093 6.43 1.2 6.86
8/2/2022 6:00:00 AM 19.26 66.668 0.093 6.45 1.14 6.97
8/2/2022 6:15:00 AM 19.23 66.614 0.093 6.46 1.17 6.99
8/2/2022 6:30:00 AM 19.18 66.524 0.093 6.44 1.16 7.01
8/2/2022 6:45:00 AM 19.18 66.524 0.093 6.46 1.12 6.91
8/2/2022 7:00:00 AM 19.14 66.452 0.093 6.44 1.12 7.03
8/2/2022 7:15:00 AM 19.13 66.434 0.093 6.47 1.23 7.14
8/2/2022 7:30:00 AM 19.12 66.416 0.093 6.45 1.16 7.19
8/2/2022 7:45:00 AM 19.11 66.398 0.093 6.48 1.2 7.25
8/2/2022 8:00:00 AM 19.15 66.47 0.093 6.45 1.16 7.11
8/2/2022 8:15:00 AM 19.18 66.524 0.093 6.49 1.52 7.01
8/2/2022 8:30:00 AM 19.21 66.578 0.094 6.43 1.09 6.92
8/2/2022 8:45:00 AM 19.24 66.632 0.094 6.43 1.17 6.84
8/2/2022 9:00:00 AM 19.29 66.722 0.094 6.39 1.32 6.64
8/2/2022 9:15:00 AM 19.36 66.848 0.094 6.39 1.33 6.47
8/2/2022 9:30:00 AM 19.43 66.974 0.094 6.38 1.13 6.47
8/2/2022 9:45:00 AM 19.43 66.974 0.095 6.37 1.19 6.15
8/2/2022 10:00:00 AM 19.48 67.064 0.096 6.31 1.37 5.68
8/2/2022 10:15:00 AM 19.53 67.154 0.096 6.29 1.27 5.25
8/2/2022 10:30:00 AM 19.52 67.136 0.096 6.25 1.34 4.88
8/2/2022 10:45:00 AM 19.57 67.226 0.096 6.24 1.22 4.81
8/2/2022 11:00:00 AM 19.77 67.586 0.096 6.26 1.16 4.88
8/2/2022 11:15:00 AM 19.78 67.604 0.097 6.24 1.58 4.63
8/2/2022 11:30:00 AM 19.98 67.964 0.097 6.22 1.38 4.68
8/2/2022 11:45:00 AM 19.95 67.91 0.099 6.26 1.17 4.17
8/2/2022 12:00:00 PM 20.13 68.234 0.099 6.23 1.07 4.03
8/2/2022 12:15:00 PM 20.06 68.108 0.098 6.22 1.18 4.34
8/2/2022 12:30:00 PM 20.22 68.396 0.099 6.21 1.13 4.29
8/2/2022 12:45:00 PM 20.16 68.288 0.098 6.27 1.17 4.27
8/2/2022 1:00:00 PM 20.49 68.882 0.097 6.22 1.17 4.57
8/2/2022 1:15:00 PM 20.6 69.08 0.098 6.29 1.18 4.56
8/2/2022 1:30:00 PM 20.43 68.774 0.097 6.25 1.23 4.7
8/2/2022 1:45:00 PM 20.62 69.116 0.096 6.25 1.24 5.03
8/2/2022 2:00:00 PM 20.8 69.44 0.095 6.3 1.11 5.25
8/2/2022 2:15:00 PM 20.8 69.44 0.096 6.33 1.06 5.24
8/2/2022 2:30:00 PM 20.83 69.494 0.095 6.33 1.19 5.41
8/2/2022 2:45:00 PM 20.67 69.206 0.096 6.27 1.14 5.25
8/2/2022 3:00:00 PM 20.84 69.512 0.095 6.3 1.17 5.44
8/2/2022 3:15:00 PM 20.74 69.332 0.095 6.27 1.11 5.26
8/2/2022 3:30:00 PM 20.69 69.242 0.096 6.34 1.23 5.4
8/2/2022 3:45:00 PM 20.98 69.764 0.094 6.32 1.1 5.76
8/2/2022 4:00:00 PM 20.9 69.62 0.094 6.34 1.19 5.62
8/2/2022 4:15:00 PM 21.01 69.818 0.095 6.3 1.1 5.6
8/2/2022 4:30:00 PM 21.06 69.908 0.095 6.35 1.09 5.4
8/2/2022 4:45:00 PM 21.12 70.016 0.094 6.33 1.06 5.64
8/2/2022 5:00:00 PM 21.31 70.358 0.093 6.45 1.08 6.29
8/2/2022 5:15:00 PM 21.15 70.07 0.094 6.36 1.15 5.53
8/2/2022 5:30:00 PM 21.25 70.25 0.094 6.31 0.99 5.79
8/2/2022 5:45:00 PM 21.31 70.358 0.095 6.31 1.03 5.47
8/2/2022 6:00:00 PM 21.38 70.484 0.096 6.26 1.06 5.34
8/2/2022 6:15:00 PM 21.33 70.394 0.095 6.28 1.08 5.35
8/2/2022 6:30:00 PM 21.2 70.16 0.095 6.24 1.16 5.27
8/2/2022 6:45:00 PM 21.17 70.106 0.095 6.25 1.1 5.22
8/2/2022 7:00:00 PM 21.05 69.89 0.096 6.23 1.09 5.06
8/2/2022 7:15:00 PM 20.95 69.71 0.096 6.28 1.11 4.92
8/2/2022 7:30:00 PM 20.89 69.602 0.096 6.22 1.07 4.87
8/2/2022 7:45:00 PM 20.86 69.548 0.096 6.28 1.1 4.72
8/2/2022 8:00:00 PM 20.86 69.548 0.097 6.21 1.09 4.37
8/2/2022 8:15:00 PM 20.8 69.44 0.098 6.21 1.07 3.97
8/2/2022 8:30:00 PM 20.76 69.368 0.098 6.18 1.03 3.9
8/2/2022 8:45:00 PM 20.7 69.26 0.098 6.3 1.16 4.29
8/2/2022 9:00:00 PM 20.67 69.206 0.098 6.21 1.08 4.12
8/2/2022 9:15:00 PM 20.61 69.098 0.097 6.27 1.15 4.08
8/2/2022 9:30:00 PM 20.52 68.936 0.099 6.17 1.44 3.45
8/2/2022 9:45:00 PM 20.46 68.828 0.096 6.33 1.34 3.77
8/2/2022 10:00:00 PM 20.39 68.702 0.094 6.34 1.19 5.66
8/2/2022 10:15:00 PM 20.31 68.558 0.094 6.4 1.25 6.28
8/2/2022 10:30:00 PM 20.21 68.378 0.094 6.43 1.12 6.67
8/2/2022 10:45:00 PM 20.14 68.252 0.093 6.44 1.15 6.74
8/2/2022 11:00:00 PM 20.07 68.126 0.094 6.43 1.07 6.71
8/2/2022 11:15:00 PM 19.99 67.982 0.094 6.5 1.15 6.79
8/2/2022 11:30:00 PM 19.9 67.82 0.094 6.43 1.01 6.82
8/2/2022 11:45:00 PM 19.81 67.658 0.094 6.49 1.11 6.79
8/3/2022 12:00:00 AM 19.72 67.496 0.094 6.44 1.05 6.78
8/3/2022 12:15:00 AM 19.59 67.262 0.094 6.44 1.07 6.93
8/3/2022 12:30:00 AM 19.53 67.154 0.094 6.53 1.06 6.99
8/3/2022 12:45:00 AM 19.41 66.938 0.093 6.47 1.1 7.12
8/3/2022 1:00:00 AM 19.39 66.902 0.094 6.48 1.11 7.06
8/3/2022 1:15:00 AM 19.27 66.686 0.093 6.47 1.02 7.18
8/3/2022 1:30:00 AM 19.18 66.524 0.093 6.5 1.08 7.34
8/3/2022 1:45:00 AM 19.09 66.362 0.093 6.5 1.09 7.42
8/3/2022 2:00:00 AM 19.07 66.326 0.094 6.52 1.15 7.38
8/3/2022 2:15:00 AM 18.87 65.966 0.093 6.52 1.12 7.59
8/3/2022 2:30:00 AM 18.8 65.84 0.093 6.58 1.12 7.68
8/3/2022 2:45:00 AM 18.73 65.714 0.093 6.52 1.11 7.63
8/3/2022 3:00:00 AM 18.65 65.57 0.092 6.6 1.11 7.64
8/3/2022 3:15:00 AM 18.52 65.336 0.092 6.59 1.13 7.82
8/3/2022 3:30:00 AM 18.5 65.3 0.093 6.54 1.09 7.77
8/3/2022 3:45:00 AM 18.42 65.156 0.093 6.55 1.16 7.78
8/3/2022 4:00:00 AM 18.33 64.994 0.092 6.56 1.13 7.88
8/3/2022 4:15:00 AM 18.29 64.922 0.092 6.61 1.1 7.86
8/3/2022 4:30:00 AM 18.18 64.724 0.092 6.55 1.08 7.9
8/3/2022 4:45:00 AM 18.2 64.76 0.093 6.58 1.13 7.74
8/3/2022 5:00:00 AM 18 64.4 0.092 6.58 1.18 8.03
8/3/2022 5:15:00 AM 17.96 64.328 0.092 6.62 1.2 7.98
8/3/2022 5:30:00 AM 17.88 64.184 0.092 6.56 1.09 8
8/3/2022 5:45:00 AM 17.84 64.112 0.092 6.56 1.19 8.02
8/3/2022 6:00:00 AM 17.81 64.058 0.092 6.55 1.18 7.99
8/3/2022 6:15:00 AM 17.76 63.968 0.092 6.57 1.27 7.98
8/3/2022 6:30:00 AM 17.69 63.842 0.092 6.56 1.49 8.01
8/3/2022 6:45:00 AM 17.63 63.734 0.092 6.58 1.21 7.99
8/3/2022 7:00:00 AM 17.59 63.662 0.092 6.56 1.18 8.11
8/3/2022 7:15:00 AM 17.5 63.5 0.092 6.6 1.42 8.29
8/3/2022 7:30:00 AM 17.48 63.464 0.092 6.61 1.29 8.32
8/3/2022 7:45:00 AM 17.51 63.518 0.092 6.58 1.19 8.27
8/3/2022 8:00:00 AM 17.5 63.5 0.092 6.61 1.2 8.36
8/3/2022 8:15:00 AM 17.51 63.518 0.091 6.62 1.25 8.45
8/3/2022 8:30:00 AM 17.52 63.536 0.091 6.63 1.21 8.52
8/3/2022 8:45:00 AM 17.54 63.572 0.091 6.65 1.42 8.6
8/3/2022 9:00:00 AM 17.57 63.626 0.092 6.64 1.2 8.57
8/3/2022 9:15:00 AM 17.64 63.752 0.092 6.61 1.15 8.36
8/3/2022 9:30:00 AM 17.86 64.148 0.094 6.47 1.56 7.53
8/3/2022 9:45:00 AM 17.91 64.238 0.093 6.5 1.3 7.63
8/3/2022 10:00:00 AM 18.08 64.544 0.094 6.45 1.15 7.18
8/3/2022 10:15:00 AM 18.16 64.688 0.094 6.46 1.16 7.25
8/3/2022 10:30:00 AM 18.26 64.868 0.094 6.41 1.3 7.09
8/3/2022 10:45:00 AM 18.39 65.102 0.095 6.38 1.24 6.59
8/3/2022 11:00:00 AM 18.59 65.462 0.095 6.35 1.19 6.25
8/3/2022 11:15:00 AM 18.75 65.75 0.095 6.34 1.31 6.04
8/3/2022 11:30:00 AM 19.02 66.236 0.095 6.32 1.25 5.96
8/3/2022 11:45:00 AM 19.13 66.434 0.096 6.32 1.23 5.71
8/3/2022 12:00:00 PM 19.17 66.506 0.095 6.31 1.29 5.77
8/3/2022 12:15:00 PM 19.33 66.794 0.096 6.31 1.17 5.41
8/3/2022 12:30:00 PM 19.49 67.082 0.098 6.27 1.15 5.05
8/3/2022 12:45:00 PM 19.65 67.37 0.098 6.25 1.18 4.78
8/3/2022 1:00:00 PM 19.7 67.46 0.097 6.26 1.13 4.98
8/3/2022 1:15:00 PM 19.73 67.514 0.096 6.32 1.19 5.26
8/3/2022 1:30:00 PM 20.01 68.018 0.095 6.29 1.12 5.44
8/3/2022 1:45:00 PM 19.82 67.676 0.095 6.34 1.18 5.51
8/3/2022 2:00:00 PM 19.98 67.964 0.095 6.33 1.16 5.54
8/3/2022 2:15:00 PM 20.15 68.27 0.095 6.3 1.14 5.64
8/3/2022 2:30:00 PM 20.33 68.594 0.095 6.29 1.11 5.61
8/3/2022 2:45:00 PM 20.02 68.036 0.095 6.33 1.55 5.54
8/3/2022 3:00:00 PM 20.23 68.414 0.095 6.28 1.15 5.59
8/3/2022 3:15:00 PM 20.29 68.522 0.095 6.34 1.21 5.48
8/3/2022 3:30:00 PM 20.14 68.252 0.095 6.26 1.17 5.43
8/3/2022 3:45:00 PM 20.28 68.504 0.095 6.34 1.1 5.38
8/3/2022 4:00:00 PM 20.27 68.486 0.095 6.28 1.2 5.53
8/3/2022 4:15:00 PM 20.35 68.63 0.095 6.33 1.18 5.35
8/3/2022 4:30:00 PM 20.36 68.648 0.095 6.26 1.14 5.42
8/3/2022 4:45:00 PM 20.56 69.008 0.095 6.31 1.14 5.48
8/3/2022 5:00:00 PM 20.59 69.062 0.095 6.29 1.12 5.49
8/3/2022 5:15:00 PM 20.69 69.242 0.095 6.32 1.13 5.32
8/3/2022 5:30:00 PM 20.83 69.494 0.095 6.29 1.25 5.39
8/3/2022 5:45:00 PM 20.81 69.458 0.096 6.33 1.08 4.9
8/3/2022 6:00:00 PM 20.79 69.422 0.096 6.25 1.13 5
8/3/2022 6:15:00 PM 20.81 69.458 0.096 6.25 1.07 5.14
8/3/2022 6:30:00 PM 20.78 69.404 0.096 6.32 1.09 5.11
8/3/2022 6:45:00 PM 20.63 69.134 0.095 6.24 1.13 5.16
8/3/2022 7:00:00 PM 20.57 69.026 0.095 6.34 1.21 5.22
8/3/2022 7:15:00 PM 20.52 68.936 0.096 6.25 1.11 5.19
8/3/2022 7:30:00 PM 20.45 68.81 0.096 6.3 1.14 4.75
8/3/2022 7:45:00 PM 20.45 68.81 0.096 6.23 1.09 4.73
8/3/2022 8:00:00 PM 20.46 68.828 0.097 6.24 1.1 4.55
8/3/2022 8:15:00 PM 20.48 68.864 0.098 6.21 1.1 4.45
8/3/2022 8:30:00 PM 20.46 68.828 0.098 6.27 1.05 4.28
8/3/2022 8:45:00 PM 20.41 68.738 0.098 6.21 1.03 4.14
8/3/2022 9:00:00 PM 20.48 68.864 0.099 6.21 1.06 3.89
8/3/2022 9:15:00 PM 20.43 68.774 0.1 6.2 1.04 3.68
8/3/2022 9:30:00 PM 20.43 68.774 0.1 6.23 1.03 3.56
8/3/2022 9:45:00 PM 20.39 68.702 0.1 6.18 1.02 3.41
8/3/2022 10:00:00 PM 20.39 68.702 0.102 6.18 1.09 3.26
8/3/2022 10:15:00 PM 20.41 68.738 0.101 6.22 1.06 3.25
8/3/2022 10:30:00 PM 20.38 68.684 0.102 6.17 1 2.92
8/3/2022 10:45:00 PM 20.42 68.756 0.102 6.22 1.04 2.85
8/3/2022 11:00:00 PM 20.47 68.846 0.101 6.17 1.01 2.78
8/3/2022 11:15:00 PM 20.39 68.702 0.101 6.2 1.1 2.92
8/3/2022 11:30:00 PM 20.39 68.702 0.098 6.23 1.04 3.17
8/3/2022 11:45:00 PM 20.35 68.63 0.098 6.24 1.14 3.48
8/4/2022 12:00:00 AM 20.31 68.558 0.098 6.29 1.31 3.55
8/4/2022 12:15:00 AM 20.31 68.558 0.097 6.32 1.3 3.72
8/4/2022 12:30:00 AM 20.3 68.54 0.096 6.27 1.19 3.89
8/4/2022 12:45:00 AM 20.29 68.522 0.095 6.37 1.08 4.61
8/4/2022 1:00:00 AM 20.24 68.432 0.094 6.41 1.17 4.88
8/4/2022 1:15:00 AM 20.18 68.324 0.094 6.45 1.15 4.66
8/4/2022 1:30:00 AM 20.2 68.36 0.094 6.45 1.11 6.32
8/4/2022 1:45:00 AM 20.15 68.27 0.092 6.56 1.09 7.08
8/4/2022 2:00:00 AM 20.11 68.198 0.092 6.55 1.06 7.39
8/4/2022 2:15:00 AM 20.08 68.144 0.093 6.54 1.39 7.16
8/4/2022 2:30:00 AM 20.02 68.036 0.092 6.53 1.36 7.38
8/4/2022 2:45:00 AM 19.96 67.92799 0.092 6.62 1.18 7.61
8/4/2022 3:00:00 AM 19.92 67.856 0.092 6.56 1.09 7.65
8/4/2022 3:15:00 AM 19.9 67.82 0.091 6.6 1.13 7.7
8/4/2022 3:30:00 AM 19.87 67.766 0.091 6.6 1.15 7.76
8/4/2022 3:45:00 AM 19.84 67.712 0.091 6.59 1.09 7.77
8/4/2022 4:00:00 AM 19.8 67.64 0.092 6.58 1.09 7.7
8/4/2022 4:15:00 AM 19.75 67.55 0.092 6.66 1.17 7.81
8/4/2022 4:30:00 AM 19.72 67.496 0.092 6.58 1.1 7.8
8/4/2022 4:45:00 AM 19.66 67.388 0.092 6.59 1.15 7.84
8/4/2022 5:00:00 AM 19.62 67.316 0.092 6.58 1.07 7.81
8/4/2022 5:15:00 AM 19.59 67.262 0.092 6.6 1.25 7.81
8/4/2022 5:30:00 AM 19.62 67.316 0.092 6.59 1.14 7.59
8/4/2022 5:45:00 AM 19.57 67.226 0.092 6.58 1.16 7.65
8/4/2022 6:00:00 AM 19.49 67.082 0.092 6.55 1.2 7.73
8/4/2022 6:15:00 AM 19.44 66.992 0.092 6.57 1.87 7.7
8/4/2022 6:30:00 AM 19.39 66.902 0.092 6.57 1.12 7.8
8/4/2022 6:45:00 AM 19.39 66.902 0.092 6.58 1.21 7.76
8/4/2022 7:00:00 AM 19.37 66.866 0.092 6.57 1.15 7.85
8/4/2022 7:15:00 AM 19.36 66.848 0.092 6.61 1.23 7.85
8/4/2022 7:30:00 AM 19.37 66.866 0.092 6.57 2.8 7.93
8/4/2022 7:45:00 AM 19.35 66.83 0.092 6.58 1.12 7.99
8/4/2022 8:00:00 AM 19.39 66.902 0.092 6.57 1.19 8.05
8/4/2022 8:15:00 AM 19.42 66.956 0.091 6.59 1.25 8.12
8/4/2022 8:30:00 AM 19.5 67.1 0.092 6.55 1.14 7.76
8/4/2022 8:45:00 AM 19.55 67.19 0.093 6.55 1.19 7.59
8/4/2022 9:00:00 AM 19.65 67.37 0.094 6.47 1.19 6.75
8/4/2022 9:15:00 AM 19.68 67.424 0.094 6.43 1.21 6.27
8/4/2022 9:30:00 AM 19.72 67.496 0.095 6.36 1.22 6.1
8/4/2022 9:45:00 AM 19.75 67.55 0.094 6.41 1.31 6.22
8/4/2022 10:00:00 AM 19.92 67.856 0.095 6.37 1.16 5.86
8/4/2022 10:15:00 AM 19.86 67.748 0.095 6.29 1.13 5.61
8/4/2022 10:30:00 AM 19.95 67.91 0.096 6.28 1.32 5.32
8/4/2022 10:45:00 AM 19.98 67.964 0.097 6.24 1.31 4.53
8/4/2022 11:00:00 AM 20.09 68.162 0.097 6.3 1.28 4.25
8/4/2022 11:15:00 AM 20.27 68.486 0.099 6.18 1.14 3.7
8/4/2022 11:30:00 AM 20.5 68.9 0.1 6.25 1.13 3.43
8/4/2022 11:45:00 AM 20.76 69.368 0.099 6.22 1.17 3.77
8/4/2022 12:00:00 PM 20.8 69.44 0.098 6.21 1.11 4.13
8/4/2022 12:15:00 PM 20.55 68.99 0.097 6.29 1.15 4.31
8/4/2022 12:30:00 PM 20.92 69.656 0.096 6.25 1.5 4.61
8/4/2022 12:45:00 PM 20.68 69.224 0.098 6.25 1.55 4
8/4/2022 1:00:00 PM 20.65 69.17 0.098 6.23 1.6 3.94
8/4/2022 1:15:00 PM 20.55 68.99 0.098 6.23 1.62 3.75
8/4/2022 1:30:00 PM 20.51 68.918 0.097 6.21 1.44 3.99
8/4/2022 1:45:00 PM 20.52 68.936 0.096 6.28 1.38 4.35
8/4/2022 2:00:00 PM 20.52 68.936 0.096 6.23 1.51 4.24
8/4/2022 2:15:00 PM 20.54 68.972 0.096 6.24 1.34 4.31
8/4/2022 2:30:00 PM 20.61 69.098 0.096 6.29 1.46 4.52
8/4/2022 2:45:00 PM 20.62 69.116 0.095 6.25 1.39 4.54
8/4/2022 3:00:00 PM 20.74 69.332 0.094 6.27 1.36 4.76
8/4/2022 3:15:00 PM 20.64 69.152 0.096 6.27 1.36 4.32
8/4/2022 3:30:00 PM 20.72 69.296 0.097 6.22 1.26 4.02
8/4/2022 3:45:00 PM 20.8 69.44 0.097 6.29 1.29 4.28
8/4/2022 4:00:00 PM 20.91 69.638 0.096 6.27 1.32 4.83
8/4/2022 4:15:00 PM 20.92 69.656 0.095 6.34 1.31 4.94
8/4/2022 4:30:00 PM 20.88 69.584 0.096 6.27 1.32 4.64
8/4/2022 4:45:00 PM 20.86 69.548 0.097 6.31 1.29 4.21
8/4/2022 5:00:00 PM 21.33 70.394 0.092 6.49 1.2 5.69
8/4/2022 5:15:00 PM 21.62 70.916 0.091 6.52 1.22 7.35
8/4/2022 5:30:00 PM 21.56 70.808 0.09 6.51 1.21 7.39
8/4/2022 5:45:00 PM 21.47 70.646 0.09 6.58 1.15 7.54
8/4/2022 6:00:00 PM 21.48 70.664 0.09 6.59 1.24 7.71
8/4/2022 6:15:00 PM 21.43 70.574 0.09 6.59 1.24 7.66
8/4/2022 6:30:00 PM 21.43 70.574 0.09 6.58 1.18 7.68
8/4/2022 6:45:00 PM 21.41 70.538 0.09 6.63 1.25 7.83
8/4/2022 7:00:00 PM 21.35 70.43 0.09 6.61 1.16 7.71
8/4/2022 7:15:00 PM 21.31 70.358 0.09 6.65 1.25 7.64
8/4/2022 7:30:00 PM 21.28 70.304 0.09 6.57 1.13 7.62
8/4/2022 7:45:00 PM 21.21 70.17799 0.09 6.65 1.17 7.56
8/4/2022 8:00:00 PM 21.16 70.088 0.09 6.57 1.19 7.37
8/4/2022 8:15:00 PM 21.12 70.016 0.09 6.56 1.26 7.46
8/4/2022 8:30:00 PM 21.05 69.89 0.09 6.54 1.28 7.33
8/4/2022 8:45:00 PM 21.01 69.818 0.091 6.52 1.34 7.24
8/4/2022 9:00:00 PM 20.96 69.728 0.091 6.59 1.27 7.24
8/4/2022 9:15:00 PM 20.92 69.656 0.091 6.5 1.2 7.17
8/4/2022 9:30:00 PM 20.88 69.584 0.091 6.52 1.27 7.14
8/4/2022 9:45:00 PM 20.84 69.512 0.091 6.5 1.26 7.18
8/4/2022 10:00:00 PM 20.79 69.422 0.091 6.57 1.36 7.13
8/4/2022 10:15:00 PM 20.78 69.404 0.09 6.51 1.74 7.37
8/4/2022 10:30:00 PM 20.72 69.296 0.091 6.55 1.23 7.1
8/4/2022 10:45:00 PM 20.69 69.242 0.09 6.5 1.2 7.21
8/4/2022 11:00:00 PM 20.65 69.17 0.09 6.55 1.28 7.21
8/4/2022 11:15:00 PM 20.61 69.098 0.09 6.52 1.29 7.33
8/4/2022 11:30:00 PM 20.58 69.044 0.09 6.56 1.19 7.31
8/4/2022 11:45:00 PM 20.54 68.972 0.09 6.5 1.19 7.26
8/5/2022 12:00:00 AM 20.5 68.9 0.09 6.51 1.36 7.26
8/5/2022 12:15:00 AM 20.47 68.846 0.09 6.52 1.23 7.3
8/5/2022 12:30:00 AM 20.42 68.756 0.09 6.51 1.2 7.23
8/5/2022 12:45:00 AM 20.4 68.72 0.09 6.57 1.92 7.26
8/5/2022 1:00:00 AM 20.36 68.648 0.09 6.49 1.17 7.26
8/5/2022 1:15:00 AM 20.33 68.594 0.09 6.52 1.18 7.26
8/5/2022 1:30:00 AM 20.33 68.594 0.09 6.48 1.15 7.19
8/5/2022 1:45:00 AM 20.33 68.594 0.09 6.5 1.12 7.21
8/5/2022 2:00:00 AM 20.31 68.558 0.09 6.5 1.15 7.2
8/5/2022 2:15:00 AM 20.27 68.486 0.09 6.5 1.17 7.25
8/5/2022 2:30:00 AM 20.24 68.432 0.09 6.53 1.14 7.21
8/5/2022 2:45:00 AM 20.21 68.378 0.09 6.55 1.21 7.23
8/5/2022 3:00:00 AM 20.19 68.342 0.09 6.51 1.15 7.2
8/5/2022 3:15:00 AM 20.17 68.306 0.09 6.53 1.17 7.26
8/5/2022 3:30:00 AM 20.15 68.27 0.09 6.49 1.13 7.18
8/5/2022 3:45:00 AM 20.14 68.252 0.09 6.47 1.16 7.14
8/5/2022 4:00:00 AM 20.1 68.18 0.09 6.54 1.21 7.19
8/5/2022 4:15:00 AM 20.06 68.108 0.09 6.49 1.16 7.25
8/5/2022 4:30:00 AM 20.03 68.054 0.09 6.57 1.14 7.31
8/5/2022 4:45:00 AM 20.01 68.018 0.09 6.48 1.17 7.3
8/5/2022 5:00:00 AM 19.99 67.982 0.09 6.53 1.17 7.29
8/5/2022 5:15:00 AM 19.97 67.946 0.09 6.49 1.15 7.3
8/5/2022 5:30:00 AM 19.92 67.856 0.089 6.59 1.13 7.43
8/5/2022 5:45:00 AM 19.91 67.838 0.089 6.57 1.25 7.45
8/5/2022 6:00:00 AM 19.9 67.82 0.09 6.51 1.28 7.4
8/5/2022 6:15:00 AM 19.89 67.802 0.09 6.49 1.81 7.34
8/5/2022 6:30:00 AM 19.87 67.766 0.09 6.52 1.3 7.32
8/5/2022 6:45:00 AM 19.85 67.73 0.09 6.49 1.2 7.35
8/5/2022 7:00:00 AM 19.84 67.712 0.09 6.48 1.6 7.34
8/5/2022 7:15:00 AM 19.8 67.64 0.09 6.51 1.36 7.51
8/5/2022 7:30:00 AM 19.82 67.676 0.09 6.51 2.01 7.35
8/5/2022 7:45:00 AM 19.84 67.712 0.09 6.47 2.34 7.25
8/5/2022 8:00:00 AM 19.81 67.658 0.09 6.52 1.57 7.37
8/5/2022 8:15:00 AM 19.81 67.658 0.09 6.49 1.43 7.4
8/5/2022 8:30:00 AM 19.83 67.694 0.09 6.55 1.36 7.5
8/5/2022 8:45:00 AM 19.9 67.82 0.09 6.5 2.29 7.63
8/5/2022 9:00:00 AM 19.94 67.892 0.089 6.6 3.04 7.87
8/5/2022 9:15:00 AM 20 68 0.09 6.51 1.35 7.78
8/5/2022 9:30:00 AM 20.05 68.09 0.09 6.57 1.37 7.72
8/5/2022 9:45:00 AM 20.11 68.198 0.09 6.52 1.27 7.86
8/5/2022 10:00:00 AM 20.17 68.306 0.09 6.53 1.27 7.66
8/5/2022 10:15:00 AM 20.21 68.378 0.09 6.52 1.25 7.75
8/5/2022 10:30:00 AM 20.26 68.468 0.09 6.59 1.34 7.87
8/5/2022 10:45:00 AM 20.35 68.63 0.09 6.53 1.24 7.88
8/5/2022 11:00:00 AM 20.41 68.738 0.09 6.56 1.16 7.91
8/5/2022 11:15:00 AM 20.42 68.756 0.09 6.54 1.18 7.72
8/5/2022 11:30:00 AM 20.44 68.792 0.09 6.52 1.25 7.68
8/5/2022 11:45:00 AM 20.46 68.828 0.091 6.57 1.19 7.48
8/5/2022 12:00:00 PM 20.48 68.864 0.09 6.52 1.16 7.72
8/5/2022 12:15:00 PM 20.52 68.936 0.09 6.6 1.16 7.78
8/5/2022 12:30:00 PM 20.62 69.116 0.09 6.55 1.37 7.95
8/5/2022 12:45:00 PM 20.72 69.296 0.09 6.56 1.42 7.72
8/5/2022 1:00:00 PM 20.54 68.972 0.094 6.26 1.5 5.27
8/5/2022 1:15:00 PM 20.68 69.224 0.094 6.32 1.18 5.66
8/5/2022 1:30:00 PM 20.58 69.044 0.094 6.23 1.13 4.92
8/5/2022 1:45:00 PM 20.66 69.188 0.095 6.28 1.13 4.91
8/5/2022 2:00:00 PM 20.79 69.422 0.095 6.22 1.29 4.81
8/5/2022 2:15:00 PM 20.8 69.44 0.095 6.3 1.13 4.76
8/5/2022 2:30:00 PM 20.99 69.782 0.095 6.22 1.12 4.64
8/5/2022 2:45:00 PM 21.03 69.854 0.095 6.25 1.24 4.77
8/5/2022 3:00:00 PM 21.08 69.944 0.096 6.22 1.2 4.61
8/5/2022 3:15:00 PM 21.2 70.16 0.095 6.29 1.31 4.9
8/5/2022 3:30:00 PM 21.33 70.394 0.094 6.26 1.25 5.14
8/5/2022 3:45:00 PM 21.24 70.232 0.095 6.32 1.44 4.99
8/5/2022 4:00:00 PM 21.54 70.772 0.093 6.28 1.15 5.38
8/5/2022 4:15:00 PM 21.32 70.376 0.094 6.33 1.21 5.21
8/5/2022 4:30:00 PM 21.56 70.808 0.093 6.26 1.13 5.61
8/5/2022 4:45:00 PM 21.5 70.7 0.093 6.34 1.14 5.36
8/5/2022 5:00:00 PM 21.65 70.97 0.093 6.29 1.17 5.63
8/5/2022 5:15:00 PM 21.58 70.844 0.093 6.37 1.09 5.54
8/5/2022 5:30:00 PM 21.54 70.772 0.093 6.25 1.14 5.42
8/5/2022 5:45:00 PM 21.57 70.826 0.094 6.32 1.14 5.17
8/5/2022 6:00:00 PM 21.57 70.826 0.094 6.23 1.14 4.89
8/5/2022 6:15:00 PM 21.45 70.61 0.094 6.3 1.18 4.86
8/5/2022 6:30:00 PM 21.68 71.024 0.094 6.31 1.14 5.66
8/5/2022 6:45:00 PM 21.25 70.25 0.095 6.2 1.22 4.75
8/5/2022 7:00:00 PM 21.35 70.43 0.096 6.28 1.27 4.38
8/5/2022 7:15:00 PM 21.45 70.61 0.097 6.2 1.11 4.18
8/5/2022 7:30:00 PM 21.43 70.574 0.097 6.28 1.28 4.12
8/5/2022 7:45:00 PM 21.38 70.484 0.096 6.22 1.26 4.16
8/5/2022 8:00:00 PM 21.43 70.574 0.096 6.26 1.15 4.44
8/5/2022 8:15:00 PM 21.45 70.61 0.095 6.25 1.27 4.65
8/5/2022 8:30:00 PM 21.48 70.664 0.095 6.29 1.12 4.78
8/5/2022 8:45:00 PM 21.4 70.52 0.095 6.24 1.12 4.5
8/5/2022 9:00:00 PM 21.39 70.502 0.095 6.23 1.12 4.5
8/5/2022 9:15:00 PM 21.31 70.358 0.096 6.31 1.6 4.17
8/5/2022 9:30:00 PM 21.33 70.394 0.095 6.31 1.45 4.89
8/5/2022 9:45:00 PM 21.29 70.32201 0.094 6.31 1.23 5.06
8/5/2022 10:00:00 PM 21.26 70.268 0.095 6.28 1.21 4.96
8/5/2022 10:15:00 PM 21.23 70.214 0.094 6.36 1.22 4.63
8/5/2022 10:30:00 PM 21.19 70.142 0.095 6.26 1.21 4.59
8/5/2022 10:45:00 PM 21.17 70.106 0.094 6.32 1.29 5.08
8/5/2022 11:00:00 PM 21.15 70.07 0.093 6.35 1.18 5.12
8/5/2022 11:15:00 PM 21.12 70.016 0.094 6.33 1.08 5.13
8/5/2022 11:30:00 PM 21.1 69.98 0.093 6.33 1.18 5.21
8/5/2022 11:45:00 PM 21.07 69.926 0.094 6.33 1.23 5.39
8/6/2022 12:00:00 AM 21.04 69.872 0.093 6.41 1.28 5.52
8/6/2022 12:15:00 AM 21.03 69.854 0.092 6.38 1.22 6.18
8/6/2022 12:30:00 AM 21 69.8 0.092 6.46 1.17 6.48
8/6/2022 12:45:00 AM 20.98 69.764 0.092 6.42 1.17 6.52
8/6/2022 1:00:00 AM 20.94 69.692 0.093 6.46 1.22 6.25
8/6/2022 1:15:00 AM 20.91 69.638 0.093 6.43 1.26 6.34
8/6/2022 1:30:00 AM 20.88 69.584 0.092 6.45 1.36 6.51
8/6/2022 1:45:00 AM 20.87 69.566 0.092 6.44 1.19 6.62
8/6/2022 2:00:00 AM 20.78 69.404 0.092 6.48 1.19 6.85
8/6/2022 2:15:00 AM 20.76 69.368 0.092 6.49 1.26 6.98
8/6/2022 2:30:00 AM 20.74 69.332 0.092 6.56 1.24 7.01
8/6/2022 2:45:00 AM 20.71 69.278 0.092 6.48 1.17 7.05
8/6/2022 3:00:00 AM 20.67 69.206 0.092 6.49 1.19 7.06
8/6/2022 3:15:00 AM 20.65 69.17 0.092 6.53 1.13 7.16
8/6/2022 3:30:00 AM 20.63 69.134 0.092 6.52 1.14 7.08
8/6/2022 3:45:00 AM 20.6 69.08 0.092 6.51 1.18 7.19
8/6/2022 4:00:00 AM 20.57 69.026 0.092 6.48 1.18 7.14
8/6/2022 4:15:00 AM 20.54 68.972 0.092 6.58 1.25 7.17
8/6/2022 4:30:00 AM 20.55 68.99 0.093 6.48 1.17 7.1
8/6/2022 4:45:00 AM 20.5 68.9 0.093 6.51 1.18 7.16
8/6/2022 5:00:00 AM 20.48 68.864 0.092 6.51 1.18 7.2
8/6/2022 5:15:00 AM 20.46 68.828 0.092 6.51 1.44 7.24
8/6/2022 5:30:00 AM 20.44 68.792 0.092 6.53 1.34 7.33
8/6/2022 5:45:00 AM 20.42 68.756 0.093 6.52 1.3 7.2
8/6/2022 6:00:00 AM 20.39 68.702 0.092 6.54 1.26 7.33
8/6/2022 6:15:00 AM 20.36 68.648 0.092 6.54 1.25 7.39
8/6/2022 6:30:00 AM 20.36 68.648 0.093 6.57 1.33 7.29
8/6/2022 6:45:00 AM 20.35 68.63 0.093 6.51 1.27 7.32
8/6/2022 7:00:00 AM 20.34 68.612 0.092 6.55 1.27 7.51
8/6/2022 7:15:00 AM 20.36 68.648 0.092 6.61 1.21 7.53
8/6/2022 7:30:00 AM 20.33 68.594 0.092 6.63 1.21 7.68
8/6/2022 7:45:00 AM 20.33 68.594 0.092 6.63 1.28 7.71
8/6/2022 8:00:00 AM 20.32 68.576 0.092 6.59 1.25 7.95
8/6/2022 8:15:00 AM 20.3 68.54 0.092 6.64 1.2 7.98
8/6/2022 8:30:00 AM 20.32 68.576 0.092 6.58 1.25 7.78
8/6/2022 8:45:00 AM 20.3 68.54 0.092 6.58 1.29 7.92
8/6/2022 9:00:00 AM 20.32 68.576 0.092 6.66 1.23 8.2
8/6/2022 9:15:00 AM 20.41 68.738 0.092 6.62 1.23 8.16
8/6/2022 9:30:00 AM 20.48 68.864 0.091 6.75 1.3 8.44
8/6/2022 9:45:00 AM 20.65 69.17 0.091 6.73 1.3 8.56
8/6/2022 10:00:00 AM 20.77 69.386 0.091 6.79 1.4 8.49
8/6/2022 10:15:00 AM 20.87 69.566 0.091 6.77 1.53 8.52
8/6/2022 10:30:00 AM 21.06 69.908 0.091 6.77 1.4 8.56
8/6/2022 10:45:00 AM 21.29 70.32201 0.091 6.77 1.32 8.65
8/6/2022 11:00:00 AM 21.34 70.412 0.091 6.83 1.62 8.62
8/6/2022 11:15:00 AM 21.31 70.358 0.091 6.78 1.21 8.64
8/6/2022 11:30:00 AM 21.34 70.412 0.091 6.77 1.29 8.64
8/6/2022 11:45:00 AM 21.56 70.808 0.092 6.85 1.22 8.67
8/6/2022 12:00:00 PM 21.63 70.934 0.092 6.78 1.23 8.67
8/6/2022 12:15:00 PM 21.65 70.97 0.092 6.87 1.28 8.65
8/6/2022 12:30:00 PM 21.62 70.916 0.092 6.83 1.38 8.6
8/6/2022 12:45:00 PM 21.67 71.006 0.092 6.8 1.26 8.67
8/6/2022 1:00:00 PM 21.74 71.132 0.093 6.8 1.22 8.67
8/6/2022 1:15:00 PM 21.83 71.294 0.093 6.89 1.21 8.78
8/6/2022 1:30:00 PM 22.12 71.816 0.093 6.81 1.23 8.7
8/6/2022 1:45:00 PM 22.47 72.446 0.093 6.88 1.23 8.63
8/6/2022 2:00:00 PM 22.77 72.986 0.093 6.83 1.37 8.62
8/6/2022 2:15:00 PM 22.83 73.094 0.094 6.82 2.6 8.54
8/6/2022 2:30:00 PM 22.94 73.292 0.094 6.88 1.3 8.58
8/6/2022 2:45:00 PM 23.18 73.724 0.094 6.87 1.21 8.63
8/6/2022 3:00:00 PM 23.11 73.598 0.094 6.85 1.15 8.53
8/6/2022 3:15:00 PM 22.94 73.292 0.094 6.83 1.19 8.5
8/6/2022 3:30:00 PM 22.93 73.274 0.094 6.85 1.21 8.53
8/6/2022 3:45:00 PM 22.93 73.274 0.094 6.81 1.16 8.47
8/6/2022 4:00:00 PM 22.82 73.076 0.094 6.83 1.18 8.45
8/6/2022 4:15:00 PM 22.77 72.986 0.094 6.76 1.19 8.33
8/6/2022 4:30:00 PM 22.67 72.806 0.094 6.78 1.22 8.31
8/6/2022 4:45:00 PM 22.68 72.824 0.094 6.73 1.21 8.27
8/6/2022 5:00:00 PM 22.75 72.95 0.094 6.77 1.18 8.26
8/6/2022 5:15:00 PM 22.65 72.77 0.094 6.71 1.16 8.16
8/6/2022 5:30:00 PM 22.81 73.058 0.093 6.77 1.2 8.32
8/6/2022 5:45:00 PM 22.88 73.184 0.093 6.73 1.3 8.25
8/6/2022 6:00:00 PM 22.75 72.95 0.094 6.75 1.18 8.09
8/6/2022 6:15:00 PM 22.72 72.896 0.094 6.69 1.12 8.08
8/6/2022 6:30:00 PM 22.67 72.806 0.094 6.71 1.2 8.07
8/6/2022 6:45:00 PM 22.59 72.662 0.094 6.66 1.09 7.89
8/6/2022 7:00:00 PM 22.52 72.536 0.094 6.67 1.12 7.86
8/6/2022 7:15:00 PM 22.47 72.446 0.094 6.64 1.16 7.79
8/6/2022 7:30:00 PM 22.38 72.284 0.094 6.63 1.21 7.66
8/6/2022 7:45:00 PM 22.36 72.248 0.094 6.6 1.11 7.55
8/6/2022 8:00:00 PM 22.27 72.086 0.094 6.61 1.21 7.44
8/6/2022 8:15:00 PM 22.17 71.906 0.095 6.57 1.13 7.4
8/6/2022 8:30:00 PM 22.13 71.834 0.095 6.61 1.27 7.39
8/6/2022 8:45:00 PM 22.09 71.762 0.095 6.57 1.43 7.42
8/6/2022 9:00:00 PM 22.09 71.762 0.095 6.61 1.31 7.4
8/6/2022 9:15:00 PM 22.04 71.672 0.095 6.54 1.24 7.26
8/6/2022 9:30:00 PM 21.99 71.582 0.095 6.55 1.58 7.07
8/6/2022 9:45:00 PM 21.92 71.456 0.095 6.55 1.15 7.14
8/6/2022 10:00:00 PM 21.88 71.384 0.095 6.56 1.2 7.14
8/6/2022 10:15:00 PM 21.84 71.312 0.095 6.54 1.33 7.21
8/6/2022 10:30:00 PM 21.78 71.204 0.095 6.5 1.15 7.13
8/6/2022 10:45:00 PM 21.73 71.114 0.095 6.51 1.11 7.06
8/6/2022 11:00:00 PM 21.69 71.042 0.095 6.48 1.18 7.07
8/6/2022 11:15:00 PM 21.63 70.934 0.095 6.51 1.15 7.13
8/6/2022 11:30:00 PM 21.61 70.898 0.095 6.49 1.12 7.1
8/6/2022 11:45:00 PM 21.59 70.862 0.095 6.5 1.16 7.13
8/7/2022 12:00:00 AM 21.54 70.772 0.095 6.51 1.17 7.18
8/7/2022 12:15:00 AM 21.52 70.736 0.095 6.55 1.13 7.17
8/7/2022 12:30:00 AM 21.49 70.682 0.095 6.48 1.13 7.08
8/7/2022 12:45:00 AM 21.47 70.646 0.095 6.48 1.14 7.05
8/7/2022 1:00:00 AM 21.48 70.664 0.095 6.46 1.16 7.01
8/7/2022 1:15:00 AM 21.46 70.628 0.095 6.48 1.21 6.9
8/7/2022 1:30:00 AM 21.41 70.538 0.095 6.48 1.13 7.02
8/7/2022 1:45:00 AM 21.38 70.484 0.095 6.46 1.18 6.99
8/7/2022 2:00:00 AM 21.37 70.466 0.095 6.53 1.1 6.94
8/7/2022 2:15:00 AM 21.33 70.394 0.095 6.46 1.14 7.06
8/7/2022 2:30:00 AM 21.31 70.358 0.095 6.52 1.12 7.04
8/7/2022 2:45:00 AM 21.3 70.34 0.095 6.47 1.21 7.07
8/7/2022 3:00:00 AM 21.27 70.286 0.095 6.52 1.11 7.04
8/7/2022 3:15:00 AM 21.24 70.232 0.095 6.46 1.37 7.03
8/7/2022 3:30:00 AM 21.22 70.196 0.095 6.54 1.09 7.03
8/7/2022 3:45:00 AM 21.18 70.124 0.095 6.48 1.14 7.08
8/7/2022 4:00:00 AM 21.16 70.088 0.095 6.5 1.12 7.13
8/7/2022 4:15:00 AM 21.13 70.034 0.095 6.49 1.15 7.1
8/7/2022 4:30:00 AM 21.09 69.962 0.095 6.49 1.2 7.13
8/7/2022 4:45:00 AM 21.06 69.908 0.095 6.52 1.13 7.18
8/7/2022 5:00:00 AM 21.04 69.872 0.095 6.49 1.11 7.15
8/7/2022 5:15:00 AM 21.03 69.854 0.095 6.55 1.14 7.04
8/7/2022 5:30:00 AM 20.99 69.782 0.095 6.47 1.13 7.17
8/7/2022 5:45:00 AM 20.96 69.728 0.095 6.55 1.13 7.18
8/7/2022 6:00:00 AM 20.94 69.692 0.095 6.47 1.16 7.06
8/7/2022 6:15:00 AM 20.91 69.638 0.095 6.52 1.17 7.1
8/7/2022 6:30:00 AM 20.9 69.62 0.095 6.46 1.14 7.07
8/7/2022 6:45:00 AM 20.89 69.602 0.095 6.5 1.16 7.1
8/7/2022 7:00:00 AM 20.89 69.602 0.095 6.45 1.16 7.03
8/7/2022 7:15:00 AM 20.86 69.548 0.095 6.5 1.15 7.23
8/7/2022 7:30:00 AM 20.85 69.53 0.095 6.48 1.19 7.24
8/7/2022 7:45:00 AM 20.85 69.53 0.095 6.56 1.14 7.28
8/7/2022 8:00:00 AM 20.88 69.584 0.095 6.48 1.16 7.35
8/7/2022 8:15:00 AM 20.88 69.584 0.095 6.55 1.16 7.45
8/7/2022 8:30:00 AM 20.9 69.62 0.095 6.5 1.16 7.48
8/7/2022 8:45:00 AM 20.92 69.656 0.095 6.58 1.18 7.48
8/7/2022 9:00:00 AM 20.95 69.71 0.094 6.56 1.13 7.55
8/7/2022 9:15:00 AM 20.96 69.728 0.095 6.48 1.19 7.42
8/7/2022 9:30:00 AM 20.97 69.746 0.095 6.55 1.27 7.42
8/7/2022 9:45:00 AM 21 69.8 0.094 6.5 1.09 7.56
8/7/2022 10:00:00 AM 21.04 69.872 0.094 6.52 1.12 7.53
8/7/2022 10:15:00 AM 21.07 69.926 0.094 6.53 1.16 7.58
8/7/2022 10:30:00 AM 21.16 70.088 0.094 6.49 1.14 7.54
8/7/2022 10:45:00 AM 21.2 70.16 0.094 6.55 1.21 7.6
8/7/2022 11:00:00 AM 21.29 70.32201 0.094 6.54 1.2 7.85
8/7/2022 11:15:00 AM 21.36 70.448 0.094 6.6 1.19 7.96
8/7/2022 11:30:00 AM 21.43 70.574 0.094 6.57 1.15 7.91
8/7/2022 11:45:00 AM 21.51 70.718 0.094 6.61 1.21 7.88
8/7/2022 12:00:00 PM 21.78 71.204 0.094 6.55 1.11 7.77
8/7/2022 12:15:00 PM 21.9 71.42 0.095 6.47 1.18 6.56
8/7/2022 12:30:00 PM 21.89 71.402 0.096 6.38 1.12 6.08
8/7/2022 12:45:00 PM 21.79 71.222 0.097 6.28 1.12 5.23
8/7/2022 1:00:00 PM 21.88 71.384 0.098 6.25 1.15 4.72
8/7/2022 1:15:00 PM 22.42 72.356 0.096 6.43 1.13 5.86
8/7/2022 1:30:00 PM 22.31 72.158 0.096 6.44 1.1 5.42
8/7/2022 1:45:00 PM 22.15 71.87 0.097 6.34 1.17 5.26
8/7/2022 2:00:00 PM 22.13 71.834 0.097 6.25 1.21 5.11
8/7/2022 2:15:00 PM 22.05 71.69 0.097 6.35 1.17 5.12
8/7/2022 2:30:00 PM 22.36 72.248 0.097 6.23 1.09 5.01
8/7/2022 2:45:00 PM 22.28 72.104 0.097 6.27 1.18 5.11
8/7/2022 3:00:00 PM 22.44 72.392 0.096 6.29 1.13 5.38
8/7/2022 3:15:00 PM 22.37 72.266 0.097 6.31 1.12 5.04
8/7/2022 3:30:00 PM 22.42 72.356 0.097 6.31 1.3 5.19
8/7/2022 3:45:00 PM 22.56 72.608 0.097 6.3 1.1 5.2
8/7/2022 4:00:00 PM 22.68 72.824 0.096 6.29 1.03 5.34
8/7/2022 4:15:00 PM 22.85 73.13 0.095 6.39 1.37 5.8
8/7/2022 4:30:00 PM 22.66 72.788 0.096 6.3 1.11 5.43
8/7/2022 4:45:00 PM 23.15 73.67 0.095 6.43 1.09 6.25
8/7/2022 5:00:00 PM 22.87 73.166 0.095 6.35 1.16 5.8
8/7/2022 5:15:00 PM 23 73.4 0.095 6.36 1.24 6.03
8/7/2022 5:30:00 PM 23.02 73.436 0.095 6.36 1.08 5.88
8/7/2022 5:45:00 PM 23.09 73.562 0.095 6.42 1.07 6.08
8/7/2022 6:00:00 PM 23.28 73.904 0.094 6.47 1.08 6.92
8/7/2022 6:15:00 PM 23.16 73.688 0.095 6.46 1.1 6.47
8/7/2022 6:30:00 PM 23.04 73.472 0.095 6.54 1.11 6.53
8/7/2022 6:45:00 PM 22.96 73.328 0.095 6.4 1.13 6.03
8/7/2022 7:00:00 PM 22.95 73.31 0.095 6.46 1.09 6.23
8/7/2022 7:15:00 PM 22.82 73.076 0.096 6.33 1.13 5.85
8/7/2022 7:30:00 PM 22.81 73.058 0.095 6.41 1.1 5.59
8/7/2022 7:45:00 PM 22.74 72.932 0.096 6.44 1.09 5.53
8/7/2022 8:00:00 PM 22.74 72.932 0.096 6.36 1.16 5.61
8/7/2022 8:15:00 PM 22.77 72.986 0.096 6.45 1.11 6.03
8/7/2022 8:30:00 PM 22.71 72.878 0.096 6.37 1.12 5.99
8/7/2022 8:45:00 PM 22.66 72.788 0.096 6.4 1.07 5.77
8/7/2022 9:00:00 PM 22.64 72.752 0.096 6.41 1.13 6.03
8/7/2022 9:15:00 PM 22.58 72.644 0.096 6.37 2.51 5.97
8/7/2022 9:30:00 PM 22.53 72.554 0.096 6.41 1.17 5.91
8/7/2022 9:45:00 PM 22.48 72.464 0.096 6.39 1.18 6.06
8/7/2022 10:00:00 PM 22.47 72.446 0.096 6.47 1.13 6.19
8/7/2022 10:15:00 PM 22.41 72.338 0.096 6.4 1.14 6.16
8/7/2022 10:30:00 PM 22.38 72.284 0.096 6.43 1.18 6.09
8/7/2022 10:45:00 PM 22.34 72.212 0.097 6.37 1.26 5.73
8/7/2022 11:00:00 PM 22.3 72.14 0.096 6.46 1.23 5.77
8/7/2022 11:15:00 PM 22.26 72.068 0.096 6.4 1.14 5.74
8/7/2022 11:30:00 PM 22.22 71.996 0.097 6.38 1.36 5.63
8/7/2022 11:45:00 PM 22.19 71.942 0.097 6.35 1.26 5.53
8/8/2022 12:00:00 AM 22.15 71.87 0.096 6.47 1.15 6.24
8/8/2022 12:15:00 AM 22.12 71.816 0.096 6.38 1.13 6.12
8/8/2022 12:30:00 AM 22.08 71.744 0.096 6.48 1.14 6.17
8/8/2022 12:45:00 AM 22.05 71.69 0.095 6.44 1.17 6.54
8/8/2022 1:00:00 AM 22 71.6 0.095 6.53 1.18 6.74
8/8/2022 1:15:00 AM 21.93 71.474 0.095 6.48 1.34 6.98
8/8/2022 1:30:00 AM 21.9 71.42 0.095 6.57 1.8 7.05
8/8/2022 1:45:00 AM 21.85 71.33 0.095 6.51 1.24 7.1
8/8/2022 2:00:00 AM 21.81 71.258 0.095 6.61 1.14 7.13
8/8/2022 2:15:00 AM 21.76 71.168 0.095 6.5 1.15 7.09
8/8/2022 2:30:00 AM 21.72 71.096 0.095 6.58 1.17 7.08
8/8/2022 2:45:00 AM 21.68 71.024 0.095 6.57 1.18 7.02
8/8/2022 3:00:00 AM 21.62 70.916 0.095 6.52 1.17 7.12
8/8/2022 3:15:00 AM 21.6 70.88 0.095 6.53 1.11 7.04
8/8/2022 3:30:00 AM 21.55 70.79 0.095 6.51 1.07 7.03
8/8/2022 3:45:00 AM 21.5 70.7 0.095 6.54 1.13 7.11
8/8/2022 4:00:00 AM 21.46 70.628 0.095 6.51 1.1 7.11
8/8/2022 4:15:00 AM 21.42 70.556 0.095 6.53 1.14 7.14
8/8/2022 4:30:00 AM 21.38 70.484 0.095 6.51 1.12 7.15
8/8/2022 4:45:00 AM 21.35 70.43 0.095 6.53 1.1 7.09
8/8/2022 5:00:00 AM 21.32 70.376 0.095 6.52 1.16 7.18
8/8/2022 5:15:00 AM 21.29 70.32201 0.095 6.61 1.18 7.18
8/8/2022 5:30:00 AM 21.29 70.32201 0.095 6.49 1.26 7.12
8/8/2022 5:45:00 AM 21.27 70.286 0.095 6.57 1.34 7.01
8/8/2022 6:00:00 AM 21.19 70.142 0.095 6.57 1.22 7.24
8/8/2022 6:15:00 AM 21.16 70.088 0.095 6.49 1.2 7.15
8/8/2022 6:30:00 AM 21.15 70.07 0.095 6.57 1.41 7.06
8/8/2022 6:45:00 AM 21.14 70.052 0.095 6.47 1.27 6.99
8/8/2022 7:00:00 AM 21.12 70.016 0.095 6.51 1.16 7.03
8/8/2022 7:15:00 AM 21.1 69.98 0.095 6.49 1.17 7.09
8/8/2022 7:30:00 AM 21.09 69.962 0.095 6.51 1.28 7.1
8/8/2022 7:45:00 AM 21.08 69.944 0.095 6.51 1.13 7.23
8/8/2022 8:00:00 AM 21.1 69.98 0.095 6.58 1.12 7.21
8/8/2022 8:15:00 AM 21.11 69.998 0.095 6.52 1.22 7.31
8/8/2022 8:30:00 AM 21.15 70.07 0.095 6.59 1.2 7.29
8/8/2022 8:45:00 AM 21.17 70.106 0.094 6.54 1.18 7.28
8/8/2022 9:00:00 AM 21.2 70.16 0.094 6.52 1.17 7.4
8/8/2022 9:15:00 AM 21.22 70.196 0.094 6.61 1.11 7.42
8/8/2022 9:30:00 AM 21.25 70.25 0.094 6.55 1.18 7.46
8/8/2022 9:45:00 AM 21.28 70.304 0.094 6.56 1.51 7.51
8/8/2022 10:00:00 AM 21.31 70.358 0.094 6.55 1.31 7.5
8/8/2022 10:15:00 AM 21.33 70.394 0.094 6.51 1.19 7.4
8/8/2022 10:30:00 AM 21.34 70.412 0.094 6.48 1.51 7.12
8/8/2022 10:45:00 AM 21.38 70.484 0.095 6.48 1.73 6.7
8/8/2022 11:00:00 AM 21.46 70.628 0.096 6.4 1.6 6.02
8/8/2022 11:15:00 AM 21.47 70.646 0.096 6.31 1.87 5.66
8/8/2022 11:30:00 AM 21.64 70.952 0.097 6.35 1.41 5.21
8/8/2022 11:45:00 AM 21.64 70.952 0.097 6.24 1.55 4.89
8/8/2022 12:00:00 PM 21.73 71.114 0.097 6.25 1.47 4.7
8/8/2022 12:15:00 PM 21.82 71.276 0.097 6.25 1.59 4.72
8/8/2022 12:30:00 PM 21.93 71.474 0.097 6.25 1.4 4.65
8/8/2022 12:45:00 PM 22.13 71.834 0.097 6.28 1.51 4.95
8/8/2022 1:00:00 PM 21.89 71.402 0.098 6.24 1.41 4.51
8/8/2022 1:15:00 PM 21.96 71.528 0.098 6.22 1.35 4.18
8/8/2022 1:30:00 PM 21.95 71.51 0.099 6.2 1.26 4.07
8/8/2022 1:45:00 PM 22.05 71.69 0.099 6.2 1.19 3.97
8/8/2022 2:00:00 PM 22.04 71.672 0.098 6.24 1.22 4.14
8/8/2022 2:15:00 PM 22.27 72.086 0.098 6.21 1.17 4.32
8/8/2022 2:30:00 PM 22.14 71.852 0.098 6.2 1.14 4.16
8/8/2022 2:45:00 PM 22.19 71.942 0.098 6.21 1.22 4.35
8/8/2022 3:00:00 PM 22.14 71.852 0.098 6.3 1.2 4.33
8/8/2022 3:15:00 PM 22.14 71.852 0.098 6.22 1.21 4.55
8/8/2022 3:30:00 PM 22.22 71.996 0.098 6.3 1.25 4.58
8/8/2022 3:45:00 PM 22.26 72.068 0.098 6.22 1.08 4.6
8/8/2022 4:00:00 PM 22.2 71.96 0.098 6.29 1.17 4.54
8/8/2022 4:15:00 PM 22.26 72.068 0.098 6.21 1.08 4.53
8/8/2022 4:30:00 PM 22.26 72.068 0.098 6.3 1.12 4.56
8/8/2022 4:45:00 PM 22.22 71.996 0.098 6.21 1.08 4.32
8/8/2022 5:00:00 PM 22.3 72.14 0.098 6.22 1.1 4.32
8/8/2022 5:15:00 PM 22.29 72.122 0.098 6.2 1.1 4.34
8/8/2022 5:30:00 PM 22.38 72.284 0.099 6.23 1.21 3.94
8/8/2022 5:45:00 PM 22.45 72.41 0.099 6.24 1.24 4.06
8/8/2022 6:00:00 PM 22.53 72.554 0.099 6.19 1.28 3.99
8/8/2022 6:15:00 PM 22.51 72.518 0.099 6.21 1.16 3.95
8/8/2022 6:30:00 PM 22.54 72.57201 0.099 6.29 1.28 3.93
8/8/2022 6:45:00 PM 22.52 72.536 0.099 6.18 1.17 3.86
8/8/2022 7:00:00 PM 22.51 72.518 0.099 6.26 6.94 3.7
8/8/2022 7:15:00 PM 22.48 72.464 0.099 6.15 1.45 3.66
8/8/2022 7:30:00 PM 22.43 72.374 0.099 6.18 1.34 3.58
8/8/2022 7:45:00 PM 22.44 72.392 0.1 6.2 1.24 3.57
8/8/2022 8:00:00 PM 22.43 72.374 0.1 6.24 1.17 3.51
8/8/2022 8:15:00 PM 22.4 72.32 0.1 6.19 1.18 3.37
8/8/2022 8:30:00 PM 22.4 72.32 0.1 6.25 1.13 3.38
8/8/2022 8:45:00 PM 22.41 72.338 0.1 6.22 1.2 3.37
8/8/2022 9:00:00 PM 22.38 72.284 0.099 6.25 1.41 3.62
8/8/2022 9:15:00 PM 22.35 72.23 0.097 6.33 1.94 4.22
8/8/2022 9:30:00 PM 22.3 72.14 0.095 6.41 1.41 4.87
8/8/2022 9:45:00 PM 22.27 72.086 0.095 6.53 1.53 6.36
8/8/2022 10:00:00 PM 22.23 72.014 0.094 6.55 1.33 6.66
8/8/2022 10:15:00 PM 22.18 71.924 0.094 6.52 1.31 6.92
8/8/2022 10:30:00 PM 22.13 71.834 0.094 6.63 1.16 7
8/8/2022 10:45:00 PM 22.1 71.78 0.094 6.52 1.15 7.05
8/8/2022 11:00:00 PM 22.06 71.708 0.094 6.58 1.34 7.03
8/8/2022 11:15:00 PM 22.04 71.672 0.094 6.53 1.93 7.07
8/8/2022 11:30:00 PM 22 71.6 0.094 6.61 1.38 7.06
8/8/2022 11:45:00 PM 21.96 71.528 0.094 6.53 1.4 7.12
8/9/2022 12:00:00 AM 21.93 71.474 0.094 6.59 1.12 7.16
8/9/2022 12:15:00 AM 21.91 71.438 0.094 6.53 1.08 7.07
8/9/2022 12:30:00 AM 21.88 71.384 0.094 6.62 1.1 7.03
8/9/2022 12:45:00 AM 21.85 71.33 0.094 6.58 1.12 7.1
8/9/2022 1:00:00 AM 21.84 71.312 0.094 6.53 1.09 7.05
8/9/2022 1:15:00 AM 21.84 71.312 0.094 6.56 1.1 6.99
8/9/2022 1:30:00 AM 21.82 71.276 0.094 6.51 1.29 7.04
8/9/2022 1:45:00 AM 21.8 71.24 0.093 6.6 2.04 7.11
8/9/2022 2:00:00 AM 21.79 71.222 0.093 6.54 1.75 7.04
8/9/2022 2:15:00 AM 21.77 71.186 0.093 6.55 1.28 7
8/9/2022 2:30:00 AM 21.74 71.132 0.093 6.53 1.28 7.02
8/9/2022 2:45:00 AM 21.7 71.06 0.093 6.53 1.19 7.04
8/9/2022 3:00:00 AM 21.67 71.006 0.093 6.57 1.18 6.98
8/9/2022 3:15:00 AM 21.64 70.952 0.093 6.49 1.16 6.95
8/9/2022 3:30:00 AM 21.61 70.898 0.093 6.5 1.17 6.86
8/9/2022 3:45:00 AM 21.59 70.862 0.093 6.48 1.22 6.87
8/9/2022 4:00:00 AM 21.58 70.844 0.093 6.58 1.17 6.9
8/9/2022 4:15:00 AM 21.57 70.826 0.093 6.53 1.21 6.86
8/9/2022 4:30:00 AM 21.54 70.772 0.093 6.46 1.25 6.9
8/9/2022 4:45:00 AM 21.52 70.736 0.093 6.56 1.22 6.95
8/9/2022 5:00:00 AM 21.52 70.736 0.093 6.46 1.33 6.95
8/9/2022 5:15:00 AM 21.52 70.736 0.094 6.49 1.23 6.88
8/9/2022 5:30:00 AM 21.52 70.736 0.094 6.47 1.24 6.87
8/9/2022 5:45:00 AM 21.5 70.7 0.094 6.52 1.13 6.8
8/9/2022 6:00:00 AM 21.47 70.646 0.094 6.48 1.31 6.78
8/9/2022 6:15:00 AM 21.45 70.61 0.094 6.51 1.26 6.74
8/9/2022 6:30:00 AM 21.45 70.61 0.094 6.47 1.2 6.71
8/9/2022 6:45:00 AM 21.43 70.574 0.094 6.47 1.13 6.84
8/9/2022 7:00:00 AM 21.41 70.538 0.094 6.56 1.24 6.95
8/9/2022 7:15:00 AM 21.4 70.52 0.094 6.53 1.18 7.06
8/9/2022 7:30:00 AM 21.38 70.484 0.094 6.51 1.13 7.12
8/9/2022 7:45:00 AM 21.37 70.466 0.094 6.58 1.19 7.16
8/9/2022 8:00:00 AM 21.38 70.484 0.094 6.5 1.17 7.15
8/9/2022 8:15:00 AM 21.41 70.538 0.094 6.58 1.19 7.19
8/9/2022 8:30:00 AM 21.43 70.574 0.094 6.52 1.18 7.34
8/9/2022 8:45:00 AM 21.43 70.574 0.094 6.61 1.21 7.4
8/9/2022 9:00:00 AM 21.43 70.574 0.094 6.52 1.13 7.32
8/9/2022 9:15:00 AM 21.45 70.61 0.094 6.62 1.21 7.44
8/9/2022 9:30:00 AM 21.44 70.592 0.093 6.56 1.22 7.55
8/9/2022 9:45:00 AM 21.43 70.574 0.093 6.56 1.31 7.53
8/9/2022 10:00:00 AM 21.44 70.592 0.093 6.61 1.3 7.53
8/9/2022 10:15:00 AM 21.48 70.664 0.094 6.54 1.21 7.51
8/9/2022 10:30:00 AM 21.49 70.682 0.094 6.6 1.26 7.45
8/9/2022 10:45:00 AM 21.47 70.646 0.093 6.63 1.26 7.69
8/9/2022 11:00:00 AM 21.47 70.646 0.093 6.61 1.2 7.83
8/9/2022 11:15:00 AM 21.49 70.682 0.093 6.6 1.21 7.75
8/9/2022 11:30:00 AM 21.47 70.646 0.093 6.6 1.24 7.74
8/9/2022 11:45:00 AM 21.46 70.628 0.093 6.56 1.3 7.6
8/9/2022 12:00:00 PM 21.48 70.664 0.094 6.61 1.15 7.46
8/9/2022 12:15:00 PM 21.48 70.664 0.093 6.58 1.2 7.72
8/9/2022 12:30:00 PM 21.52 70.736 0.093 6.63 1.22 7.94
8/9/2022 12:45:00 PM 21.56 70.808 0.092 6.74 1.4 8.11
8/9/2022 1:00:00 PM 21.58 70.844 0.092 6.71 1.21 8.12
8/9/2022 1:15:00 PM 21.59 70.862 0.092 6.66 1.3 7.98
8/9/2022 1:30:00 PM 21.66 70.988 0.092 6.72 1.23 8.1
8/9/2022 1:45:00 PM 21.81 71.258 0.092 6.68 1.29 8.21
8/9/2022 2:00:00 PM 21.97 71.546 0.092 6.78 1.24 8.31
8/9/2022 2:15:00 PM 22.14 71.852 0.092 6.67 1.23 8.19
8/9/2022 2:30:00 PM 22.12 71.816 0.092 6.71 1.23 8.06
8/9/2022 2:45:00 PM 22.12 71.816 0.092 6.67 1.18 8.18
8/9/2022 3:00:00 PM 22.21 71.978 0.092 6.77 1.2 8.24
8/9/2022 3:15:00 PM 22.29 72.122 0.092 6.67 1.21 8.18
8/9/2022 3:30:00 PM 22.35 72.23 0.092 6.69 1.14 8.17
8/9/2022 3:45:00 PM 22.37 72.266 0.092 6.65 1.2 8.06
8/9/2022 4:00:00 PM 22.35 72.23 0.092 6.7 1.19 8.05
8/9/2022 4:15:00 PM 22.34 72.212 0.092 6.76 1.19 8.08
8/9/2022 4:30:00 PM 22.35 72.23 0.092 6.63 1.11 8.04
8/9/2022 4:45:00 PM 22.33 72.194 0.092 6.7 1.25 8
8/9/2022 5:00:00 PM 22.29 72.122 0.092 6.61 1.18 7.86
8/9/2022 5:15:00 PM 22.3 72.14 0.092 6.7 1.28 7.99
8/9/2022 5:30:00 PM 22.27 72.086 0.092 6.62 1.21 7.92
8/9/2022 5:45:00 PM 22.32 72.176 0.092 6.72 1.16 8.09
8/9/2022 6:00:00 PM 22.39 72.302 0.092 6.64 1.19 7.96
8/9/2022 6:15:00 PM 22.3 72.14 0.093 6.61 1.3 7.79
8/9/2022 6:30:00 PM 22.25 72.05 0.093 6.6 1.36 7.62
8/9/2022 6:45:00 PM 22.2 71.96 0.093 6.58 1.19 7.62
8/9/2022 7:00:00 PM 22.12 71.816 0.093 6.64 1.3 7.47
8/9/2022 7:15:00 PM 22.09 71.762 0.093 6.53 1.27 7.35
8/9/2022 7:30:00 PM 22.04 71.672 0.093 6.58 1.14 7.39
8/9/2022 7:45:00 PM 21.98 71.564 0.093 6.52 1.17 7.25
8/9/2022 8:00:00 PM 21.92 71.456 0.093 6.53 1.26 7.18
8/9/2022 8:15:00 PM 21.89 71.402 0.094 6.51 1.13 7.18
8/9/2022 8:30:00 PM 21.84 71.312 0.094 6.6 1.37 7.14
8/9/2022 8:45:00 PM 21.78 71.204 0.093 6.55 1.29 7.24
8/9/2022 9:00:00 PM 21.75 71.15 0.094 6.53 1.23 7.12
8/9/2022 9:15:00 PM 21.72 71.096 0.094 6.51 1.28 7.02
8/9/2022 9:30:00 PM 21.69 71.042 0.094 6.48 1.15 7
8/9/2022 9:45:00 PM 21.64 70.952 0.094 6.54 1.35 7.09
8/9/2022 10:00:00 PM 21.6 70.88 0.094 6.59 1.29 7.16
8/9/2022 10:15:00 PM 21.56 70.808 0.094 6.51 1.35 7.12
8/9/2022 10:30:00 PM 21.51 70.718 0.094 6.51 1.22 7.13
8/9/2022 10:45:00 PM 21.44 70.592 0.094 6.54 1.32 7.21
8/9/2022 11:00:00 PM 21.4 70.52 0.094 6.53 1.21 7.18
8/9/2022 11:15:00 PM 21.37 70.466 0.094 6.59 1.24 7.15
8/9/2022 11:30:00 PM 21.32 70.376 0.094 6.51 1.24 7.2
8/9/2022 11:45:00 PM 21.28 70.304 0.094 6.59 1.24 7.23
8/10/2022 12:00:00 AM 21.24 70.232 0.094 6.54 1.32 7.27
8/10/2022 12:15:00 AM 21.16 70.088 0.094 6.56 1.2 7.34
8/10/2022 12:30:00 AM 21.13 70.034 0.094 6.6 1.22 7.37
8/10/2022 12:45:00 AM 21.1 69.98 0.094 6.54 1.18 7.34
8/10/2022 1:00:00 AM 21.05 69.89 0.094 6.59 1.23 7.33
8/10/2022 1:15:00 AM 21.01 69.818 0.094 6.52 1.29 7.32
8/10/2022 1:30:00 AM 20.96 69.728 0.094 6.59 1.46 7.39
8/10/2022 1:45:00 AM 20.92 69.656 0.094 6.55 1.21 7.43
8/10/2022 2:00:00 AM 20.88 69.584 0.094 6.64 1.29 7.46
8/10/2022 2:15:00 AM 20.87 69.566 0.094 6.53 1.26 7.4
8/10/2022 2:30:00 AM 20.83 69.494 0.094 6.63 1.19 7.45
8/10/2022 2:45:00 AM 20.8 69.44 0.093 6.55 1.26 7.47
8/10/2022 3:00:00 AM 20.78 69.404 0.094 6.59 1.21 7.39
8/10/2022 3:15:00 AM 20.72 69.296 0.094 6.54 1.15 7.45
8/10/2022 3:30:00 AM 20.7 69.26 0.094 6.59 1.15 7.47
8/10/2022 3:45:00 AM 20.65 69.17 0.093 6.56 1.14 7.5
8/10/2022 4:00:00 AM 20.62 69.116 0.094 6.63 1.27 7.51
8/10/2022 4:15:00 AM 20.57 69.026 0.093 6.56 1.17 7.55
8/10/2022 4:30:00 AM 20.53 68.954 0.093 6.57 1.15 7.54
8/10/2022 4:45:00 AM 20.47 68.846 0.094 6.57 1.16 7.57
8/10/2022 5:00:00 AM 20.43 68.774 0.093 6.57 1.13 7.62
8/10/2022 5:15:00 AM 20.41 68.738 0.094 6.64 1.2 7.48
8/10/2022 5:30:00 AM 20.35 68.63 0.094 6.61 1.42 7.48
8/10/2022 5:45:00 AM 20.27 68.486 0.093 6.56 1.26 7.54
8/10/2022 6:00:00 AM 20.22 68.396 0.094 6.62 1.3 7.55
8/10/2022 6:15:00 AM 20.19 68.342 0.094 6.53 1.3 7.45
8/10/2022 6:30:00 AM 20.13 68.234 0.094 6.63 1.38 7.47
8/10/2022 6:45:00 AM 20.08 68.144 0.093 6.54 1.32 7.52
8/10/2022 7:00:00 AM 20.02 68.036 0.093 6.59 1.22 7.58
8/10/2022 7:15:00 AM 19.96 67.92799 0.093 6.57 1.22 7.67
8/10/2022 7:30:00 AM 19.91 67.838 0.094 6.64 1.23 7.71
8/10/2022 7:45:00 AM 19.86 67.748 0.093 6.58 1.23 7.77
8/10/2022 8:00:00 AM 19.85 67.73 0.093 6.59 1.19 7.85
8/10/2022 8:15:00 AM 19.86 67.748 0.094 6.65 1.17 7.75
8/10/2022 8:30:00 AM 19.86 67.748 0.094 6.58 1.16 7.81
8/10/2022 8:45:00 AM 19.82 67.676 0.093 6.66 1.38 8
8/10/2022 9:00:00 AM 19.85 67.73 0.093 6.59 1.21 7.92
8/10/2022 9:15:00 AM 19.88 67.784 0.093 6.65 1.17 7.85
8/10/2022 9:30:00 AM 20 68 0.093 6.58 1.13 7.89
8/10/2022 9:45:00 AM 20.2 68.36 0.094 6.61 1.28 7.61
8/10/2022 10:00:00 AM 20.38 68.684 0.095 6.51 1.09 7.26
8/10/2022 10:15:00 AM 20.49 68.882 0.093 6.64 1.16 7.95
8/10/2022 10:30:00 AM 20.51 68.918 0.094 6.51 1.12 7.32
8/10/2022 10:45:00 AM 20.82 69.476 0.093 6.63 1.14 7.38
8/10/2022 11:00:00 AM 20.76 69.368 0.095 6.4 1.1 6.51
8/10/2022 11:15:00 AM 21.03 69.854 0.096 6.39 1.19 5.96
8/10/2022 11:30:00 AM 20.87 69.566 0.096 6.33 1.28 5.82
8/10/2022 11:45:00 AM 21.16 70.088 0.096 6.38 1.14 5.63
8/10/2022 12:00:00 PM 21.21 70.17799 0.096 6.38 1.29 5.64
8/10/2022 12:15:00 PM 21.36 70.448 0.096 6.34 1.27 5.88
8/10/2022 12:30:00 PM 21.38 70.484 0.096 6.33 1.39 5.83
8/10/2022 12:45:00 PM 21.68 71.024 0.095 6.4 1.22 6.02
8/10/2022 1:00:00 PM 21.67 71.006 0.095 6.39 1.2 6.16
8/10/2022 1:15:00 PM 21.98 71.564 0.094 6.44 1.14 6.83
8/10/2022 1:30:00 PM 21.63 70.934 0.095 6.35 1.16 6.09
8/10/2022 1:45:00 PM 21.66 70.988 0.097 6.39 1.19 5.73
8/10/2022 2:00:00 PM 21.8 71.24 0.096 6.35 1.2 5.74
8/10/2022 2:15:00 PM 21.92 71.456 0.095 6.33 1.12 5.99
8/10/2022 2:30:00 PM 21.86 71.348 0.095 6.39 1.12 5.92
8/10/2022 2:45:00 PM 21.72 71.096 0.095 6.33 1.2 6.03
8/10/2022 3:00:00 PM 21.76 71.168 0.096 6.29 1.13 5.41
8/10/2022 3:15:00 PM 21.8 71.24 0.096 6.3 1.22 5.54
8/10/2022 3:30:00 PM 21.9 71.42 0.096 6.38 1.11 5.63
8/10/2022 3:45:00 PM 21.81 71.258 0.095 6.32 1.12 5.78
8/10/2022 4:00:00 PM 21.95 71.51 0.095 6.41 1.37 5.93
8/10/2022 4:15:00 PM 21.8 71.24 0.096 6.36 1.22 5.6
8/10/2022 4:30:00 PM 21.88 71.384 0.096 6.29 1.15 5.58
8/10/2022 4:45:00 PM 21.93 71.474 0.095 6.37 1.15 5.63
8/10/2022 5:00:00 PM 21.99 71.582 0.095 6.32 1.08 5.81
8/10/2022 5:15:00 PM 22.07 71.726 0.095 6.34 1.14 5.81
8/10/2022 5:30:00 PM 22.05 71.69 0.095 6.3 1.11 5.56
8/10/2022 5:45:00 PM 22.21 71.978 0.095 6.41 1.12 5.96
8/10/2022 6:00:00 PM 22.24 72.032 0.095 6.35 1.2 5.97
8/10/2022 6:15:00 PM 22.13 71.834 0.096 6.29 1.27 5.55
8/10/2022 6:30:00 PM 22.1 71.78 0.096 6.36 1.16 5.46
8/10/2022 6:45:00 PM 22.02 71.636 0.096 6.27 1.17 5.17
8/10/2022 7:00:00 PM 21.99 71.582 0.096 6.36 1.21 5.34
8/10/2022 7:15:00 PM 21.93 71.474 0.096 6.28 1.26 5.18
8/10/2022 7:30:00 PM 21.92 71.456 0.095 6.3 1.48 5.64
8/10/2022 7:45:00 PM 21.87 71.366 0.095 6.43 1.19 6.44
8/10/2022 8:00:00 PM 21.77 71.186 0.095 6.42 1.22 6.49
8/10/2022 8:15:00 PM 21.7 71.06 0.095 6.41 1.15 6.43
8/10/2022 8:30:00 PM 21.62 70.916 0.095 6.43 1.11 6.47
8/10/2022 8:45:00 PM 21.57 70.826 0.095 6.42 1.47 6.28
8/10/2022 9:00:00 PM 21.51 70.718 0.095 6.39 1.4 6.12
8/10/2022 9:15:00 PM 21.48 70.664 0.097 6.42 1.15 5.98
8/10/2022 9:30:00 PM 21.41 70.538 0.096 6.38 1.21 6.05
8/10/2022 9:45:00 PM 21.33 70.394 0.097 6.44 1.33 6.07
8/10/2022 10:00:00 PM 21.28 70.304 0.096 6.38 1.15 6.09
8/10/2022 10:15:00 PM 21.2 70.16 0.096 6.48 1.23 6.22
8/10/2022 10:30:00 PM 21.16 70.088 0.097 6.4 1.15 6.2
8/10/2022 10:45:00 PM 21.11 69.998 0.096 6.44 1.28 6.16
8/10/2022 11:00:00 PM 21.03 69.854 0.096 6.45 1.19 6.3
8/10/2022 11:15:00 PM 20.95 69.71 0.096 6.42 1.21 6.38
8/10/2022 11:30:00 PM 20.83 69.494 0.096 6.52 1.15 6.68
8/10/2022 11:45:00 PM 20.77 69.386 0.095 6.45 1.18 6.71
8/11/2022 12:00:00 AM 20.73 69.314 0.096 6.46 1.18 6.62
8/11/2022 12:15:00 AM 20.64 69.152 0.096 6.44 1.45 6.71
8/11/2022 12:30:00 AM 20.56 69.008 0.095 6.53 1.25 6.87
8/11/2022 12:45:00 AM 20.51 68.918 0.095 6.46 1.32 6.91
8/11/2022 1:00:00 AM 20.43 68.774 0.095 6.51 1.21 6.92
8/11/2022 1:15:00 AM 20.4 68.72 0.095 6.47 1.18 6.86
8/11/2022 1:30:00 AM 20.29 68.522 0.095 6.57 1.23 7.05
8/11/2022 1:45:00 AM 20.22 68.396 0.095 6.49 1.32 7.14
8/11/2022 2:00:00 AM 20.16 68.288 0.095 6.52 1.15 7.13
8/11/2022 2:15:00 AM 20.1 68.18 0.095 6.53 1.29 7.17
8/11/2022 2:30:00 AM 19.99 67.982 0.095 6.52 1.5 7.29
8/11/2022 2:45:00 AM 19.95 67.91 0.095 6.6 1.47 7.25
8/11/2022 3:00:00 AM 19.86 67.748 0.095 6.51 1.34 7.35
8/11/2022 3:15:00 AM 19.81 67.658 0.095 6.58 1.29 7.35
8/11/2022 3:30:00 AM 19.76 67.568 0.095 6.52 1.36 7.32
8/11/2022 3:45:00 AM 19.69 67.442 0.095 6.6 1.25 7.41
8/11/2022 4:00:00 AM 19.62 67.316 0.095 6.52 1.2 7.44
8/11/2022 4:15:00 AM 19.57 67.226 0.095 6.59 1.26 7.38
8/11/2022 4:30:00 AM 19.49 67.082 0.095 6.53 1.18 7.45
8/11/2022 4:45:00 AM 19.43 66.974 0.095 6.55 1.17 7.52
8/11/2022 5:00:00 AM 19.38 66.884 0.095 6.54 1.14 7.53
8/11/2022 5:15:00 AM 19.34 66.812 0.095 6.61 1.3 7.52
8/11/2022 5:30:00 AM 19.31 66.758 0.095 6.52 1.25 7.46
8/11/2022 5:45:00 AM 19.21 66.578 0.094 6.56 1.23 7.56
8/11/2022 6:00:00 AM 19.14 66.452 0.095 6.55 1.2 7.62
8/11/2022 6:15:00 AM 19.14 66.452 0.094 6.57 1.26 7.55
8/11/2022 6:30:00 AM 19.11 66.398 0.095 6.55 1.17 7.58
8/11/2022 6:45:00 AM 19.04 66.272 0.094 6.57 1.2 7.63
8/11/2022 7:00:00 AM 18.99 66.182 0.094 6.56 1.23 7.68
8/11/2022 7:15:00 AM 18.97 66.146 0.094 6.59 1.57 7.68
8/11/2022 7:30:00 AM 18.96 66.128 0.094 6.65 1.17 7.74
8/11/2022 7:45:00 AM 18.93 66.074 0.094 6.59 1.12 7.8
8/11/2022 8:00:00 AM 18.95 66.11 0.094 6.6 1.31 7.81
8/11/2022 8:15:00 AM 18.97 66.146 0.094 6.57 1.2 7.8
8/11/2022 8:30:00 AM 19 66.2 0.094 6.6 1.11 7.84
8/11/2022 8:45:00 AM 19 66.2 0.094 6.59 1.1 7.93
8/11/2022 9:00:00 AM 19.03 66.254 0.094 6.65 1.11 7.97
8/11/2022 9:15:00 AM 19.08 66.344 0.095 6.57 1.14 7.93
8/11/2022 9:30:00 AM 19.19 66.542 0.094 6.59 1.1 7.83
8/11/2022 9:45:00 AM 19.34 66.812 0.094 6.55 1.25 7.66
8/11/2022 10:00:00 AM 19.47 67.046 0.095 6.56 1.11 7.6
8/11/2022 10:15:00 AM 19.46 67.028 0.094 6.58 1.13 7.77
8/11/2022 10:30:00 AM 19.69 67.442 0.093 6.63 1.11 8.04
8/11/2022 10:45:00 AM 19.93 67.874 0.093 6.6 1.34 7.85
8/11/2022 11:00:00 AM 20.16 68.288 0.093 6.63 1.18 7.59
8/11/2022 11:15:00 AM 20.2 68.36 0.093 6.56 1.11 7.88
8/11/2022 11:30:00 AM 20.61 69.098 0.093 6.69 1.05 8.03
8/11/2022 11:45:00 AM 20.77 69.386 0.093 6.6 1.14 7.71
8/11/2022 12:00:00 PM 20.68 69.224 0.094 6.57 1.11 7.15
8/11/2022 12:15:00 PM 21.03 69.854 0.093 6.62 1.07 7.89
8/11/2022 12:30:00 PM 21.06 69.908 0.094 6.53 1.09 7.25
8/11/2022 12:45:00 PM 21.14 70.052 0.094 6.51 1.07 6.99
8/11/2022 1:00:00 PM 21.25 70.25 0.095 6.51 1.11 6.58
8/11/2022 1:15:00 PM 21.41 70.538 0.094 6.41 1.02 6.61
8/11/2022 1:30:00 PM 21 69.8 0.096 6.37 1.07 5.75
8/11/2022 1:45:00 PM 21.25 70.25 0.096 6.36 1.02 6
8/11/2022 2:00:00 PM 21.35 70.43 0.095 6.47 1.07 6.37
8/11/2022 2:15:00 PM 21.65 70.97 0.093 6.52 1.08 7.24
8/11/2022 2:30:00 PM 21.39 70.502 0.094 6.42 1.05 6.35
8/11/2022 2:45:00 PM 21.4 70.52 0.094 6.48 1.03 6.32
8/11/2022 3:00:00 PM 21.46 70.628 0.094 6.44 1.08 6.66
8/11/2022 3:15:00 PM 21.2 70.16 0.095 6.38 1.12 5.78
8/11/2022 3:30:00 PM 21.42 70.556 0.094 6.45 1.13 6.37
8/11/2022 3:45:00 PM 21.03 69.854 0.095 6.35 1.18 5.84
8/11/2022 4:00:00 PM 21.25 70.25 0.095 6.37 1.07 6.21
8/11/2022 4:15:00 PM 21.37 70.466 0.095 6.43 1.09 6.66
8/11/2022 4:30:00 PM 21.07 69.926 0.095 6.36 1.08 5.82
8/11/2022 4:45:00 PM 21.22 70.196 0.095 6.48 1.09 6.36
8/11/2022 5:00:00 PM 21.22 70.196 0.094 6.51 1.06 6.94
8/11/2022 5:15:00 PM 21.16 70.088 0.095 6.47 1.05 6.54
8/11/2022 5:30:00 PM 21.26 70.268 0.094 6.52 1.12 7.04
8/11/2022 5:45:00 PM 21.18 70.124 0.094 6.53 1.19 7.1
8/11/2022 6:00:00 PM 21.13 70.034 0.093 6.57 1.13 7.39
8/11/2022 6:15:00 PM 21.05 69.89 0.093 6.62 1.15 7.75
8/11/2022 6:30:00 PM 20.9 69.62 0.093 6.61 1.11 7.77
8/11/2022 6:45:00 PM 20.81 69.458 0.094 6.62 1.13 7.56
8/11/2022 7:00:00 PM 20.73 69.314 0.094 6.51 1.07 7.13
8/11/2022 7:15:00 PM 20.62 69.116 0.094 6.57 1.1 7.14
8/11/2022 7:30:00 PM 20.61 69.098 0.094 6.47 1.1 6.96
8/11/2022 7:45:00 PM 20.58 69.044 0.095 6.52 1.39 6.76
8/11/2022 8:00:00 PM 20.53 68.954 0.095 6.47 1.13 6.82
8/11/2022 8:15:00 PM 20.45 68.81 0.094 6.56 1.11 6.87
8/11/2022 8:30:00 PM 20.37 68.666 0.094 6.56 1.23 6.98
8/11/2022 8:45:00 PM 20.25 68.45 0.094 6.57 1.16 7.22
8/11/2022 9:00:00 PM 20.22 68.396 0.094 6.49 1.22 7.08
8/11/2022 9:15:00 PM 20.16 68.288 0.095 6.57 1.12 7.02
8/11/2022 9:30:00 PM 20.16 68.288 0.096 6.47 1.26 6.94
8/11/2022 9:45:00 PM 20.08 68.144 0.095 6.57 1.23 7.07
8/11/2022 10:00:00 PM 20 68 0.094 6.51 1.08 7.21
8/11/2022 10:15:00 PM 19.92 67.856 0.094 6.61 1.13 7.27
8/11/2022 10:30:00 PM 19.84 67.712 0.094 6.57 1.11 7.33
8/11/2022 10:45:00 PM 19.78 67.604 0.094 6.55 1.21 7.31
8/11/2022 11:00:00 PM 19.67 67.406 0.094 6.58 1.36 7.45
8/11/2022 11:15:00 PM 19.55 67.19 0.094 6.58 1.17 7.6
8/11/2022 11:30:00 PM 19.51 67.118 0.094 6.57 1.25 7.56
8/11/2022 11:45:00 PM 19.45 67.01 0.094 6.59 1.24 7.62
8/12/2022 12:00:00 AM 19.37 66.866 0.094 6.57 1.2 7.66
8/12/2022 12:15:00 AM 19.23 66.614 0.094 6.62 1.33 7.81
8/12/2022 12:30:00 AM 19.12 66.416 0.093 6.59 1.12 7.83
8/12/2022 12:45:00 AM 19.03 66.254 0.093 6.66 1.2 7.87
8/12/2022 1:00:00 AM 18.97 66.146 0.094 6.6 1.21 7.87
8/12/2022 1:15:00 AM 18.87 65.966 0.093 6.68 1.48 7.96
8/12/2022 1:30:00 AM 18.79 65.82201 0.093 6.59 1.53 7.99
8/12/2022 1:45:00 AM 18.71 65.67799 0.093 6.65 1.28 8.03
8/12/2022 2:00:00 AM 18.7 65.66 0.093 6.58 1.21 7.94
8/12/2022 2:15:00 AM 18.59 65.462 0.093 6.64 1.29 8
8/12/2022 2:30:00 AM 18.52 65.336 0.093 6.6 1.39 7.96
8/12/2022 2:45:00 AM 18.46 65.228 0.093 6.59 1.26 8.02
8/12/2022 3:00:00 AM 18.4 65.12 0.093 6.66 1.27 8.07
8/12/2022 3:15:00 AM 18.28 64.904 0.093 6.64 1.28 8.17
8/12/2022 3:30:00 AM 18.2 64.76 0.093 6.64 1.34 8.17
8/12/2022 3:45:00 AM 18.19 64.742 0.093 6.62 1.27 8.14
8/12/2022 4:00:00 AM 18.1 64.58 0.093 6.63 1.56 8.19
8/12/2022 4:15:00 AM 18.01 64.418 0.093 6.63 1.26 8.23
8/12/2022 4:30:00 AM 17.91 64.238 0.093 6.66 1.29 8.23
8/12/2022 4:45:00 AM 17.84 64.112 0.093 6.65 1.47 8.25
8/12/2022 5:00:00 AM 17.75 63.95 0.093 6.64 1.56 8.23
8/12/2022 5:15:00 AM 17.68 63.824 0.093 6.67 1.29 8.3
8/12/2022 5:30:00 AM 17.61 63.698 0.093 6.66 1.68 8.32
8/12/2022 5:45:00 AM 17.48 63.464 0.093 6.65 1.38 8.4
8/12/2022 6:00:00 AM 17.41 63.338 0.093 6.69 1.49 8.42
8/12/2022 6:15:00 AM 17.33 63.194 0.093 6.68 1.22 8.41
8/12/2022 6:30:00 AM 17.26 63.068 0.093 6.65 1.23 8.44
8/12/2022 6:45:00 AM 17.18 62.924 0.093 6.69 1.19 8.53
8/12/2022 7:00:00 AM 17.15 62.87 0.093 6.69 1.32 8.58
8/12/2022 7:15:00 AM 17.1 62.78 0.093 6.69 1.27 8.62
8/12/2022 7:30:00 AM 17.07 62.726 0.093 6.73 1.18 8.7
8/12/2022 7:45:00 AM 17.07 62.726 0.093 6.74 1.2 8.75
8/12/2022 8:00:00 AM 17.05 62.69 0.092 6.69 1.16 8.81
8/12/2022 8:15:00 AM 17.08 62.744 0.092 6.74 1.19 8.86
8/12/2022 8:30:00 AM 17.11 62.798 0.092 6.7 1.16 8.82
8/12/2022 8:45:00 AM 17.14 62.852 0.092 6.76 1.14 8.87
8/12/2022 9:00:00 AM 17.23 63.014 0.092 6.67 1.18 8.87
8/12/2022 9:15:00 AM 17.37 63.266 0.093 6.77 1.15 8.84
8/12/2022 9:30:00 AM 17.58 63.644 0.093 6.65 1.24 8.29
8/12/2022 9:45:00 AM 17.84 64.112 0.095 6.53 1.21 7.62
8/12/2022 10:00:00 AM 17.92 64.256 0.094 6.52 1.33 7.71
8/12/2022 10:15:00 AM 17.98 64.364 0.094 6.59 1.18 7.79
8/12/2022 10:30:00 AM 18.1 64.58 0.094 6.48 1.26 7.58
8/12/2022 10:45:00 AM 18.44 65.192 0.094 6.52 1.18 7.28
8/12/2022 11:00:00 AM 18.53 65.354 0.095 6.41 1.19 6.82
8/12/2022 11:15:00 AM 18.75 65.75 0.096 6.38 1.18 6.46
8/12/2022 11:30:00 AM 19.07 66.326 0.096 6.36 1.16 6.28
8/12/2022 11:45:00 AM 19.09 66.362 0.097 6.44 1.28 5.99
8/12/2022 12:00:00 PM 19.35 66.83 0.097 6.38 1.25 5.75
8/12/2022 12:15:00 PM 19.47 67.046 0.096 6.35 1.36 5.94
8/12/2022 12:30:00 PM 19.47 67.046 0.096 6.35 1.27 6.09
8/12/2022 12:45:00 PM 19.98 67.964 0.095 6.5 1.44 6.33
8/12/2022 1:00:00 PM 19.58 67.244 0.096 6.33 1.41 5.81
8/12/2022 1:15:00 PM 19.7 67.46 0.097 6.32 1.29 5.9
8/12/2022 1:30:00 PM 19.79 67.622 0.096 6.41 1.17 5.86
8/12/2022 1:45:00 PM 19.53 67.154 0.096 6.32 1.26 5.67
8/12/2022 2:00:00 PM 19.72 67.496 0.098 6.32 1.12 5.3
8/12/2022 2:15:00 PM 19.67 67.406 0.096 6.32 1.22 5.76
8/12/2022 2:30:00 PM 19.58 67.244 0.096 6.39 1.22 5.49
8/12/2022 2:45:00 PM 19.77 67.586 0.097 6.31 1.09 5.45
8/12/2022 3:00:00 PM 19.65 67.37 0.096 6.31 1.23 5.62
8/12/2022 3:15:00 PM 19.68 67.424 0.096 6.31 1.27 5.58
8/12/2022 3:30:00 PM 19.78 67.604 0.096 6.31 1.11 5.56
8/12/2022 3:45:00 PM 19.7 67.46 0.096 6.36 1.29 5.48
8/12/2022 4:00:00 PM 19.75 67.55 0.097 6.33 1.22 5.4
8/12/2022 4:15:00 PM 19.8 67.64 0.096 6.31 1.17 5.53
8/12/2022 4:30:00 PM 19.77 67.586 0.096 6.29 1.25 5.51
8/12/2022 4:45:00 PM 19.84 67.712 0.097 6.33 1.24 5.43
8/12/2022 5:00:00 PM 19.94 67.892 0.096 6.36 1.1 5.78
8/12/2022 5:15:00 PM 19.93 67.874 0.095 6.39 1.14 6.07
8/12/2022 5:30:00 PM 19.94 67.892 0.093 6.6 1.16 7.47
8/12/2022 5:45:00 PM 19.87 67.766 0.092 6.69 1.94 8.31
8/12/2022 6:00:00 PM 19.75 67.55 0.092 6.8 1.21 8.36
8/12/2022 6:15:00 PM 19.59 67.262 0.093 6.78 1.11 8.3
8/12/2022 6:30:00 PM 19.45 67.01 0.093 6.73 1.16 8.19
8/12/2022 6:45:00 PM 19.4 66.92 0.093 6.64 1.12 7.94
8/12/2022 7:00:00 PM 19.33 66.794 0.093 6.71 1.16 8.04
8/12/2022 7:15:00 PM 19.34 66.812 0.093 6.69 1.1 7.88
8/12/2022 7:30:00 PM 19.29 66.722 0.093 6.7 1.08 7.92
8/12/2022 7:45:00 PM 19.26 66.668 0.093 6.68 1.07 7.91
8/12/2022 8:00:00 PM 19.22 66.596 0.093 6.63 1.09 7.85
8/12/2022 8:15:00 PM 19.13 66.434 0.093 6.63 1.13 7.81
8/12/2022 8:30:00 PM 19.07 66.326 0.093 6.61 1.1 7.83
8/12/2022 8:45:00 PM 18.97 66.146 0.093 6.71 1.19 8.03
8/12/2022 9:00:00 PM 18.94 66.092 0.093 6.65 1.14 7.97
8/12/2022 9:15:00 PM 18.86 65.948 0.093 6.65 1.56 7.97
8/12/2022 9:30:00 PM 18.72 65.696 0.093 6.68 1.23 8.12
8/12/2022 9:45:00 PM 18.65 65.57 0.093 6.76 1.12 8.1
8/12/2022 10:00:00 PM 18.58 65.444 0.093 6.72 2.22 8.09
8/12/2022 10:15:00 PM 18.48 65.264 0.093 6.66 1.52 8.19
8/12/2022 10:30:00 PM 18.4 65.12 0.093 6.71 1.25 8.23
8/12/2022 10:45:00 PM 18.34 65.012 0.093 6.65 1.15 8.14
8/12/2022 11:00:00 PM 18.24 64.832 0.093 6.67 1.12 8.19
8/12/2022 11:15:00 PM 18.11 64.598 0.093 6.67 1.24 8.26
8/12/2022 11:30:00 PM 18.02 64.436 0.093 6.67 1.27 8.3
8/12/2022 11:45:00 PM 17.91 64.238 0.093 6.69 1.25 8.38
8/13/2022 12:00:00 AM 17.84 64.112 0.093 6.67 1.18 8.31
8/13/2022 12:15:00 AM 17.79 64.022 0.093 6.69 1.42 8.33
8/13/2022 12:30:00 AM 17.64 63.752 0.092 6.68 1.2 8.43
8/13/2022 12:45:00 AM 17.53 63.554 0.092 6.73 1.23 8.49
8/13/2022 1:00:00 AM 17.51 63.518 0.093 6.66 1.41 8.43
8/13/2022 1:15:00 AM 17.35 63.23 0.093 6.68 1.27 8.5
8/13/2022 1:30:00 AM 17.3 63.14 0.093 6.68 1.29 8.51
8/13/2022 1:45:00 AM 17.25 63.05 0.093 6.68 1.21 8.47
8/13/2022 2:00:00 AM 17.1 62.78 0.092 6.67 1.22 8.56
8/13/2022 2:15:00 AM 17.04 62.672 0.092 6.69 1.2 8.59
8/13/2022 2:30:00 AM 16.9 62.42 0.092 6.73 1.35 8.63
8/13/2022 2:45:00 AM 16.85 62.33 0.092 6.66 1.3 8.59
8/13/2022 3:00:00 AM 16.77 62.186 0.093 6.75 1.24 8.63
8/13/2022 3:15:00 AM 16.68 62.024 0.092 6.67 1.21 8.64
8/13/2022 3:30:00 AM 16.59 61.862 0.092 6.75 1.46 8.67
8/13/2022 3:45:00 AM 16.5 61.7 0.092 6.66 1.4 8.69
8/13/2022 4:00:00 AM 16.45 61.61 0.092 6.73 1.43 8.67
8/13/2022 4:15:00 AM 16.28 61.304 0.092 6.73 1.2 8.8
8/13/2022 4:30:00 AM 16.18 61.124 0.092 6.74 1.35 8.83
8/13/2022 4:45:00 AM 16.15 61.07 0.092 6.71 1.25 8.81
8/13/2022 5:00:00 AM 16.03 60.854 0.092 6.74 1.21 8.9
8/13/2022 5:15:00 AM 15.95 60.71 0.092 6.7 1.26 8.9
8/13/2022 5:30:00 AM 15.93 60.674 0.093 6.67 1.21 8.84
8/13/2022 5:45:00 AM 15.82 60.476 0.092 6.7 1.21 8.87
8/13/2022 6:00:00 AM 15.74 60.332 0.092 6.68 1.24 8.94
8/13/2022 6:15:00 AM 15.73 60.314 0.092 6.74 1.29 8.85
8/13/2022 6:30:00 AM 15.59 60.062 0.092 6.67 1.26 8.92
8/13/2022 6:45:00 AM 15.52 59.936 0.093 6.72 1.82 8.94
8/13/2022 7:00:00 AM 15.44 59.792 0.092 6.68 1.66 8.97
8/13/2022 7:15:00 AM 15.38 59.684 0.092 6.75 1.44 9.03
8/13/2022 7:30:00 AM 15.4 59.72 0.092 6.7 1.37 9.01
8/13/2022 7:45:00 AM 15.28 59.504 0.092 6.73 1.29 9.17
8/13/2022 8:00:00 AM 15.31 59.558 0.092 6.71 1.23 9.23
8/13/2022 8:15:00 AM 15.29 59.522 0.092 6.76 1.25 9.28
8/13/2022 8:30:00 AM 15.28 59.504 0.092 6.78 1.22 9.4
8/13/2022 8:45:00 AM 15.43 59.774 0.092 6.71 1.2 9.24
8/13/2022 9:00:00 AM 15.47 59.846 0.092 6.73 1.21 9.28
8/13/2022 9:15:00 AM 15.52 59.936 0.092 6.77 1.25 9.36
8/13/2022 9:30:00 AM 15.86 60.548 0.092 6.7 1.19 9.12
8/13/2022 9:45:00 AM 16.1 60.98 0.093 6.64 1.21 8.55
8/13/2022 10:00:00 AM 16.34 61.412 0.092 6.64 1.17 8.76
8/13/2022 10:15:00 AM 16.33 61.394 0.093 6.58 1.23 8.43
8/13/2022 10:30:00 AM 16.69 62.042 0.093 6.63 1.34 8.37
8/13/2022 10:45:00 AM 16.73 62.114 0.094 6.49 1.21 8.03
8/13/2022 11:00:00 AM 17.3 63.14 0.095 6.44 1.16 7.24
8/13/2022 11:15:00 AM 17.26 63.068 0.095 6.43 1.25 7.2
8/13/2022 11:30:00 AM 17.38 63.284 0.096 6.45 1.27 6.78
8/13/2022 11:45:00 AM 17.63 63.734 0.096 6.35 1.22 6.46
8/13/2022 12:00:00 PM 17.78 64.004 0.096 6.36 1.23 6.32
8/13/2022 12:15:00 PM 18.01 64.418 0.097 6.36 1.16 6.05
8/13/2022 12:30:00 PM 18.15 64.67 0.097 6.32 1.21 5.78
8/13/2022 12:45:00 PM 18.45 65.21 0.098 6.32 1.2 5.43
8/13/2022 1:00:00 PM 18.65 65.57 0.098 6.32 1.18 5.52
8/13/2022 1:15:00 PM 18.52 65.336 0.097 6.34 1.2 5.82
8/13/2022 1:30:00 PM 18.44 65.192 0.096 6.36 1.39 6.14
8/13/2022 1:45:00 PM 18.87 65.966 0.096 6.39 1.38 5.99
8/13/2022 2:00:00 PM 18.48 65.264 0.096 6.32 1.29 5.82
8/13/2022 2:15:00 PM 18.56 65.408 0.097 6.32 1.25 5.7
8/13/2022 2:30:00 PM 18.8 65.84 0.096 6.34 1.31 5.77
8/13/2022 2:45:00 PM 18.66 65.588 0.096 6.35 1.55 5.85
8/13/2022 3:00:00 PM 18.78 65.804 0.096 6.32 1.23 5.67
8/13/2022 3:15:00 PM 18.91 66.038 0.097 6.4 1.42 5.65
8/13/2022 3:30:00 PM 18.62 65.516 0.097 6.3 1.37 5.54
8/13/2022 3:45:00 PM 18.78 65.804 0.097 6.3 1.26 5.35
8/13/2022 4:00:00 PM 18.46 65.228 0.096 6.29 1.27 5.58
8/13/2022 4:15:00 PM 18.99 66.182 0.097 6.34 1.26 5.44
8/13/2022 4:30:00 PM 18.7 65.66 0.097 6.32 1.3 5.34
8/13/2022 4:45:00 PM 18.97 66.146 0.097 6.3 1.22 5.42
8/13/2022 5:00:00 PM 18.92 66.056 0.097 6.34 1.44 5.41
8/13/2022 5:15:00 PM 18.98 66.164 0.097 6.29 1.18 5.33
8/13/2022 5:30:00 PM 18.96 66.128 0.097 6.35 1.22 5.2
8/13/2022 5:45:00 PM 19 66.2 0.097 6.26 1.25 5.14
8/13/2022 6:00:00 PM 18.92 66.056 0.097 6.31 1.25 5.32
8/13/2022 6:15:00 PM 18.92 66.056 0.097 6.27 1.23 5.26
8/13/2022 6:30:00 PM 18.95 66.11 0.097 6.37 1.22 5.27
8/13/2022 6:45:00 PM 18.82 65.876 0.097 6.28 1.31 5.36
8/13/2022 7:00:00 PM 18.91 66.038 0.097 6.32 1.31 5.25
8/13/2022 7:15:00 PM 18.85 65.93 0.097 6.27 1.27 5.23
8/13/2022 7:30:00 PM 18.81 65.858 0.096 6.3 1.23 5.48
8/13/2022 7:45:00 PM 18.77 65.786 0.096 6.29 1.26 5.55
8/13/2022 8:00:00 PM 18.74 65.732 0.096 6.35 1.24 5.49
8/13/2022 8:15:00 PM 18.72 65.696 0.094 6.34 1.34 5.75
8/13/2022 8:30:00 PM 18.72 65.696 0.095 6.38 1.22 6.02
8/13/2022 8:45:00 PM 18.68 65.624 0.094 6.43 1.19 6.45
8/13/2022 9:00:00 PM 18.64 65.552 0.093 6.57 1.31 7.42
8/13/2022 9:15:00 PM 18.59 65.462 0.093 6.56 1.29 7.58
8/13/2022 9:30:00 PM 18.51 65.318 0.092 6.62 1.22 7.96
8/13/2022 9:45:00 PM 18.5 65.3 0.093 6.61 1.17 7.94
8/13/2022 10:00:00 PM 18.5 65.3 0.093 6.6 1.16 7.8
8/13/2022 10:15:00 PM 18.41 65.138 0.093 6.61 1.2 7.91
8/13/2022 10:30:00 PM 18.39 65.102 0.093 6.61 1.17 7.94
8/13/2022 10:45:00 PM 18.37 65.066 0.093 6.57 1.24 7.78
8/13/2022 11:00:00 PM 18.3 64.94 0.093 6.67 1.22 7.95
8/13/2022 11:15:00 PM 18.27 64.886 0.093 6.62 1.17 7.93
8/13/2022 11:30:00 PM 18.21 64.778 0.093 6.62 1.19 7.93
8/13/2022 11:45:00 PM 18.18 64.724 0.093 6.61 1.35 7.92
8/14/2022 12:00:00 AM 18.13 64.634 0.093 6.61 1.19 8.03
8/14/2022 12:15:00 AM 18.11 64.598 0.093 6.66 1.16 8.01
8/14/2022 12:30:00 AM 18.07 64.526 0.093 6.61 1.22 8.02
8/14/2022 12:45:00 AM 17.99 64.382 0.093 6.67 1.16 8.1
8/14/2022 1:00:00 AM 17.99 64.382 0.093 6.61 1.21 8.03
8/14/2022 1:15:00 AM 17.94 64.292 0.093 6.68 1.43 8.04
8/14/2022 1:30:00 AM 17.9 64.22 0.093 6.68 1.55 8.03
8/14/2022 1:45:00 AM 17.83 64.094 0.092 6.62 1.23 8.18
8/14/2022 2:00:00 AM 17.78 64.004 0.092 6.65 1.33 8.22
8/14/2022 2:15:00 AM 17.8 64.04 0.093 6.67 1.31 8.1
8/14/2022 2:30:00 AM 17.74 63.932 0.092 6.61 1.33 8.2
8/14/2022 2:45:00 AM 17.68 63.824 0.093 6.66 1.25 8.19
8/14/2022 3:00:00 AM 17.63 63.734 0.093 6.62 1.23 8.22
8/14/2022 3:15:00 AM 17.63 63.734 0.093 6.68 1.31 8.11
8/14/2022 3:30:00 AM 17.54 63.572 0.092 6.63 1.21 8.25
8/14/2022 3:45:00 AM 17.5 63.5 0.093 6.71 1.33 8.27
8/14/2022 4:00:00 AM 17.45 63.41 0.092 6.63 1.26 8.32
8/14/2022 4:15:00 AM 17.43 63.374 0.093 6.66 1.26 8.27
8/14/2022 4:30:00 AM 17.42 63.356 0.093 6.62 1.32 8.24
8/14/2022 4:45:00 AM 17.38 63.284 0.093 6.65 1.22 8.24
8/14/2022 5:00:00 AM 17.3 63.14 0.092 6.67 1.31 8.28
8/14/2022 5:15:00 AM 17.29 63.122 0.093 6.69 1.38 8.3
8/14/2022 5:30:00 AM 17.28 63.104 0.093 6.69 1.74 8.31
8/14/2022 5:45:00 AM 17.27 63.086 0.093 6.62 1.32 8.22
8/14/2022 6:00:00 AM 17.21 62.978 0.093 6.67 1.2 8.22
8/14/2022 6:15:00 AM 17.2 62.96 0.093 6.62 1.22 8.22
8/14/2022 6:30:00 AM 17.12 62.816 0.093 6.65 1.31 8.31
8/14/2022 6:45:00 AM 17.1 62.78 0.093 6.63 1.29 8.29
8/14/2022 7:00:00 AM 17.05 62.69 0.093 6.65 1.23 8.34
8/14/2022 7:15:00 AM 17.02 62.636 0.092 6.67 1.2 8.49
8/14/2022 7:30:00 AM 17.02 62.636 0.092 6.65 1.28 8.53
8/14/2022 7:45:00 AM 17.05 62.69 0.092 6.65 1.32 8.5
8/14/2022 8:00:00 AM 17.02 62.636 0.092 6.68 1.19 8.65
8/14/2022 8:15:00 AM 17.03 62.654 0.092 6.73 1.18 8.76
8/14/2022 8:30:00 AM 17.06 62.708 0.092 6.66 1.23 8.74
8/14/2022 8:45:00 AM 17.09 62.762 0.092 6.71 1.19 8.71
8/14/2022 9:00:00 AM 17.1 62.78 0.092 6.67 1.19 8.75
8/14/2022 9:15:00 AM 17.21 62.978 0.092 6.64 1.19 8.47
8/14/2022 9:30:00 AM 17.39 63.302 0.094 6.51 1.22 7.77
8/14/2022 9:45:00 AM 17.6 63.68 0.095 6.46 1.2 7.18
8/14/2022 10:00:00 AM 17.75 63.95 0.095 6.41 1.23 6.87
8/14/2022 10:15:00 AM 17.67 63.806 0.094 6.49 1.24 7.34
8/14/2022 10:30:00 AM 17.99 64.382 0.095 6.38 1.28 6.77
8/14/2022 10:45:00 AM 18.02 64.436 0.096 6.44 1.26 6.57
8/14/2022 11:00:00 AM 18.38 65.084 0.097 6.32 1.19 6.01
8/14/2022 11:15:00 AM 18.41 65.138 0.097 6.37 1.18 5.8
8/14/2022 11:30:00 AM 18.67 65.606 0.096 6.33 1.34 5.95
8/14/2022 11:45:00 AM 18.8 65.84 0.096 6.34 1.36 6
8/14/2022 12:00:00 PM 18.93 66.074 0.097 6.3 1.28 5.55
8/14/2022 12:15:00 PM 19.14 66.452 0.097 6.35 3.53 5.44
8/14/2022 12:30:00 PM 19.23 66.614 0.096 6.31 1.53 5.66
8/14/2022 12:45:00 PM 19.26 66.668 0.095 6.4 1.34 5.91
8/14/2022 1:00:00 PM 19.25 66.65 0.095 6.35 1.39 6.17
8/14/2022 1:15:00 PM 19.28 66.704 0.096 6.33 1.32 6.01
8/14/2022 1:30:00 PM 19.34 66.812 0.097 6.31 1.23 5.67
8/14/2022 1:45:00 PM 19.37 66.866 0.096 6.37 1.22 5.65
8/14/2022 2:00:00 PM 19.33 66.794 0.097 6.29 1.13 5.62
8/14/2022 2:15:00 PM 19.29 66.722 0.097 6.3 1.17 5.68
8/14/2022 2:30:00 PM 19.24 66.632 0.096 6.3 1.22 5.65
8/14/2022 2:45:00 PM 19.3 66.74 0.097 6.37 1.16 5.62
8/14/2022 3:00:00 PM 19.29 66.722 0.097 6.3 1.18 5.53
8/14/2022 3:15:00 PM 19.26 66.668 0.096 6.35 1.22 5.72
8/14/2022 3:30:00 PM 19.28 66.704 0.096 6.29 1.2 5.68
8/14/2022 3:45:00 PM 19.29 66.722 0.097 6.31 1.23 5.6
8/14/2022 4:00:00 PM 19.27 66.686 0.097 6.31 1.2 5.51
8/14/2022 4:15:00 PM 19.36 66.848 0.097 6.29 1.16 5.47
8/14/2022 4:30:00 PM 19.31 66.758 0.096 6.36 1.27 5.64
8/14/2022 4:45:00 PM 19.41 66.938 0.096 6.29 1.22 5.61
8/14/2022 5:00:00 PM 19.56 67.208 0.097 6.31 1.15 5.5
8/14/2022 5:15:00 PM 19.67 67.406 0.096 6.29 1.13 5.53
8/14/2022 5:30:00 PM 19.71 67.478 0.097 6.3 1.24 5.51
8/14/2022 5:45:00 PM 19.71 67.478 0.096 6.29 1.23 5.43
8/14/2022 6:00:00 PM 19.67 67.406 0.097 6.29 1.17 5.48
8/14/2022 6:15:00 PM 19.6 67.28 0.097 6.26 1.29 5.34
8/14/2022 6:30:00 PM 19.55 67.19 0.097 6.34 1.21 5.28
8/14/2022 6:45:00 PM 19.42 66.956 0.096 6.27 1.23 5.34
8/14/2022 7:00:00 PM 19.44 66.992 0.097 6.26 1.2 5.36
8/14/2022 7:15:00 PM 19.42 66.956 0.098 6.32 1.13 5.08
8/14/2022 7:30:00 PM 19.4 66.92 0.097 6.25 1.11 5.01
8/14/2022 7:45:00 PM 19.36 66.848 0.097 6.26 1.16 5.02
8/14/2022 8:00:00 PM 19.33 66.794 0.097 6.25 1.13 4.44
8/14/2022 8:15:00 PM 19.31 66.758 0.097 6.33 1.13 4.8
8/14/2022 8:30:00 PM 19.27 66.686 0.096 6.33 1.18 5.13
8/14/2022 8:45:00 PM 19.34 66.812 0.099 6.25 1.1 4.51
8/14/2022 9:00:00 PM 19.3 66.74 0.1 6.26 1.03 4.46
8/14/2022 9:15:00 PM 19.24 66.632 0.096 6.35 1.12 5.68
8/14/2022 9:30:00 PM 19.2 66.56 0.095 6.46 1.2 6.21
8/14/2022 9:45:00 PM 19.18 66.524 0.094 6.58 1.2 6.95
8/14/2022 10:00:00 PM 19.12 66.416 0.092 6.6 1.18 7.61
8/14/2022 10:15:00 PM 19.06 66.308 0.093 6.62 1.13 7.7
8/14/2022 10:30:00 PM 19.04 66.272 0.093 6.6 1.08 7.65
8/14/2022 10:45:00 PM 18.98 66.164 0.093 6.65 1.15 7.68
8/14/2022 11:00:00 PM 18.94 66.092 0.093 6.64 1.11 7.5
8/14/2022 11:15:00 PM 18.94 66.092 0.093 6.65 1.16 7.55
8/14/2022 11:30:00 PM 18.93 66.074 0.093 6.6 1.19 7.58
8/14/2022 11:45:00 PM 18.91 66.038 0.093 6.55 1.19 7.54
8/15/2022 12:00:00 AM 18.89 66.002 0.093 6.61 1.23 7.56
8/15/2022 12:15:00 AM 18.87 65.966 0.093 6.56 1.27 7.54
8/15/2022 12:30:00 AM 18.81 65.858 0.093 6.63 1.24 7.66
8/15/2022 12:45:00 AM 18.79 65.82201 0.093 6.56 1.14 7.66
8/15/2022 1:00:00 AM 18.77 65.786 0.093 6.64 1.22 7.63
8/15/2022 1:15:00 AM 18.75 65.75 0.093 6.57 1.23 7.65
8/15/2022 1:30:00 AM 18.75 65.75 0.093 6.6 1.81 7.53
8/15/2022 1:45:00 AM 18.72 65.696 0.093 6.56 1.43 7.64
8/15/2022 2:00:00 AM 18.7 65.66 0.093 6.58 1.43 7.63
8/15/2022 2:15:00 AM 18.66 65.588 0.093 6.58 1.44 7.62
8/15/2022 2:30:00 AM 18.65 65.57 0.093 6.55 1.29 7.61
8/15/2022 2:45:00 AM 18.63 65.534 0.093 6.61 1.41 7.56
8/15/2022 3:00:00 AM 18.59 65.462 0.093 6.61 1.33 7.66
8/15/2022 3:15:00 AM 18.53 65.354 0.093 6.59 1.38 7.79
8/15/2022 3:30:00 AM 18.5 65.3 0.092 6.67 1.28 7.79
8/15/2022 3:45:00 AM 18.49 65.282 0.093 6.56 1.24 7.68
8/15/2022 4:00:00 AM 18.48 65.264 0.093 6.58 1.18 7.65
8/15/2022 4:15:00 AM 18.44 65.192 0.093 6.57 1.17 7.72
8/15/2022 4:30:00 AM 18.43 65.174 0.093 6.57 1.24 7.63
8/15/2022 4:45:00 AM 18.42 65.156 0.093 6.54 1.56 7.6
8/15/2022 5:00:00 AM 18.38 65.084 0.093 6.57 1.25 7.68
8/15/2022 5:15:00 AM 18.3 64.94 0.092 6.63 1.29 7.82
8/15/2022 5:30:00 AM 18.26 64.868 0.092 6.57 1.24 7.85
8/15/2022 5:45:00 AM 18.23 64.814 0.093 6.56 1.2 7.69
8/15/2022 6:00:00 AM 18.16 64.688 0.093 6.6 1.23 7.77
8/15/2022 6:15:00 AM 18.14 64.652 0.093 6.58 1.2 7.76
8/15/2022 6:30:00 AM 18.09 64.562 0.093 6.55 1.18 7.75
8/15/2022 6:45:00 AM 18.05 64.49 0.093 6.57 1.43 7.76
8/15/2022 7:00:00 AM 18.03 64.454 0.093 6.61 1.21 7.77
8/15/2022 7:15:00 AM 18 64.4 0.093 6.56 1.16 7.87
8/15/2022 7:30:00 AM 17.95 64.31 0.092 6.61 1.28 8.03
8/15/2022 7:45:00 AM 17.96 64.328 0.092 6.6 1.17 8.09
8/15/2022 8:00:00 AM 18 64.4 0.092 6.61 1.21 8.07
8/15/2022 8:15:00 AM 17.97 64.346 0.092 6.63 1.16 8.26
8/15/2022 8:30:00 AM 17.98 64.364 0.092 6.61 1.12 8.26
8/15/2022 8:45:00 AM 18.06 64.508 0.092 6.61 1.39 8.23
8/15/2022 9:00:00 AM 18.11 64.598 0.092 6.63 1.15 8.24
8/15/2022 9:15:00 AM 18.17 64.706 0.092 6.65 1.14 8.22
8/15/2022 9:30:00 AM 18.29 64.922 0.093 6.51 1.32 7.7
8/15/2022 9:45:00 AM 18.32 64.976 0.093 6.59 1.64 7.53
8/15/2022 10:00:00 AM 18.37 65.066 0.093 6.51 1.18 7.63
8/15/2022 10:15:00 AM 18.41 65.138 0.093 6.55 1.12 7.35
8/15/2022 10:30:00 AM 18.43 65.174 0.094 6.52 1.2 7.24
8/15/2022 10:45:00 AM 18.44 65.192 0.094 6.47 1.16 7.08
8/15/2022 11:00:00 AM 18.43 65.174 0.093 6.49 1.3 7.4
8/15/2022 11:15:00 AM 18.38 65.084 0.092 6.6 1.18 7.74
8/15/2022 11:30:00 AM 18.41 65.138 0.093 6.47 1.2 7.43
8/15/2022 11:45:00 AM 18.42 65.156 0.093 6.58 1.18 7.53
8/15/2022 12:00:00 PM 18.42 65.156 0.092 6.51 1.19 7.86
8/15/2022 12:15:00 PM 18.42 65.156 0.092 6.58 1.3 7.81
8/15/2022 12:30:00 PM 18.42 65.156 0.092 6.55 1.12 7.96
8/15/2022 12:45:00 PM 18.41 65.138 0.092 6.62 1.33 7.91
8/15/2022 1:00:00 PM 18.42 65.156 0.093 6.53 1.2 7.85
8/15/2022 1:15:00 PM 18.46 65.228 0.093 6.56 1.17 7.51
8/15/2022 1:30:00 PM 18.43 65.174 0.092 6.56 1.18 7.77
8/15/2022 1:45:00 PM 18.42 65.156 0.092 6.61 1.14 8.03
8/15/2022 2:00:00 PM 18.45 65.21 0.093 6.53 1.12 7.74
8/15/2022 2:15:00 PM 18.41 65.138 0.092 6.67 1.15 8.24
8/15/2022 2:30:00 PM 18.4 65.12 0.092 6.63 1.19 8.25
8/15/2022 2:45:00 PM 18.39 65.102 0.091 6.71 1.17 8.28
8/15/2022 3:00:00 PM 18.42 65.156 0.092 6.6 1.13 8.04
8/15/2022 3:15:00 PM 18.45 65.21 0.093 6.53 1.09 7.7
8/15/2022 3:30:00 PM 18.49 65.282 0.094 6.53 1.16 7.3
8/15/2022 3:45:00 PM 18.58 65.444 0.094 6.38 1.12 6.55
8/15/2022 4:00:00 PM 18.6 65.48 0.094 6.42 1.1 6.63
8/15/2022 4:15:00 PM 18.65 65.57 0.095 6.37 1.19 6.29
8/15/2022 4:30:00 PM 18.66 65.588 0.095 6.39 1.09 6.15
8/15/2022 4:45:00 PM 18.66 65.588 0.096 6.35 1.24 5.97
8/15/2022 5:00:00 PM 18.67 65.606 0.096 6.36 1.16 5.84
8/15/2022 5:15:00 PM 18.66 65.588 0.095 6.35 1.1 5.77
8/15/2022 5:30:00 PM 18.64 65.552 0.095 6.34 1.24 5.75
8/15/2022 5:45:00 PM 18.63 65.534 0.095 6.34 1.16 6.06
8/15/2022 6:00:00 PM 18.61 65.498 0.093 6.45 1.17 6.88
8/15/2022 6:15:00 PM 18.61 65.498 0.093 6.38 1.21 6.76
8/15/2022 6:30:00 PM 18.59 65.462 0.093 6.51 1.31 7.26
8/15/2022 6:45:00 PM 18.55 65.39 0.091 6.57 1.18 7.9
8/15/2022 7:00:00 PM 18.57 65.426 0.092 6.52 1.18 7.47
8/15/2022 7:15:00 PM 18.47 65.246 0.092 6.57 1.24 7.86
8/15/2022 7:30:00 PM 18.4 65.12 0.092 6.59 1.27 7.85
8/15/2022 7:45:00 PM 18.35 65.03 0.092 6.59 1.18 7.86
8/15/2022 8:00:00 PM 18.32 64.976 0.092 6.65 1.2 7.84
8/15/2022 8:15:00 PM 18.23 64.814 0.092 6.59 1.82 7.85
8/15/2022 8:30:00 PM 18.21 64.778 0.092 6.6 1.76 7.57
8/15/2022 8:45:00 PM 18.13 64.634 0.091 6.57 1.87 7.76
8/15/2022 9:00:00 PM 18.08 64.544 0.091 6.65 1.54 7.81
8/15/2022 9:15:00 PM 18.07 64.526 0.092 6.58 1.49 7.77
8/15/2022 9:30:00 PM 18 64.4 0.091 6.69 1.35 7.95
8/15/2022 9:45:00 PM 17.96 64.328 0.091 6.59 1.37 7.99
8/15/2022 10:00:00 PM 17.93 64.274 0.091 6.67 1.3 8.02
8/15/2022 10:15:00 PM 17.89 64.202 0.091 6.59 1.39 8.06
8/15/2022 10:30:00 PM 17.86 64.148 0.091 6.64 1.34 8.05
8/15/2022 10:45:00 PM 17.84 64.112 0.091 6.67 1.24 8.05
8/15/2022 11:00:00 PM 17.82 64.076 0.091 6.67 1.28 8.09
8/15/2022 11:15:00 PM 17.8 64.04 0.091 6.66 1.23 8.07
8/15/2022 11:30:00 PM 17.79 64.022 0.091 6.6 1.2 8.06
8/15/2022 11:45:00 PM 17.78 64.004 0.091 6.6 1.24 7.93
8/16/2022 12:00:00 AM 17.75 63.95 0.091 6.61 1.29 7.97
8/16/2022 12:15:00 AM 17.74 63.932 0.091 6.65 1.16 8
8/16/2022 12:30:00 AM 17.81 64.058 0.093 6.54 1.88 7.61
8/16/2022 12:45:00 AM 17.69 63.842 0.091 6.63 1.3 8.01
8/16/2022 1:00:00 AM 17.66 63.788 0.091 6.61 1.19 8.17
8/16/2022 1:15:00 AM 17.66 63.788 0.091 6.6 1.41 8.13
8/16/2022 1:30:00 AM 17.62 63.716 0.091 6.61 1.27 8.24
8/16/2022 1:45:00 AM 17.61 63.698 0.091 6.62 1.19 8.13
8/16/2022 2:00:00 AM 17.59 63.662 0.091 6.61 1.19 8.19
8/16/2022 2:15:00 AM 17.57 63.626 0.091 6.66 1.18 8.19
8/16/2022 2:30:00 AM 17.56 63.608 0.091 6.61 1.2 8.3
8/16/2022 2:45:00 AM 17.55 63.59 0.091 6.66 1.17 8.24
8/16/2022 3:00:00 AM 17.55 63.59 0.091 6.61 1.18 8.17
8/16/2022 3:15:00 AM 17.52 63.536 0.091 6.68 1.26 8.17
8/16/2022 3:30:00 AM 17.5 63.5 0.092 6.6 1.18 8.19
8/16/2022 3:45:00 AM 17.49 63.482 0.092 6.66 1.29 8.18
8/16/2022 4:00:00 AM 17.51 63.518 0.092 6.6 1.4 8.1
8/16/2022 4:15:00 AM 17.47 63.446 0.092 6.67 1.24 8.15
8/16/2022 4:30:00 AM 17.46 63.428 0.092 6.68 1.55 8.19
8/16/2022 4:45:00 AM 17.47 63.446 0.092 6.66 1.29 8.09
8/16/2022 5:00:00 AM 17.44 63.392 0.092 6.62 1.29 8.07
8/16/2022 5:15:00 AM 17.44 63.392 0.092 6.65 1.27 8.06
8/16/2022 5:30:00 AM 17.42 63.356 0.092 6.58 1.84 8.06
8/16/2022 5:45:00 AM 17.4 63.32 0.092 6.64 1.38 8.08
8/16/2022 6:00:00 AM 17.37 63.266 0.092 6.62 1.16 8.1
8/16/2022 6:15:00 AM 17.36 63.248 0.092 6.61 1.52 8.18
8/16/2022 6:30:00 AM 17.35 63.23 0.092 6.61 1.2 8.04
8/16/2022 6:45:00 AM 17.35 63.23 0.092 6.58 1.24 8.05
8/16/2022 7:00:00 AM 17.32 63.176 0.092 6.6 1.2 8.03
8/16/2022 7:15:00 AM 17.3 63.14 0.092 6.67 1.24 8.2
8/16/2022 7:30:00 AM 17.31 63.158 0.091 6.67 1.21 8.37
8/16/2022 7:45:00 AM 17.32 63.176 0.091 6.61 1.22 8.34
8/16/2022 8:00:00 AM 17.33 63.194 0.091 6.59 1.26 8.35
8/16/2022 8:15:00 AM 17.35 63.23 0.091 6.61 1.27 8.32
8/16/2022 8:30:00 AM 17.34 63.212 0.091 6.59 1.26 8.44
8/16/2022 8:45:00 AM 17.39 63.302 0.091 6.71 1.42 8.4
8/16/2022 9:00:00 AM 17.42 63.356 0.091 6.59 1.27 8.32
8/16/2022 9:15:00 AM 17.51 63.518 0.092 6.59 1.25 8.1
8/16/2022 9:30:00 AM 17.54 63.572 0.092 6.57 1.27 8.07
8/16/2022 9:45:00 AM 17.58 63.644 0.092 6.53 1.19 7.98
8/16/2022 10:00:00 AM 17.64 63.752 0.092 6.53 1.17 7.71
8/16/2022 10:15:00 AM 17.68 63.824 0.092 6.46 1.23 7.51
8/16/2022 10:30:00 AM 17.75 63.95 0.093 6.46 1.27 7.12
8/16/2022 10:45:00 AM 17.8 64.04 0.093 6.38 1.26 6.9
8/16/2022 11:00:00 AM 17.86 64.148 0.094 6.46 1.22 6.68
8/16/2022 11:15:00 AM 17.94 64.292 0.094 6.37 1.16 6.51
8/16/2022 11:30:00 AM 17.96 64.328 0.094 6.4 1.19 6.48
8/16/2022 11:45:00 AM 17.99 64.382 0.094 6.39 1.21 6.54
8/16/2022 12:00:00 PM 18.03 64.454 0.093 6.41 1.25 6.74
8/16/2022 12:15:00 PM 18.04 64.472 0.093 6.4 1.22 6.75
8/16/2022 12:30:00 PM 18.05 64.49 0.093 6.47 1.15 6.72
8/16/2022 12:45:00 PM 18.08 64.544 0.093 6.4 1.22 6.69
8/16/2022 1:00:00 PM 18.24 64.832 0.093 6.38 1.24 6.78
8/16/2022 1:15:00 PM 18.17 64.706 0.093 6.38 1.29 6.5
8/16/2022 1:30:00 PM 18.16 64.688 0.094 6.31 1.47 6.15
8/16/2022 1:45:00 PM 18.21 64.778 0.094 6.34 1.44 5.86
8/16/2022 2:00:00 PM 18.29 64.922 0.094 6.3 1.45 5.85
8/16/2022 2:15:00 PM 18.36 65.048 0.094 6.36 1.45 5.91
8/16/2022 2:30:00 PM 18.46 65.228 0.094 6.29 1.39 5.84
8/16/2022 2:45:00 PM 18.55 65.39 0.094 6.38 1.4 5.88
8/16/2022 3:00:00 PM 18.62 65.516 0.095 6.33 1.42 5.86
8/16/2022 3:15:00 PM 18.76 65.768 0.095 6.31 1.26 5.6
8/16/2022 3:30:00 PM 18.7 65.66 0.095 6.3 1.33 5.71
8/16/2022 3:45:00 PM 18.62 65.516 0.094 6.32 1.33 5.77
8/16/2022 4:00:00 PM 18.68 65.624 0.094 6.32 1.22 5.76
8/16/2022 4:15:00 PM 18.59 65.462 0.094 6.28 1.29 5.79
8/16/2022 4:30:00 PM 18.59 65.462 0.094 6.34 1.19 5.75
8/16/2022 4:45:00 PM 18.57 65.426 0.095 6.36 1.18 5.63
8/16/2022 5:00:00 PM 18.58 65.444 0.095 6.34 1.19 5.4
8/16/2022 5:15:00 PM 18.54 65.372 0.095 6.34 1.27 5.44
8/16/2022 5:30:00 PM 18.6 65.48 0.095 6.32 1.28 5.39
8/16/2022 5:45:00 PM 18.5 65.3 0.094 6.29 1.41 5.6
8/16/2022 6:00:00 PM 18.55 65.39 0.092 6.33 1.36 6.1
8/16/2022 6:15:00 PM 18.55 65.39 0.094 6.36 1.31 6.2
8/16/2022 6:30:00 PM 18.53 65.354 0.095 6.39 1.4 6.19
8/16/2022 6:45:00 PM 18.49 65.282 0.093 6.45 1.5 6.45
8/16/2022 7:00:00 PM 18.39 65.102 0.092 6.48 2.05 7.2
8/16/2022 7:15:00 PM 18.35 65.03 0.089 6.55 3.24 7.43
8/16/2022 7:30:00 PM 18.34 65.012 0.089 6.5 3.24 7.42
8/16/2022 7:45:00 PM 18.32 64.976 0.089 6.59 2.72 7.59
8/16/2022 8:00:00 PM 18.29 64.922 0.089 6.6 2.41 7.63
8/16/2022 8:15:00 PM 18.27 64.886 0.088 6.51 2 7.69
8/16/2022 8:30:00 PM 18.25 64.85 0.088 6.55 1.82 7.74
8/16/2022 8:45:00 PM 18.24 64.832 0.089 6.52 1.67 7.56
8/16/2022 9:00:00 PM 18.21 64.778 0.089 6.54 1.62 7.61
8/16/2022 9:15:00 PM 18.19 64.742 0.089 6.56 1.58 7.57
8/16/2022 9:30:00 PM 18.16 64.688 0.089 6.55 3.42 7.65
8/16/2022 9:45:00 PM 18.13 64.634 0.088 6.59 1.48 7.77
8/16/2022 10:00:00 PM 18.09 64.562 0.088 6.62 1.46 7.88
8/16/2022 10:15:00 PM 18.05 64.49 0.088 6.65 1.43 7.96
8/16/2022 10:30:00 PM 18.02 64.436 0.088 6.65 1.5 8.09
8/16/2022 10:45:00 PM 17.99 64.382 0.087 6.61 1.5 8.15
8/16/2022 11:00:00 PM 17.98 64.364 0.088 6.59 1.55 8
8/16/2022 11:15:00 PM 17.93 64.274 0.088 6.67 1.41 8.12
8/16/2022 11:30:00 PM 17.89 64.202 0.087 6.62 1.62 8.17
8/16/2022 11:45:00 PM 17.89 64.202 0.087 6.65 1.63 8.08
8/17/2022 12:00:00 AM 17.88 64.184 0.087 6.58 1.66 8.08
8/17/2022 12:15:00 AM 17.85 64.13 0.087 6.64 1.72 8.12
8/17/2022 12:30:00 AM 17.83 64.094 0.086 6.61 1.73 8.16
8/17/2022 12:45:00 AM 17.79 64.022 0.086 6.61 1.63 8.25
8/17/2022 1:00:00 AM 17.79 64.022 0.086 6.65 1.73 8.17
8/17/2022 1:15:00 AM 17.75 63.95 0.086 6.61 1.77 8.2
8/17/2022 1:30:00 AM 17.72 63.896 0.086 6.6 1.87 8.26
8/17/2022 1:45:00 AM 17.67 63.806 0.085 6.66 1.79 8.42
8/17/2022 2:00:00 AM 17.68 63.824 0.085 6.68 1.79 8.3
8/17/2022 2:15:00 AM 17.67 63.806 0.085 6.68 1.85 8.24
8/17/2022 2:30:00 AM 17.66 63.788 0.085 6.61 1.96 8.23
8/17/2022 2:45:00 AM 17.65 63.77 0.085 6.59 1.99 8.15
8/17/2022 3:00:00 AM 17.63 63.734 0.085 6.61 1.86 8.12
8/17/2022 3:15:00 AM 17.61 63.698 0.085 6.58 1.93 8.11
8/17/2022 3:30:00 AM 17.59 63.662 0.085 6.66 1.88 8.17
8/17/2022 3:45:00 AM 17.58 63.644 0.085 6.62 1.88 8.11
8/17/2022 4:00:00 AM 17.56 63.608 0.085 6.65 1.86 8.09
8/17/2022 4:15:00 AM 17.56 63.608 0.085 6.62 1.95 8.07
8/17/2022 4:30:00 AM 17.55 63.59 0.086 6.61 1.67 8.04
8/17/2022 4:45:00 AM 17.56 63.608 0.086 6.59 1.63 7.94
8/17/2022 5:00:00 AM 17.51 63.518 0.085 6.58 1.6 8.16
8/17/2022 5:15:00 AM 17.49 63.482 0.085 6.61 1.65 8.14
8/17/2022 5:30:00 AM 17.45 63.41 0.085 6.57 1.6 8.2
8/17/2022 5:45:00 AM 17.44 63.392 0.085 6.59 1.5 8.15
8/17/2022 6:00:00 AM 17.38 63.284 0.084 6.6 1.59 8.27
8/17/2022 6:15:00 AM 17.37 63.266 0.085 6.61 1.42 8.3
8/17/2022 6:30:00 AM 17.37 63.266 0.085 6.58 1.44 8.18
8/17/2022 6:45:00 AM 17.32 63.176 0.085 6.64 1.66 8.3
8/17/2022 7:00:00 AM 17.31 63.158 0.085 6.57 1.4 8.3
8/17/2022 7:15:00 AM 17.3 63.14 0.085 6.61 1.51 8.31
8/17/2022 7:30:00 AM 17.31 63.158 0.085 6.58 1.43 8.32
8/17/2022 7:45:00 AM 17.29 63.122 0.085 6.6 1.5 8.44
8/17/2022 8:00:00 AM 17.33 63.194 0.086 6.58 1.37 8.39
8/17/2022 8:15:00 AM 17.33 63.194 0.085 6.61 1.72 8.37
8/17/2022 8:30:00 AM 17.38 63.284 0.085 6.64 1.89 8.36
8/17/2022 8:45:00 AM 17.39 63.302 0.085 6.59 1.4 8.46
8/17/2022 9:00:00 AM 17.43 63.374 0.085 6.68 1.35 8.41
8/17/2022 9:15:00 AM 17.46 63.428 0.085 6.65 1.47 8.5
8/17/2022 9:30:00 AM 17.52 63.536 0.085 6.62 1.36 8.57
8/17/2022 9:45:00 AM 17.59 63.662 0.086 6.58 1.34 8.5
8/17/2022 10:00:00 AM 17.79 64.022 0.087 6.62 1.26 8.22
8/17/2022 10:15:00 AM 17.83 64.094 0.084 6.71 1.39 8.98
8/17/2022 10:30:00 AM 17.94 64.292 0.087 6.56 1.33 8.26
8/17/2022 10:45:00 AM 18.25 64.85 0.085 6.73 1.81 8.89
8/17/2022 11:00:00 AM 18.24 64.832 0.084 6.74 1.57 9.01
8/17/2022 11:15:00 AM 18.27 64.886 0.084 6.73 1.5 9.06
8/17/2022 11:30:00 AM 18.27 64.886 0.085 6.74 1.31 9.02
8/17/2022 11:45:00 AM 18.32 64.976 0.085 6.72 1.7 8.96
8/17/2022 12:00:00 PM 18.44 65.192 0.085 6.81 1.28 9.04
8/17/2022 12:15:00 PM 18.52 65.336 0.085 6.69 1.27 8.87
8/17/2022 12:30:00 PM 18.58 65.444 0.085 6.76 1.29 8.99
8/17/2022 12:45:00 PM 18.63 65.534 0.085 6.73 1.33 8.95
8/17/2022 1:00:00 PM 18.68 65.624 0.085 6.76 1.21 8.88
8/17/2022 1:15:00 PM 18.73 65.714 0.085 6.74 1.53 8.92
8/17/2022 1:30:00 PM 18.76 65.768 0.085 6.74 1.29 8.91
8/17/2022 1:45:00 PM 18.85 65.93 0.085 6.74 1.23 8.89
8/17/2022 2:00:00 PM 18.94 66.092 0.085 6.75 1.3 8.87
8/17/2022 2:15:00 PM 18.94 66.092 0.087 6.57 1.21 8.14
8/17/2022 2:30:00 PM 18.77 65.786 0.088 6.44 1.33 7.24
8/17/2022 2:45:00 PM 19.12 66.416 0.086 6.67 1.14 8.33
8/17/2022 3:00:00 PM 18.97 66.146 0.087 6.57 1.27 8.12
8/17/2022 3:15:00 PM 18.89 66.002 0.087 6.59 1.21 8.15
8/17/2022 3:30:00 PM 18.74 65.732 0.087 6.67 1.18 8.13
8/17/2022 3:45:00 PM 18.61 65.498 0.087 6.57 1.26 8.15
8/17/2022 4:00:00 PM 18.53 65.354 0.087 6.62 1.2 7.94
8/17/2022 4:15:00 PM 18.44 65.192 0.087 6.6 1.23 8.22
8/17/2022 4:30:00 PM 18.4 65.12 0.088 6.62 1.2 8.01
8/17/2022 4:45:00 PM 18.33 64.994 0.087 6.55 1.52 7.89
8/17/2022 5:00:00 PM 18.27 64.886 0.086 6.59 1.52 7.87
8/17/2022 5:15:00 PM 18.22 64.796 0.086 6.59 1.53 7.89
8/17/2022 5:30:00 PM 18.19 64.742 0.086 6.51 1.66 7.82
8/17/2022 5:45:00 PM 18.14 64.652 0.086 6.64 2.24 8.02
8/17/2022 6:00:00 PM 18.11 64.598 0.086 6.59 2.4 7.98
8/17/2022 6:15:00 PM 18.08 64.544 0.085 6.56 2.17 8.06
8/17/2022 6:30:00 PM 18.07 64.526 0.085 6.65 2.05 8.06
8/17/2022 6:45:00 PM 18.06 64.508 0.085 6.56 1.78 8.12
8/17/2022 7:00:00 PM 18.06 64.508 0.086 6.61 1.68 7.96
8/17/2022 7:15:00 PM 18.02 64.436 0.086 6.61 1.65 8.08
8/17/2022 7:30:00 PM 17.99 64.382 0.086 6.56 1.56 8.13
8/17/2022 7:45:00 PM 17.96 64.328 0.086 6.6 1.51 8.04
8/17/2022 8:00:00 PM 17.9 64.22 0.086 6.55 1.39 8.09
8/17/2022 8:15:00 PM 17.86 64.148 0.087 6.61 1.7 7.98
8/17/2022 8:30:00 PM 17.83 64.094 0.087 6.51 1.62 7.95
8/17/2022 8:45:00 PM 17.78 64.004 0.087 6.59 1.45 8.04
8/17/2022 9:00:00 PM 17.74 63.932 0.087 6.54 1.4 8.05
8/17/2022 9:15:00 PM 17.68 63.824 0.087 6.64 1.44 8.13
8/17/2022 9:30:00 PM 17.69 63.842 0.088 6.54 1.53 7.94
8/17/2022 9:45:00 PM 17.64 63.752 0.087 6.57 1.41 8.08
8/17/2022 10:00:00 PM 17.64 63.752 0.088 6.54 1.32 7.94
8/17/2022 10:15:00 PM 17.62 63.716 0.088 6.59 1.31 7.93
8/17/2022 10:30:00 PM 17.57 63.626 0.088 6.55 1.32 8.03
8/17/2022 10:45:00 PM 17.52 63.536 0.088 6.67 1.21 8.14
8/17/2022 11:00:00 PM 17.48 63.464 0.088 6.59 1.26 8.19
8/17/2022 11:15:00 PM 17.42 63.356 0.087 6.66 1.28 8.34
8/17/2022 11:30:00 PM 17.43 63.374 0.087 6.6 1.38 8.25
8/17/2022 11:45:00 PM 17.43 63.374 0.088 6.57 1.3 8.14
8/18/2022 12:00:00 AM 17.39 63.302 0.088 6.61 1.26 8.16
8/18/2022 12:15:00 AM 17.33 63.194 0.088 6.61 1.5 8.31
8/18/2022 12:30:00 AM 17.31 63.158 0.088 6.69 1.35 8.27
8/18/2022 12:45:00 AM 17.27 63.086 0.088 6.6 1.42 8.37
8/18/2022 1:00:00 AM 17.26 63.068 0.088 6.66 1.45 8.36
8/18/2022 1:15:00 AM 17.19 62.942 0.088 6.72 1.35 8.49
8/18/2022 1:30:00 AM 17.17 62.906 0.088 6.68 1.41 8.44
8/18/2022 1:45:00 AM 17.15 62.87 0.088 6.7 1.45 8.45
8/18/2022 2:00:00 AM 17.11 62.798 0.088 6.63 1.46 8.49
8/18/2022 2:15:00 AM 17.08 62.744 0.088 6.69 1.45 8.52
8/18/2022 2:30:00 AM 17.06 62.708 0.088 6.61 1.53 8.55
8/18/2022 2:45:00 AM 17.01 62.618 0.088 6.72 1.45 8.56
8/18/2022 3:00:00 AM 16.99 62.582 0.088 6.64 1.45 8.57
8/18/2022 3:15:00 AM 16.96 62.528 0.088 6.67 1.41 8.58
8/18/2022 3:30:00 AM 16.97 62.546 0.088 6.61 1.39 8.51
8/18/2022 3:45:00 AM 16.93 62.474 0.088 6.64 1.44 8.56
8/18/2022 4:00:00 AM 16.9 62.42 0.088 6.63 1.53 8.58
8/18/2022 4:15:00 AM 16.89 62.402 0.088 6.72 1.58 8.53
8/18/2022 4:30:00 AM 16.83 62.294 0.088 6.62 1.46 8.67
8/18/2022 4:45:00 AM 16.84 62.312 0.088 6.63 1.52 8.55
8/18/2022 5:00:00 AM 16.83 62.294 0.089 6.71 1.47 8.47
8/18/2022 5:15:00 AM 16.77 62.186 0.088 6.73 1.37 8.56
8/18/2022 5:30:00 AM 16.76 62.168 0.089 6.62 1.53 8.55
8/18/2022 5:45:00 AM 16.75 62.15 0.088 6.67 1.42 8.5
8/18/2022 6:00:00 AM 16.7 62.06 0.089 6.69 1.48 8.54
8/18/2022 6:15:00 AM 16.66 61.988 0.089 6.61 1.51 8.53
8/18/2022 6:30:00 AM 16.66 61.988 0.089 6.62 1.34 8.48
8/18/2022 6:45:00 AM 16.6 61.88 0.089 6.65 1.49 8.6
8/18/2022 7:00:00 AM 16.58 61.844 0.089 6.71 1.35 8.6
8/18/2022 7:15:00 AM 16.58 61.844 0.089 6.63 1.39 8.57
8/18/2022 7:30:00 AM 16.53 61.754 0.089 6.68 1.38 8.67
8/18/2022 7:45:00 AM 16.51 61.718 0.089 6.71 1.44 8.79
8/18/2022 8:00:00 AM 16.52 61.736 0.089 6.69 1.48 8.81
8/18/2022 8:15:00 AM 16.46 61.628 0.088 6.78 1.37 9.08
8/18/2022 8:30:00 AM 16.56 61.808 0.089 6.64 1.31 8.89
8/18/2022 8:45:00 AM 16.57 61.826 0.088 6.76 1.43 8.97
8/18/2022 9:00:00 AM 16.67 62.006 0.089 6.64 1.33 8.92
8/18/2022 9:15:00 AM 16.68 62.024 0.088 6.76 1.42 9.15
8/18/2022 9:30:00 AM 16.71 62.078 0.088 6.77 1.32 9.28
8/18/2022 9:45:00 AM 16.8 62.24 0.088 6.79 1.27 9.19
8/18/2022 10:00:00 AM 16.83 62.294 0.088 6.79 1.36 9.33
8/18/2022 10:15:00 AM 17.23 63.014 0.088 6.77 1.29 9.34
8/18/2022 10:30:00 AM 17.66 63.788 0.088 6.87 1.33 9.42
8/18/2022 10:45:00 AM 18.08 64.544 0.087 6.79 1.3 9.37
8/18/2022 11:00:00 AM 18.29 64.922 0.088 6.8 1.4 9.26
8/18/2022 11:15:00 AM 18.52 65.336 0.088 6.74 1.28 9.08
8/18/2022 11:30:00 AM 18.74 65.732 0.088 6.77 1.26 9.12
8/18/2022 11:45:00 AM 18.98 66.164 0.088 6.73 1.2 9
8/18/2022 12:00:00 PM 19.23 66.614 0.088 6.81 1.27 9.01
8/18/2022 12:15:00 PM 19.4 66.92 0.088 6.76 1.24 8.97
8/18/2022 12:30:00 PM 19.54 67.172 0.088 6.78 1.22 8.99
8/18/2022 12:45:00 PM 19.62 67.316 0.088 6.8 1.28 8.99
8/18/2022 1:00:00 PM 19.66 67.388 0.088 6.77 1.26 8.93
8/18/2022 1:15:00 PM 19.2 66.56 0.088 6.76 1.27 8.62
8/18/2022 1:30:00 PM 19.05 66.29 0.088 6.72 1.29 8.8
8/18/2022 1:45:00 PM 19.04 66.272 0.088 6.74 1.38 8.81
8/18/2022 2:00:00 PM 19.22 66.596 0.088 6.78 1.28 8.87
8/18/2022 2:15:00 PM 19.27 66.686 0.088 6.75 1.24 8.74
8/18/2022 2:30:00 PM 19.24 66.632 0.088 6.74 1.31 8.79
8/18/2022 2:45:00 PM 19.19 66.542 0.088 6.79 1.3 8.9
8/18/2022 3:00:00 PM 19.24 66.632 0.088 6.76 1.31 8.86
8/18/2022 3:15:00 PM 19.41 66.938 0.088 6.78 1.24 8.84
8/18/2022 3:30:00 PM 19.47 67.046 0.088 6.78 1.23 8.85
8/18/2022 3:45:00 PM 19.54 67.172 0.089 6.75 1.22 8.72
8/18/2022 4:00:00 PM 19.6 67.28 0.089 6.75 1.29 8.73
8/18/2022 4:15:00 PM 19.44 66.992 0.089 6.69 1.16 8.53
8/18/2022 4:30:00 PM 19.44 66.992 0.089 6.76 1.28 8.68
8/18/2022 4:45:00 PM 19.51 67.118 0.089 6.78 1.21 8.72
8/18/2022 5:00:00 PM 19.43 66.974 0.089 6.74 1.27 8.46
8/18/2022 5:15:00 PM 19.33 66.794 0.089 6.71 1.26 8.45
8/18/2022 5:30:00 PM 19.27 66.686 0.089 6.69 1.27 8.47
8/18/2022 5:45:00 PM 19.18 66.524 0.089 6.81 1.26 8.66
8/18/2022 6:00:00 PM 19.08 66.344 0.089 6.71 1.21 8.61
8/18/2022 6:15:00 PM 19.05 66.29 0.089 6.71 1.38 8.34
8/18/2022 6:30:00 PM 19.02 66.236 0.09 6.63 1.24 8.32
8/18/2022 6:45:00 PM 19.02 66.236 0.09 6.62 1.24 8.16
8/18/2022 7:00:00 PM 18.96 66.128 0.09 6.64 1.24 8.16
8/18/2022 7:15:00 PM 18.92 66.056 0.09 6.56 1.22 8.03
8/18/2022 7:30:00 PM 18.86 65.948 0.09 6.61 1.17 7.98
8/18/2022 7:45:00 PM 18.8 65.84 0.09 6.53 1.24 7.89
8/18/2022 8:00:00 PM 18.73 65.714 0.091 6.57 1.19 7.72
8/18/2022 8:15:00 PM 18.7 65.66 0.09 6.53 1.33 7.84
8/18/2022 8:30:00 PM 18.65 65.57 0.091 6.63 1.55 7.9
8/18/2022 8:45:00 PM 18.59 65.462 0.091 6.53 1.44 7.72
8/18/2022 9:00:00 PM 18.54 65.372 0.091 6.52 1.52 7.61
8/18/2022 9:15:00 PM 18.48 65.264 0.091 6.51 1.32 7.68
8/18/2022 9:30:00 PM 18.43 65.174 0.091 6.57 1.28 7.71
8/18/2022 9:45:00 PM 18.39 65.102 0.091 6.59 1.27 7.75
8/18/2022 10:00:00 PM 18.35 65.03 0.091 6.56 1.42 7.8
8/18/2022 10:15:00 PM 18.3 64.94 0.091 6.58 1.19 7.7
8/18/2022 10:30:00 PM 18.24 64.832 0.091 6.62 1.22 7.83
8/18/2022 10:45:00 PM 18.19 64.742 0.091 6.53 1.2 7.91
8/18/2022 11:00:00 PM 18.17 64.706 0.091 6.63 1.25 7.84
8/18/2022 11:15:00 PM 18.16 64.688 0.091 6.51 1.29 7.79
8/18/2022 11:30:00 PM 18.13 64.634 0.091 6.6 1.18 7.84
8/18/2022 11:45:00 PM 18.12 64.616 0.091 6.56 1.21 7.85
8/19/2022 12:00:00 AM 18.06 64.508 0.091 6.61 1.22 7.96
8/19/2022 12:15:00 AM 18.05 64.49 0.091 6.56 1.21 7.99
8/19/2022 12:30:00 AM 18.01 64.418 0.091 6.67 1.18 7.98
8/19/2022 12:45:00 AM 17.97 64.346 0.091 6.56 1.2 8.04
8/19/2022 1:00:00 AM 17.95 64.31 0.091 6.67 1.25 8.01
8/19/2022 1:15:00 AM 17.93 64.274 0.091 6.55 1.19 8
8/19/2022 1:30:00 AM 17.92 64.256 0.091 6.58 1.16 7.91
8/19/2022 1:45:00 AM 17.88 64.184 0.091 6.56 1.18 7.95
8/19/2022 2:00:00 AM 17.84 64.112 0.091 6.6 1.15 8.03
8/19/2022 2:15:00 AM 17.8 64.04 0.091 6.61 1.22 8.1
8/19/2022 2:30:00 AM 17.79 64.022 0.091 6.6 1.19 7.99
8/19/2022 2:45:00 AM 17.75 63.95 0.091 6.61 1.17 8.06
8/19/2022 3:00:00 AM 17.73 63.914 0.091 6.58 1.49 8.08
8/19/2022 3:15:00 AM 17.68 63.824 0.091 6.59 1.28 8.14
8/19/2022 3:30:00 AM 17.66 63.788 0.091 6.59 1.31 8.12
8/19/2022 3:45:00 AM 17.63 63.734 0.091 6.63 1.5 8.1
8/19/2022 4:00:00 AM 17.6 63.68 0.091 6.59 1.41 8.13
8/19/2022 4:15:00 AM 17.57 63.626 0.091 6.67 1.34 8.21
8/19/2022 4:30:00 AM 17.54 63.572 0.091 6.65 1.24 8.22
8/19/2022 4:45:00 AM 17.51 63.518 0.091 6.61 1.34 8.23
8/19/2022 5:00:00 AM 17.49 63.482 0.091 6.62 1.36 8.2
8/19/2022 5:15:00 AM 17.47 63.446 0.091 6.65 2.62 8.18
8/19/2022 5:30:00 AM 17.45 63.41 0.091 6.6 1.38 8.15
8/19/2022 5:45:00 AM 17.42 63.356 0.091 6.65 1.54 8.18
8/19/2022 6:00:00 AM 17.41 63.338 0.091 6.58 1.51 8.12
8/19/2022 6:15:00 AM 17.36 63.248 0.091 6.63 1.47 8.17
8/19/2022 6:30:00 AM 17.33 63.194 0.091 6.64 1.28 8.18
8/19/2022 6:45:00 AM 17.3 63.14 0.091 6.57 1.29 8.19
8/19/2022 7:00:00 AM 17.29 63.122 0.091 6.61 1.32 8.19
8/19/2022 7:15:00 AM 17.29 63.122 0.091 6.56 1.33 8.13
8/19/2022 7:30:00 AM 17.28 63.104 0.091 6.6 1.28 8.1
8/19/2022 7:45:00 AM 17.28 63.104 0.091 6.55 1.24 8.02
8/19/2022 8:00:00 AM 17.27 63.086 0.091 6.59 1.49 8.05
8/19/2022 8:15:00 AM 17.27 63.086 0.091 6.61 1.22 8.03
8/19/2022 8:30:00 AM 17.26 63.068 0.091 6.63 1.28 8.21
8/19/2022 8:45:00 AM 17.27 63.086 0.091 6.56 1.51 8.19
8/19/2022 9:00:00 AM 17.29 63.122 0.091 6.62 1.22 8.2
8/19/2022 9:15:00 AM 17.31 63.158 0.091 6.63 1.26 8.15
8/19/2022 9:30:00 AM 17.36 63.248 0.091 6.57 1.29 8.1
8/19/2022 9:45:00 AM 17.4 63.32 0.091 6.58 1.29 8.06
8/19/2022 10:00:00 AM 17.5 63.5 0.091 6.56 1.43 8.1
8/19/2022 10:15:00 AM 17.62 63.716 0.091 6.67 1.17 8.3
8/19/2022 10:30:00 AM 17.62 63.716 0.092 6.43 1.3 7.76
8/19/2022 10:45:00 AM 17.84 64.112 0.092 6.48 1.18 7.32
8/19/2022 11:00:00 AM 17.92 64.256 0.092 6.38 1.26 6.84
8/19/2022 11:15:00 AM 18.16 64.688 0.093 6.36 1.28 6.46
8/19/2022 11:30:00 AM 18.21 64.778 0.093 6.38 1.89 6.47
8/19/2022 11:45:00 AM 18.38 65.084 0.093 6.38 1.32 6.51
8/19/2022 12:00:00 PM 18.59 65.462 0.092 6.36 1.29 6.54
8/19/2022 12:15:00 PM 18.75 65.75 0.092 6.39 1.26 6.55
8/19/2022 12:30:00 PM 18.81 65.858 0.093 6.34 1.3 6.35
8/19/2022 12:45:00 PM 18.89 66.002 0.093 6.37 1.23 6.25
8/19/2022 1:00:00 PM 18.89 66.002 0.093 6.3 1.22 6.17
8/19/2022 1:15:00 PM 19.15 66.47 0.093 6.37 1.19 6.16
8/19/2022 1:30:00 PM 19.12 66.416 0.093 6.32 1.24 6.03
8/19/2022 1:45:00 PM 19.02 66.236 0.093 6.33 1.23 6.04
8/19/2022 2:00:00 PM 19.07 66.326 0.094 6.31 1.32 5.8
8/19/2022 2:15:00 PM 19.11 66.398 0.094 6.38 1.21 5.72
8/19/2022 2:30:00 PM 19.18 66.524 0.093 6.37 1.25 6.1
8/19/2022 2:45:00 PM 19.35 66.83 0.093 6.37 1.16 5.96
8/19/2022 3:00:00 PM 19.28 66.704 0.094 6.32 1.17 5.7
8/19/2022 3:15:00 PM 19.19 66.542 0.094 6.36 1.12 5.47
8/19/2022 3:30:00 PM 19.16 66.488 0.094 6.36 1.22 5.5
8/19/2022 3:45:00 PM 19.27 66.686 0.094 6.3 1.2 5.58
8/19/2022 4:00:00 PM 19.29 66.722 0.094 6.3 1.17 5.6
8/19/2022 4:15:00 PM 19.34 66.812 0.094 6.35 1.16 5.61
8/19/2022 4:30:00 PM 19.48 67.064 0.093 6.38 1.17 5.71
8/19/2022 4:45:00 PM 19.4 66.92 0.093 6.36 1.13 5.59
8/19/2022 5:00:00 PM 19.6 67.28 0.093 6.31 1.16 5.79
8/19/2022 5:15:00 PM 19.55 67.19 0.093 6.31 1.16 5.76
8/19/2022 5:30:00 PM 19.64 67.352 0.093 6.32 1.1 5.82
8/19/2022 5:45:00 PM 19.64 67.352 0.093 6.37 1.15 5.76
8/19/2022 6:00:00 PM 19.61 67.298 0.093 6.29 1.13 5.73
8/19/2022 6:15:00 PM 19.54 67.172 0.093 6.3 1.2 5.73
8/19/2022 6:30:00 PM 19.47 67.046 0.093 6.38 1.35 5.67
8/19/2022 6:45:00 PM 19.37 66.866 0.093 6.29 1.2 5.68
8/19/2022 7:00:00 PM 19.29 66.722 0.093 6.27 1.22 5.52
8/19/2022 7:15:00 PM 19.31 66.758 0.094 6.27 1.2 5.34
8/19/2022 7:30:00 PM 19.3 66.74 0.095 6.26 1.17 5.08
8/19/2022 7:45:00 PM 19.27 66.686 0.095 6.31 1.64 4.97
8/19/2022 8:00:00 PM 19.26 66.668 0.095 6.26 1.21 4.86
8/19/2022 8:15:00 PM 19.26 66.668 0.095 6.25 1.19 4.75
8/19/2022 8:30:00 PM 19.28 66.704 0.095 6.32 1.25 4.78
8/19/2022 8:45:00 PM 19.27 66.686 0.095 6.27 1.25 4.67
8/19/2022 9:00:00 PM 19.24 66.632 0.095 6.33 1.29 4.52
8/19/2022 9:15:00 PM 19.2 66.56 0.096 6.27 1.26 4.37
8/19/2022 9:30:00 PM 19.19 66.542 0.096 6.24 1.28 4.33
8/19/2022 9:45:00 PM 19.15 66.47 0.096 6.28 1.25 4.07
8/19/2022 10:00:00 PM 19.12 66.416 0.096 6.24 1.31 3.95
8/19/2022 10:15:00 PM 19.1 66.38 0.096 6.22 1.18 3.75
8/19/2022 10:30:00 PM 19.09 66.362 0.097 6.25 1.27 3.73
8/19/2022 10:45:00 PM 19.08 66.344 0.097 6.27 1.19 3.75
8/19/2022 11:00:00 PM 19.05 66.29 0.096 6.3 1.27 4.35
8/19/2022 11:15:00 PM 19.03 66.254 0.094 6.36 1.24 5.49
8/19/2022 11:30:00 PM 18.98 66.164 0.094 6.37 1.19 5.44
8/19/2022 11:45:00 PM 18.94 66.092 0.093 6.46 1.16 6.62
8/20/2022 12:00:00 AM 18.9 66.02 0.092 6.5 1.22 7.28
8/20/2022 12:15:00 AM 18.86 65.948 0.092 6.51 1.17 7.29
8/20/2022 12:30:00 AM 18.82 65.876 0.092 6.52 1.24 7.49
8/20/2022 12:45:00 AM 18.78 65.804 0.092 6.55 1.23 7.48
8/20/2022 1:00:00 AM 18.76 65.768 0.093 6.49 1.22 7.36
8/20/2022 1:15:00 AM 18.72 65.696 0.093 6.5 1.24 7.29
8/20/2022 1:30:00 AM 18.68 65.624 0.093 6.48 1.17 7.24
8/20/2022 1:45:00 AM 18.63 65.534 0.093 6.5 1.28 7.28
8/20/2022 2:00:00 AM 18.58 65.444 0.093 6.49 1.29 7.31
8/20/2022 2:15:00 AM 18.55 65.39 0.093 6.5 1.27 7.31
8/20/2022 2:30:00 AM 18.51 65.318 0.093 6.49 1.2 7.3
8/20/2022 2:45:00 AM 18.46 65.228 0.093 6.58 1.16 7.43
8/20/2022 3:00:00 AM 18.41 65.138 0.093 6.55 1.21 7.46
8/20/2022 3:15:00 AM 18.41 65.138 0.093 6.55 1.17 7.34
8/20/2022 3:30:00 AM 18.39 65.102 0.093 6.58 1.1 7.36
8/20/2022 3:45:00 AM 18.37 65.066 0.093 6.48 1.18 7.33
8/20/2022 4:00:00 AM 18.34 65.012 0.093 6.5 1.14 7.29
8/20/2022 4:15:00 AM 18.31 64.958 0.093 6.56 1.18 7.42
8/20/2022 4:30:00 AM 18.28 64.904 0.093 6.5 1.16 7.49
8/20/2022 4:45:00 AM 18.25 64.85 0.093 6.53 1.13 7.57
8/20/2022 5:00:00 AM 18.24 64.832 0.093 6.51 1.27 7.51
8/20/2022 5:15:00 AM 18.21 64.778 0.093 6.54 1.15 7.63
8/20/2022 5:30:00 AM 18.21 64.778 0.093 6.54 1.25 7.5
8/20/2022 5:45:00 AM 18.15 64.67 0.093 6.53 1.29 7.68
8/20/2022 6:00:00 AM 18.14 64.652 0.093 6.52 1.5 7.61
8/20/2022 6:15:00 AM 18.12 64.616 0.093 6.54 1.46 7.59
8/20/2022 6:30:00 AM 18.11 64.598 0.093 6.49 1.21 7.31
8/20/2022 6:45:00 AM 18.05 64.49 0.093 6.53 1.21 7.48
8/20/2022 7:00:00 AM 18.01 64.418 0.093 6.49 1.19 7.48
8/20/2022 7:15:00 AM 17.98 64.364 0.093 6.5 1.18 7.52
8/20/2022 7:30:00 AM 17.92 64.256 0.093 6.54 1.25 7.72
8/20/2022 7:45:00 AM 17.93 64.274 0.093 6.51 1.2 7.58
8/20/2022 8:00:00 AM 17.86 64.148 0.092 6.54 1.27 7.89
8/20/2022 8:15:00 AM 17.87 64.166 0.092 6.57 1.2 7.89
8/20/2022 8:30:00 AM 17.89 64.202 0.092 6.58 1.27 7.88
8/20/2022 8:45:00 AM 17.93 64.274 0.092 6.59 1.34 7.81
8/20/2022 9:00:00 AM 17.95 64.31 0.092 6.58 1.52 7.86
8/20/2022 9:15:00 AM 17.99 64.382 0.092 6.55 1.23 7.86
8/20/2022 9:30:00 AM 18.05 64.49 0.093 6.53 1.26 7.54
8/20/2022 9:45:00 AM 18.13 64.634 0.093 6.46 1.57 7.14
8/20/2022 10:00:00 AM 18.24 64.832 0.092 6.51 1.38 7.46
8/20/2022 10:15:00 AM 18.3 64.94 0.093 6.41 1.67 6.84
8/20/2022 10:30:00 AM 18.38 65.084 0.094 6.38 1.38 6.34
8/20/2022 10:45:00 AM 18.56 65.408 0.094 6.44 1.42 6.33
8/20/2022 11:00:00 AM 18.56 65.408 0.094 6.38 1.51 6.09
8/20/2022 11:15:00 AM 18.68 65.624 0.095 6.35 1.29 5.75
8/20/2022 11:30:00 AM 18.77 65.786 0.095 6.3 1.54 5.6
8/20/2022 11:45:00 AM 18.89 66.002 0.094 6.34 1.4 5.72
8/20/2022 12:00:00 PM 19.09 66.362 0.094 6.36 1.45 5.98
8/20/2022 12:15:00 PM 19.22 66.596 0.095 6.36 1.25 5.68
8/20/2022 12:30:00 PM 19.35 66.83 0.096 6.31 1.23 5.38
8/20/2022 12:45:00 PM 19.45 67.01 0.096 6.28 1.19 5.11
8/20/2022 1:00:00 PM 19.43 66.974 0.096 6.29 1.15 4.97
8/20/2022 1:15:00 PM 19.6 67.28 0.096 6.28 1.14 5.02
8/20/2022 1:30:00 PM 19.46 67.028 0.096 6.3 1.19 5
8/20/2022 1:45:00 PM 19.51 67.118 0.096 6.28 1.41 4.88
8/20/2022 2:00:00 PM 19.47 67.046 0.095 6.31 1.25 4.91
8/20/2022 2:15:00 PM 19.43 66.974 0.095 6.28 1.31 5.04
8/20/2022 2:30:00 PM 19.45 67.01 0.095 6.27 1.27 5.24
8/20/2022 2:45:00 PM 19.5 67.1 0.094 6.31 1.34 5.43
8/20/2022 3:00:00 PM 19.55 67.19 0.094 6.28 1.24 5.41
8/20/2022 3:15:00 PM 19.64 67.352 0.094 6.31 1.21 5.36
8/20/2022 3:30:00 PM 19.63 67.334 0.094 6.38 1.41 5.27
8/20/2022 3:45:00 PM 19.66 67.388 0.095 6.33 1.21 5.34
8/20/2022 4:00:00 PM 19.64 67.352 0.095 6.29 1.21 5.29
8/20/2022 4:15:00 PM 19.65 67.37 0.094 6.3 1.18 5.36
8/20/2022 4:30:00 PM 19.71 67.478 0.094 6.29 1.22 5.42
8/20/2022 4:45:00 PM 19.83 67.694 0.094 6.39 1.13 5.59
8/20/2022 5:00:00 PM 19.78 67.604 0.094 6.3 1.23 5.65
8/20/2022 5:15:00 PM 19.99 67.982 0.095 6.38 1.12 5.54
8/20/2022 5:30:00 PM 19.99 67.982 0.095 6.29 1.15 5.4
8/20/2022 5:45:00 PM 20.16 68.288 0.095 6.3 1.14 5.47
8/20/2022 6:00:00 PM 20.05 68.09 0.095 6.29 1.15 5.38
8/20/2022 6:15:00 PM 19.9 67.82 0.095 6.3 1.14 5.38
8/20/2022 6:30:00 PM 19.89 67.802 0.096 6.33 1.19 5.11
8/20/2022 6:45:00 PM 19.87 67.766 0.096 6.25 1.16 4.88
8/20/2022 7:00:00 PM 19.84 67.712 0.096 6.34 1.29 4.8
8/20/2022 7:15:00 PM 19.79 67.622 0.096 6.22 1.24 4.58
8/20/2022 7:30:00 PM 19.79 67.622 0.096 6.32 1.17 4.57
8/20/2022 7:45:00 PM 19.79 67.622 0.096 6.27 1.15 4.61
8/20/2022 8:00:00 PM 19.73 67.514 0.097 6.24 1.18 4.5
8/20/2022 8:15:00 PM 19.77 67.586 0.097 6.25 1.12 4.5
8/20/2022 8:30:00 PM 19.8 67.64 0.097 6.25 1.16 4.49
8/20/2022 8:45:00 PM 19.76 67.568 0.097 6.31 1.06 4.35
8/20/2022 9:00:00 PM 19.71 67.478 0.097 6.23 1.26 3.99
8/20/2022 9:15:00 PM 19.69 67.442 0.097 6.22 1.16 3.88
8/20/2022 9:30:00 PM 19.65 67.37 0.098 6.22 1.15 3.66
8/20/2022 9:45:00 PM 19.67 67.406 0.098 6.31 1.18 3.52
8/20/2022 10:00:00 PM 19.71 67.478 0.098 6.22 1.15 3.56
8/20/2022 10:15:00 PM 19.65 67.37 0.098 6.23 1.32 3.29
8/20/2022 10:30:00 PM 19.56 67.208 0.099 6.24 1.24 3.11
8/20/2022 10:45:00 PM 19.63 67.334 0.099 6.21 1.12 3.29
8/20/2022 11:00:00 PM 19.61 67.298 0.099 6.21 1.23 3.23
8/20/2022 11:15:00 PM 19.54 67.172 0.099 6.24 1.15 3.25
8/20/2022 11:30:00 PM 19.54 67.172 0.099 6.24 1.24 3.25
8/20/2022 11:45:00 PM 19.54 67.172 0.098 6.22 1.31 3.34
8/21/2022 12:00:00 AM 19.47 67.046 0.1 6.2 1.14 3.01
8/21/2022 12:15:00 AM 19.49 67.082 0.1 6.26 1.11 2.92
8/21/2022 12:30:00 AM 19.48 67.064 0.1 6.19 1.24 2.89
8/21/2022 12:45:00 AM 19.46 67.028 0.099 6.19 1.06 2.99
8/21/2022 1:00:00 AM 19.43 66.974 0.097 6.37 1.21 4.3
8/21/2022 1:15:00 AM 19.4 66.92 0.094 6.45 1.26 6.29
8/21/2022 1:30:00 AM 19.35 66.83 0.093 6.5 1.21 6.93
8/21/2022 1:45:00 AM 19.31 66.758 0.093 6.55 1.19 7.12
8/21/2022 2:00:00 AM 19.26 66.668 0.093 6.55 1.18 7.41
8/21/2022 2:15:00 AM 19.24 66.632 0.093 6.58 1.15 7.45
8/21/2022 2:30:00 AM 19.2 66.56 0.092 6.55 1.37 7.62
8/21/2022 2:45:00 AM 19.18 66.524 0.093 6.56 1.17 7.59
8/21/2022 3:00:00 AM 19.14 66.452 0.092 6.57 1.17 7.71
8/21/2022 3:15:00 AM 19.12 66.416 0.092 6.57 1.12 7.71
8/21/2022 3:30:00 AM 19.12 66.416 0.093 6.57 1.25 7.6
8/21/2022 3:45:00 AM 19.09 66.362 0.093 6.6 1.14 7.61
8/21/2022 4:00:00 AM 19.1 66.38 0.093 6.63 1.19 7.58
8/21/2022 4:15:00 AM 19.08 66.344 0.092 6.57 1.17 7.58
8/21/2022 4:30:00 AM 19.07 66.326 0.092 6.6 1.5 7.61
8/21/2022 4:45:00 AM 19.03 66.254 0.092 6.58 1.25 7.72
8/21/2022 5:00:00 AM 19.02 66.236 0.093 6.54 1.18 7.61
8/21/2022 5:15:00 AM 19 66.2 0.093 6.55 1.21 7.6
8/21/2022 5:30:00 AM 18.98 66.164 0.093 6.62 1.18 7.63
8/21/2022 5:45:00 AM 18.98 66.164 0.093 6.53 1.23 7.52
8/21/2022 6:00:00 AM 18.97 66.146 0.093 6.61 1.15 7.5
8/21/2022 6:15:00 AM 18.93 66.074 0.093 6.55 1.27 7.59
8/21/2022 6:30:00 AM 18.93 66.074 0.093 6.54 1.2 7.48
8/21/2022 6:45:00 AM 18.93 66.074 0.093 6.55 1.31 7.31
8/21/2022 7:00:00 AM 18.92 66.056 0.093 6.49 1.14 7.25
8/21/2022 7:15:00 AM 18.9 66.02 0.093 6.56 1.17 7.3
8/21/2022 7:30:00 AM 18.88 65.984 0.093 6.59 1.23 7.38
8/21/2022 7:45:00 AM 18.89 66.002 0.093 6.49 1.3 7.36
8/21/2022 8:00:00 AM 18.92 66.056 0.093 6.52 1.28 7.18
8/21/2022 8:15:00 AM 18.93 66.074 0.093 6.52 1.19 7.46
8/21/2022 8:30:00 AM 18.95 66.11 0.093 6.6 1.2 7.41
8/21/2022 8:45:00 AM 18.99 66.182 0.093 6.5 1.22 7.31
8/21/2022 9:00:00 AM 19.08 66.344 0.094 6.44 1.54 6.42
8/21/2022 9:15:00 AM 19.11 66.398 0.094 6.37 1.55 6.22
8/21/2022 9:30:00 AM 19.19 66.542 0.095 6.45 1.23 5.92
8/21/2022 9:45:00 AM 19.3 66.74 0.093 6.43 1.3 6.61
8/21/2022 10:00:00 AM 19.36 66.848 0.094 6.45 1.3 6.54
8/21/2022 10:15:00 AM 19.34 66.812 0.095 6.32 1.23 5.71
8/21/2022 10:30:00 AM 19.38 66.884 0.096 6.39 1.4 5.07
8/21/2022 10:45:00 AM 19.39 66.902 0.097 6.25 1.35 4.44
8/21/2022 11:00:00 AM 19.52 67.136 0.097 6.32 1.25 4.7
8/21/2022 11:15:00 AM 19.53 67.154 0.097 6.26 1.37 4.65
8/21/2022 11:30:00 AM 19.56 67.208 0.097 6.26 1.25 4.55
8/21/2022 11:45:00 AM 19.57 67.226 0.097 6.28 1.21 4.55
8/21/2022 12:00:00 PM 19.6 67.28 0.097 6.25 1.2 4.6
8/21/2022 12:15:00 PM 19.58 67.244 0.097 6.27 1.19 4.59
8/21/2022 12:30:00 PM 19.52 67.136 0.097 6.29 1.15 4.59
8/21/2022 12:45:00 PM 19.52 67.136 0.097 6.25 1.17 4.59
8/21/2022 1:00:00 PM 19.47 67.046 0.097 6.26 1.16 4.44
8/21/2022 1:15:00 PM 19.47 67.046 0.097 6.26 1.21 4.37
8/21/2022 1:30:00 PM 19.5 67.1 0.097 6.31 1.46 4.33
8/21/2022 1:45:00 PM 19.46 67.028 0.097 6.27 1.47 4.49
8/21/2022 2:00:00 PM 19.4 66.92 0.096 6.33 1.52 4.58
8/21/2022 2:15:00 PM 19.42 66.956 0.097 6.28 1.43 4.44
8/21/2022 2:30:00 PM 19.42 66.956 0.097 6.24 1.45 4.28
8/21/2022 2:45:00 PM 19.46 67.028 0.097 6.27 1.23 4.04
8/21/2022 3:00:00 PM 19.5 67.1 0.097 6.3 1.31 4.08
8/21/2022 3:15:00 PM 19.53 67.154 0.097 6.25 1.32 4.24
8/21/2022 3:30:00 PM 19.63 67.334 0.097 6.23 1.16 4.31
8/21/2022 3:45:00 PM 19.61 67.298 0.097 6.25 1.25 4.22
8/21/2022 4:00:00 PM 19.67 67.406 0.097 6.28 1.16 4.16
8/21/2022 4:15:00 PM 19.82 67.676 0.097 6.27 1.15 4.21
8/21/2022 4:30:00 PM 19.84 67.712 0.097 6.25 1.22 4.44
8/21/2022 4:45:00 PM 20.03 68.054 0.096 6.31 1.18 4.82
8/21/2022 5:00:00 PM 20 68 0.096 6.29 1.18 4.87
8/21/2022 5:15:00 PM 19.98 67.964 0.096 6.28 1.14 4.98
8/21/2022 5:30:00 PM 19.95 67.91 0.096 6.33 1.11 4.92
8/21/2022 5:45:00 PM 19.91 67.838 0.095 6.27 1.13 4.97
8/21/2022 6:00:00 PM 19.88 67.784 0.096 6.31 1.14 4.8
8/21/2022 6:15:00 PM 19.82 67.676 0.096 6.26 1.26 4.79
8/21/2022 6:30:00 PM 19.86 67.748 0.095 6.34 1.12 4.8
8/21/2022 6:45:00 PM 19.88 67.784 0.095 6.27 1.14 4.88
8/21/2022 7:00:00 PM 19.78 67.604 0.096 6.25 1.38 4.65
8/21/2022 7:15:00 PM 19.78 67.604 0.095 6.28 1.23 4.89
8/21/2022 7:30:00 PM 19.71 67.478 0.096 6.3 1.17 4.43
8/21/2022 7:45:00 PM 19.68 67.424 0.097 6.22 1.31 4.15
8/21/2022 8:00:00 PM 19.75 67.55 0.096 6.28 1.29 4.33
8/21/2022 8:15:00 PM 19.76 67.568 0.094 6.38 1.34 4.62
8/21/2022 8:30:00 PM 19.72 67.496 0.094 6.36 1.55 5.35
8/21/2022 8:45:00 PM 19.71 67.478 0.093 6.45 2.38 6.01
8/21/2022 9:00:00 PM 19.7 67.46 0.093 6.38 2.77 6.05
8/21/2022 9:15:00 PM 19.68 67.424 0.093 6.45 2.57 6.37
8/21/2022 9:30:00 PM 19.67 67.406 0.092 6.42 2.16 6.47
8/21/2022 9:45:00 PM 19.66 67.388 0.092 6.43 1.85 6.61
8/21/2022 10:00:00 PM 19.65 67.37 0.092 6.48 1.73 6.72
8/21/2022 10:15:00 PM 19.63 67.334 0.092 6.45 1.53 6.67
8/21/2022 10:30:00 PM 19.63 67.334 0.092 6.44 1.34 6.69
8/21/2022 10:45:00 PM 19.62 67.316 0.092 6.46 1.32 6.86
8/21/2022 11:00:00 PM 19.61 67.298 0.092 6.54 1.39 7.01
8/21/2022 11:15:00 PM 19.59 67.262 0.091 6.52 1.34 7.12
8/21/2022 11:30:00 PM 19.58 67.244 0.091 6.58 1.4 7.18
8/21/2022 11:45:00 PM 19.56 67.208 0.091 6.51 1.28 7.22
8/22/2022 12:00:00 AM 19.53 67.154 0.091 6.55 1.52 7.34
8/22/2022 12:15:00 AM 19.51 67.118 0.091 6.55 1.31 7.48
8/22/2022 12:30:00 AM 19.49 67.082 0.091 6.54 1.37 7.53
8/22/2022 12:45:00 AM 19.46 67.028 0.091 6.56 1.33 7.46
8/22/2022 1:00:00 AM 19.45 67.01 0.091 6.6 1.25 7.5
8/22/2022 1:15:00 AM 19.44 66.992 0.091 6.55 1.35 7.49
8/22/2022 1:30:00 AM 19.42 66.956 0.091 6.54 1.31 7.49
8/22/2022 1:45:00 AM 19.4 66.92 0.09 6.55 1.33 7.52
8/22/2022 2:00:00 AM 19.37 66.866 0.09 6.64 1.43 7.67
8/22/2022 2:15:00 AM 19.35 66.83 0.09 6.58 1.37 7.65
8/22/2022 2:30:00 AM 19.33 66.794 0.09 6.56 1.38 7.7
8/22/2022 2:45:00 AM 19.31 66.758 0.09 6.63 1.47 7.72
8/22/2022 3:00:00 AM 19.29 66.722 0.09 6.63 1.39 7.75
8/22/2022 3:15:00 AM 19.27 66.686 0.09 6.57 1.3 7.74
8/22/2022 3:30:00 AM 19.26 66.668 0.091 6.57 1.49 7.59
8/22/2022 3:45:00 AM 19.23 66.614 0.091 6.55 1.33 7.59
8/22/2022 4:00:00 AM 19.17 66.506 0.09 6.62 1.31 7.78
8/22/2022 4:15:00 AM 19.17 66.506 0.09 6.58 1.25 7.72
8/22/2022 4:30:00 AM 19.17 66.506 0.091 6.57 1.28 7.62
8/22/2022 4:45:00 AM 19.15 66.47 0.091 6.59 1.42 7.52
8/22/2022 5:00:00 AM 19.12 66.416 0.091 6.54 1.32 7.62
8/22/2022 5:15:00 AM 19.1 66.38 0.091 6.57 1.22 7.64
8/22/2022 5:30:00 AM 19.09 66.362 0.091 6.54 1.25 7.52
8/22/2022 5:45:00 AM 19.05 66.29 0.091 6.57 1.28 7.62
8/22/2022 6:00:00 AM 19.02 66.236 0.091 6.57 1.4 7.69
8/22/2022 6:15:00 AM 19 66.2 0.091 6.54 1.33 7.65
8/22/2022 6:30:00 AM 19.01 66.218 0.091 6.54 1.48 7.58
8/22/2022 6:45:00 AM 18.95 66.11 0.09 6.56 1.58 7.76
8/22/2022 7:00:00 AM 18.95 66.11 0.091 6.57 1.27 7.72
8/22/2022 7:15:00 AM 18.93 66.074 0.09 6.61 1.35 7.8
8/22/2022 7:30:00 AM 18.91 66.038 0.09 6.59 1.34 7.92
8/22/2022 7:45:00 AM 18.93 66.074 0.09 6.61 1.38 7.86
8/22/2022 8:00:00 AM 18.91 66.038 0.09 6.63 1.91 8.06
8/22/2022 8:15:00 AM 18.97 66.146 0.09 6.61 1.59 7.94
8/22/2022 8:30:00 AM 18.91 66.038 0.089 6.69 1.33 8.34
8/22/2022 8:45:00 AM 18.98 66.164 0.09 6.64 1.34 8.29
8/22/2022 9:00:00 AM 19.03 66.254 0.09 6.67 1.47 8.13
8/22/2022 9:15:00 AM 18.99 66.182 0.089 6.71 1.85 8.47
8/22/2022 9:30:00 AM 19.05 66.29 0.09 6.7 1.37 8.49
8/22/2022 9:45:00 AM 19.11 66.398 0.09 6.68 1.48 8.5
8/22/2022 10:00:00 AM 19.06 66.308 0.089 6.72 1.95 8.61
8/22/2022 10:15:00 AM 19.11 66.398 0.089 6.66 1.36 8.48
8/22/2022 10:30:00 AM 19.19 66.542 0.089 6.71 1.43 8.6
8/22/2022 10:45:00 AM 19.31 66.758 0.089 6.79 1.37 8.77
8/22/2022 11:00:00 AM 19.43 66.974 0.089 6.73 1.39 8.68
8/22/2022 11:15:00 AM 19.48 67.064 0.089 6.81 1.42 8.75
8/22/2022 11:30:00 AM 19.54 67.172 0.089 6.79 1.32 8.8
8/22/2022 11:45:00 AM 19.6 67.28 0.089 6.76 1.35 8.79
8/22/2022 12:00:00 PM 19.73 67.514 0.089 6.79 1.33 8.83
8/22/2022 12:15:00 PM 19.99 67.982 0.089 6.82 1.29 8.85
8/22/2022 12:30:00 PM 20.47 68.846 0.089 6.79 1.47 8.8
8/22/2022 12:45:00 PM 20.81 69.458 0.09 6.73 1.46 8.6
8/22/2022 1:00:00 PM 20.64 69.152 0.09 6.76 1.34 8.6
8/22/2022 1:15:00 PM 20.78 69.404 0.09 6.79 1.24 8.67
8/22/2022 1:30:00 PM 21.18 70.124 0.09 6.88 1.37 8.76
8/22/2022 1:45:00 PM 21.01 69.818 0.09 6.9 1.34 8.76
8/22/2022 2:00:00 PM 20.8 69.44 0.09 6.84 1.32 8.62
8/22/2022 2:15:00 PM 20.72 69.296 0.09 6.9 1.3 8.7
8/22/2022 2:30:00 PM 20.55 68.99 0.09 6.75 1.26 8.52
8/22/2022 2:45:00 PM 20.51 68.918 0.09 6.82 1.36 8.56
8/22/2022 3:00:00 PM 20.74 69.332 0.09 6.83 1.6 8.58
8/22/2022 3:15:00 PM 20.58 69.044 0.09 6.87 1.22 8.63
8/22/2022 3:30:00 PM 20.51 68.918 0.091 6.75 1.26 8.44
8/22/2022 3:45:00 PM 20.46 68.828 0.091 6.78 1.27 8.5
8/22/2022 4:00:00 PM 20.42 68.756 0.091 6.78 1.29 8.5
8/22/2022 4:15:00 PM 20.39 68.702 0.091 6.71 1.2 8.33
8/22/2022 4:30:00 PM 20.37 68.666 0.091 6.71 1.19 8.29
8/22/2022 4:45:00 PM 20.5 68.9 0.091 6.71 1.28 8.32
8/22/2022 5:00:00 PM 20.55 68.99 0.091 6.72 1.26 8.29
8/22/2022 5:15:00 PM 20.52 68.936 0.091 6.71 1.2 8.22
8/22/2022 5:30:00 PM 20.51 68.918 0.091 6.7 1.22 8.15
8/22/2022 5:45:00 PM 20.41 68.738 0.092 6.66 1.38 8.03
8/22/2022 6:00:00 PM 20.36 68.648 0.092 6.6 1.28 7.87
8/22/2022 6:15:00 PM 20.26 68.468 0.092 6.65 1.35 7.76
8/22/2022 6:30:00 PM 20.24 68.432 0.092 6.57 1.3 7.75
8/22/2022 6:45:00 PM 20.15 68.27 0.092 6.67 1.31 7.79
8/22/2022 7:00:00 PM 20.13 68.234 0.092 6.57 1.23 7.72
8/22/2022 7:15:00 PM 20.06 68.108 0.093 6.55 1.25 7.56
8/22/2022 7:30:00 PM 19.99 67.982 0.093 6.52 1.28 7.51
8/22/2022 7:45:00 PM 19.96 67.92799 0.093 6.52 1.35 7.3
8/22/2022 8:00:00 PM 19.93 67.874 0.093 6.54 1.2 7.51
8/22/2022 8:15:00 PM 19.91 67.838 0.093 6.54 1.64 7.5
8/22/2022 8:30:00 PM 19.89 67.802 0.093 6.6 1.34 7.46
8/22/2022 8:45:00 PM 19.83 67.694 0.093 6.54 1.73 7.4
8/22/2022 9:00:00 PM 19.78 67.604 0.093 6.52 1.33 7.38
8/22/2022 9:15:00 PM 19.75 67.55 0.093 6.51 1.18 7.44
8/22/2022 9:30:00 PM 19.73 67.514 0.094 6.59 1.24 7.43
8/22/2022 9:45:00 PM 19.69 67.442 0.094 6.52 1.25 7.38
8/22/2022 10:00:00 PM 19.65 67.37 0.094 6.5 1.23 7.4
8/22/2022 10:15:00 PM 19.59 67.262 0.094 6.54 1.24 7.48
8/22/2022 10:30:00 PM 19.56 67.208 0.094 6.51 1.3 7.44
8/22/2022 10:45:00 PM 19.51 67.118 0.094 6.55 1.47 7.39
8/22/2022 11:00:00 PM 19.47 67.046 0.094 6.57 1.23 7.51
8/22/2022 11:15:00 PM 19.42 66.956 0.094 6.61 1.31 7.56
8/22/2022 11:30:00 PM 19.4 66.92 0.094 6.58 1.3 7.56
8/22/2022 11:45:00 PM 19.33 66.794 0.094 6.64 1.14 7.66
8/23/2022 12:00:00 AM 19.33 66.794 0.094 6.55 1.28 7.58
8/23/2022 12:15:00 AM 19.26 66.668 0.094 6.55 1.17 7.68
8/23/2022 12:30:00 AM 19.25 66.65 0.094 6.62 1.27 7.62
8/23/2022 12:45:00 AM 19.22 66.596 0.094 6.55 1.2 7.71
8/23/2022 1:00:00 AM 19.22 66.596 0.094 6.54 1.24 7.6
8/23/2022 1:15:00 AM 19.18 66.524 0.094 6.58 1.21 7.7
8/23/2022 1:30:00 AM 19.15 66.47 0.094 6.56 1.22 7.75
8/23/2022 1:45:00 AM 19.1 66.38 0.094 6.64 1.25 7.82
8/23/2022 2:00:00 AM 19.08 66.344 0.094 6.54 1.14 7.77
8/23/2022 2:15:00 AM 19.04 66.272 0.094 6.56 1.23 7.75
8/23/2022 2:30:00 AM 19 66.2 0.094 6.64 1.16 7.77
8/23/2022 2:45:00 AM 18.95 66.11 0.093 6.59 1.24 7.9
8/23/2022 3:00:00 AM 18.94 66.092 0.093 6.56 1.21 7.88
8/23/2022 3:15:00 AM 18.92 66.056 0.094 6.61 1.22 7.87
8/23/2022 3:30:00 AM 18.92 66.056 0.094 6.61 1.15 7.86
8/23/2022 3:45:00 AM 18.91 66.038 0.094 6.62 1.21 7.84
8/23/2022 4:00:00 AM 18.9 66.02 0.094 6.61 1.24 7.82
8/23/2022 4:15:00 AM 18.87 65.966 0.094 6.62 1.19 7.91
8/23/2022 4:30:00 AM 18.84 65.912 0.093 6.58 1.21 7.96
8/23/2022 4:45:00 AM 18.84 65.912 0.094 6.63 1.3 7.91
8/23/2022 5:00:00 AM 18.82 65.876 0.093 6.58 1.25 7.95
8/23/2022 5:15:00 AM 18.81 65.858 0.094 6.58 1.21 7.93
8/23/2022 5:30:00 AM 18.76 65.768 0.093 6.63 1.2 8.04
8/23/2022 5:45:00 AM 18.78 65.804 0.094 6.55 1.38 7.92
8/23/2022 6:00:00 AM 18.76 65.768 0.094 6.58 1.2 7.89
8/23/2022 6:15:00 AM 18.74 65.732 0.094 6.57 1.36 7.9
8/23/2022 6:30:00 AM 18.74 65.732 0.094 6.58 1.41 7.82
8/23/2022 6:45:00 AM 18.74 65.732 0.094 6.55 1.27 7.82
8/23/2022 7:00:00 AM 18.74 65.732 0.094 6.54 1.18 7.76
8/23/2022 7:15:00 AM 18.72 65.696 0.094 6.55 1.29 7.82
8/23/2022 7:30:00 AM 18.72 65.696 0.093 6.55 1.21 7.87
8/23/2022 7:45:00 AM 18.72 65.696 0.094 6.6 1.3 7.86
8/23/2022 8:00:00 AM 18.71 65.67799 0.093 6.55 1.51 7.91
8/23/2022 8:15:00 AM 18.71 65.67799 0.093 6.57 1.22 8
8/23/2022 8:30:00 AM 18.78 65.804 0.094 6.52 1.33 7.82
8/23/2022 8:45:00 AM 18.78 65.804 0.093 6.61 1.22 8.07
8/23/2022 9:00:00 AM 18.84 65.912 0.093 6.56 1.32 8.04
8/23/2022 9:15:00 AM 18.87 65.966 0.093 6.63 1.24 8.19
8/23/2022 9:30:00 AM 18.9 66.02 0.093 6.61 1.24 8.27
8/23/2022 9:45:00 AM 18.98 66.164 0.093 6.59 1.27 8.11
8/23/2022 10:00:00 AM 19.02 66.236 0.093 6.61 1.21 8.11
8/23/2022 10:15:00 AM 19.15 66.47 0.093 6.68 1.21 8.32
8/23/2022 10:30:00 AM 19.28 66.704 0.093 6.58 1.27 8.17
8/23/2022 10:45:00 AM 19.25 66.65 0.092 6.64 1.62 8.14
8/23/2022 11:00:00 AM 19.21 66.578 0.092 6.62 1.4 8.17
8/23/2022 11:15:00 AM 19.6 67.28 0.092 6.62 1.37 8.35
8/23/2022 11:30:00 AM 19.89 67.802 0.092 6.61 1.32 8.35
8/23/2022 11:45:00 AM 19.8 67.64 0.092 6.68 1.48 8.18
8/23/2022 12:00:00 PM 19.71 67.478 0.092 6.63 1.3 8
8/23/2022 12:15:00 PM 20.17 68.306 0.092 6.66 1.3 8.44
8/23/2022 12:30:00 PM 20.25 68.45 0.092 6.48 1.28 7.71
8/23/2022 12:45:00 PM 20.33 68.594 0.092 6.55 1.22 7.8
8/23/2022 1:00:00 PM 20.44 68.792 0.092 6.64 1.3 8.3
8/23/2022 1:15:00 PM 20.44 68.792 0.092 6.69 1.23 8.12
8/23/2022 1:30:00 PM 20.48 68.864 0.092 6.64 1.23 8.17
8/23/2022 1:45:00 PM 20.38 68.684 0.091 6.66 1.23 8.22
8/23/2022 2:00:00 PM 20.42 68.756 0.092 6.72 1.21 8.15
8/23/2022 2:15:00 PM 20.39 68.702 0.091 6.65 1.3 8.33
8/23/2022 2:30:00 PM 20.56 69.008 0.091 6.72 1.43 8.36
8/23/2022 2:45:00 PM 20.69 69.242 0.092 6.63 1.22 8.1
8/23/2022 3:00:00 PM 20.64 69.152 0.092 6.54 1.19 7.97
8/23/2022 3:15:00 PM 20.72 69.296 0.092 6.7 1.21 8.15
8/23/2022 3:30:00 PM 20.73 69.314 0.092 6.63 1.29 8.11
8/23/2022 3:45:00 PM 20.51 68.918 0.092 6.59 1.21 7.93
8/23/2022 4:00:00 PM 20.58 69.044 0.091 6.66 1.34 8.15
8/23/2022 4:15:00 PM 20.69 69.242 0.091 6.68 1.29 8.37
8/23/2022 4:30:00 PM 20.67 69.206 0.091 6.74 1.25 8.35
8/23/2022 4:45:00 PM 20.67 69.206 0.092 6.7 1.31 8.22
8/23/2022 5:00:00 PM 20.63 69.134 0.092 6.73 1.31 8.22
8/23/2022 5:15:00 PM 20.59 69.062 0.092 6.65 1.28 8.11
8/23/2022 5:30:00 PM 20.54 68.972 0.092 6.62 1.25 8.05
8/23/2022 5:45:00 PM 20.52 68.936 0.092 6.71 1.27 8.12
8/23/2022 6:00:00 PM 20.5 68.9 0.092 6.61 1.19 8.03
8/23/2022 6:15:00 PM 20.45 68.81 0.092 6.66 1.21 7.81
8/23/2022 6:30:00 PM 20.41 68.738 0.092 6.57 1.19 7.76
8/23/2022 6:45:00 PM 20.37 68.666 0.092 6.59 1.19 7.75
8/23/2022 7:00:00 PM 20.33 68.594 0.092 6.57 1.19 7.79
8/23/2022 7:15:00 PM 20.28 68.504 0.093 6.64 1.21 7.72
8/23/2022 7:30:00 PM 20.18 68.324 0.092 6.59 1.47 7.84
8/23/2022 7:45:00 PM 20.11 68.198 0.092 6.6 1.27 7.79
8/23/2022 8:00:00 PM 20.04 68.07201 0.093 6.63 1.17 7.7
8/23/2022 8:15:00 PM 19.97 67.946 0.093 6.58 1.2 7.71
8/23/2022 8:30:00 PM 19.93 67.874 0.093 6.57 1.22 7.63
8/23/2022 8:45:00 PM 19.89 67.802 0.093 6.63 1.17 7.54
8/23/2022 9:00:00 PM 19.85 67.73 0.093 6.57 1.32 7.4
8/23/2022 9:15:00 PM 19.76 67.568 0.093 6.61 1.16 7.49
8/23/2022 9:30:00 PM 19.74 67.532 0.094 6.48 1.18 7.31
8/23/2022 9:45:00 PM 19.68 67.424 0.094 6.49 1.26 7.35
8/23/2022 10:00:00 PM 19.59 67.262 0.093 6.53 1.21 7.52
8/23/2022 10:15:00 PM 19.54 67.172 0.093 6.63 1.25 7.56
8/23/2022 10:30:00 PM 19.5 67.1 0.093 6.53 1.29 7.55
8/23/2022 10:45:00 PM 19.47 67.046 0.094 6.51 1.21 7.42
8/23/2022 11:00:00 PM 19.43 66.974 0.094 6.57 1.25 7.36
8/23/2022 11:15:00 PM 19.36 66.848 0.093 6.53 1.23 7.53
8/23/2022 11:30:00 PM 19.31 66.758 0.094 6.58 1.36 7.49
8/23/2022 11:45:00 PM 19.22 66.596 0.093 6.55 1.23 7.73
8/24/2022 12:00:00 AM 19.2 66.56 0.093 6.59 1.13 7.5
8/24/2022 12:15:00 AM 19.16 66.488 0.094 6.54 1.22 7.5
8/24/2022 12:30:00 AM 19.1 66.38 0.094 6.6 1.29 7.59
8/24/2022 12:45:00 AM 19.07 66.326 0.094 6.51 1.21 7.51
8/24/2022 1:00:00 AM 19.01 66.218 0.093 6.55 1.24 7.63
8/24/2022 1:15:00 AM 18.95 66.11 0.093 6.61 1.26 7.71
8/24/2022 1:30:00 AM 18.89 66.002 0.093 6.52 1.2 7.71
8/24/2022 1:45:00 AM 18.84 65.912 0.093 6.55 1.19 7.75
8/24/2022 2:00:00 AM 18.79 65.82201 0.093 6.54 1.21 7.81
8/24/2022 2:15:00 AM 18.73 65.714 0.093 6.57 1.21 7.91
8/24/2022 2:30:00 AM 18.69 65.642 0.093 6.59 1.22 7.88
8/24/2022 2:45:00 AM 18.63 65.534 0.093 6.58 1.26 7.93
8/24/2022 3:00:00 AM 18.58 65.444 0.093 6.57 1.61 7.95
8/24/2022 3:15:00 AM 18.55 65.39 0.093 6.63 1.25 7.98
8/24/2022 3:30:00 AM 18.48 65.264 0.093 6.61 1.19 8.09
8/24/2022 3:45:00 AM 18.45 65.21 0.093 6.63 1.3 8.13
8/24/2022 4:00:00 AM 18.39 65.102 0.092 6.6 1.25 8.14
8/24/2022 4:15:00 AM 18.36 65.048 0.093 6.61 1.22 8.14
8/24/2022 4:30:00 AM 18.32 64.976 0.093 6.59 1.23 8.14
8/24/2022 4:45:00 AM 18.3 64.94 0.093 6.59 1.39 8.13
8/24/2022 5:00:00 AM 18.24 64.832 0.093 6.63 1.23 8.18
8/24/2022 5:15:00 AM 18.22 64.796 0.093 6.61 1.19 8.19
8/24/2022 5:30:00 AM 18.19 64.742 0.093 6.64 1.19 8.15
8/24/2022 5:45:00 AM 18.15 64.67 0.093 6.58 1.29 8.17
8/24/2022 6:00:00 AM 18.07 64.526 0.092 6.63 1.39 8.28
8/24/2022 6:15:00 AM 18.07 64.526 0.093 6.61 1.43 8.2
8/24/2022 6:30:00 AM 18.04 64.472 0.093 6.65 1.3 8.19
8/24/2022 6:45:00 AM 18.01 64.418 0.093 6.65 1.21 8.21
8/24/2022 7:00:00 AM 18.01 64.418 0.093 6.58 1.33 8.16
8/24/2022 7:15:00 AM 17.97 64.346 0.092 6.59 1.32 8.2
8/24/2022 7:30:00 AM 17.94 64.292 0.092 6.62 1.24 8.26
8/24/2022 7:45:00 AM 17.93 64.274 0.092 6.68 1.37 8.31
8/24/2022 8:00:00 AM 17.94 64.292 0.093 6.61 1.31 8.33
8/24/2022 8:15:00 AM 17.95 64.31 0.092 6.6 1.18 8.37
8/24/2022 8:30:00 AM 18 64.4 0.092 6.59 1.86 8.34
8/24/2022 8:45:00 AM 18.01 64.418 0.092 6.62 1.23 8.34
8/24/2022 9:00:00 AM 18.05 64.49 0.092 6.62 1.36 8.49
8/24/2022 9:15:00 AM 18.1 64.58 0.092 6.62 1.19 8.37
8/24/2022 9:30:00 AM 18.13 64.634 0.092 6.63 1.29 8.43
8/24/2022 9:45:00 AM 18.2 64.76 0.092 6.6 1.25 8.34
8/24/2022 10:00:00 AM 18.23 64.814 0.092 6.63 1.34 8.48
8/24/2022 10:15:00 AM 18.35 65.03 0.093 6.61 1.23 8.35
8/24/2022 10:30:00 AM 18.31 64.958 0.092 6.71 1.28 8.8
8/24/2022 10:45:00 AM 18.5 65.3 0.092 6.66 1.16 8.72
8/24/2022 11:00:00 AM 18.9 66.02 0.092 6.66 1.23 8.72
8/24/2022 11:15:00 AM 19.42 66.956 0.092 6.73 1.28 8.66
8/24/2022 11:30:00 AM 19.28 66.704 0.092 6.49 1.23 7.77
8/24/2022 11:45:00 AM 19 66.2 0.093 6.42 1.37 6.86
8/24/2022 12:00:00 PM 19.6 67.28 0.093 6.42 1.18 7.16
8/24/2022 12:15:00 PM 19.3 66.74 0.094 6.36 1.24 6.53
8/24/2022 12:30:00 PM 19.93 67.874 0.093 6.47 1.35 6.84
8/24/2022 12:45:00 PM 19.41 66.938 0.094 6.4 1.29 6.16
8/24/2022 1:00:00 PM 19.59 67.262 0.094 6.35 1.39 6.49
8/24/2022 1:15:00 PM 19.7 67.46 0.094 6.37 1.23 6.42
8/24/2022 1:30:00 PM 19.65 67.37 0.094 6.48 1.18 6.29
8/24/2022 1:45:00 PM 19.46 67.028 0.094 6.33 1.28 6.18
8/24/2022 2:00:00 PM 19.55 67.19 0.094 6.3 1.27 6.26
8/24/2022 2:15:00 PM 19.88 67.784 0.093 6.37 1.19 6.8
8/24/2022 2:30:00 PM 19.62 67.316 0.094 6.32 1.21 6.35
8/24/2022 2:45:00 PM 19.83 67.694 0.093 6.38 1.16 6.81
8/24/2022 3:00:00 PM 19.65 67.37 0.094 6.42 1.26 6.49
8/24/2022 3:15:00 PM 19.91 67.838 0.093 6.43 1.23 6.79
8/24/2022 3:30:00 PM 19.67 67.406 0.094 6.41 1.18 6.29
8/24/2022 3:45:00 PM 19.97 67.946 0.093 6.45 1.21 7.15
8/24/2022 4:00:00 PM 19.67 67.406 0.094 6.37 1.25 6.15
8/24/2022 4:15:00 PM 19.84 67.712 0.094 6.34 1.16 6.43
8/24/2022 4:30:00 PM 20.07 68.126 0.093 6.4 1.16 6.78
8/24/2022 4:45:00 PM 20.08 68.144 0.094 6.47 1.2 6.87
8/24/2022 5:00:00 PM 20.2 68.36 0.093 6.52 1.17 7.53
8/24/2022 5:15:00 PM 20.14 68.252 0.093 6.55 1.14 7.45
8/24/2022 5:30:00 PM 20.17 68.306 0.093 6.45 1.18 7.4
8/24/2022 5:45:00 PM 20.16 68.288 0.093 6.55 1.28 7.54
8/24/2022 6:00:00 PM 20.05 68.09 0.093 6.39 1.26 6.94
8/24/2022 6:15:00 PM 20.07 68.126 0.093 6.48 1.35 7.07
8/24/2022 6:30:00 PM 20.05 68.09 0.093 6.49 1.2 7.37
8/24/2022 6:45:00 PM 20.02 68.036 0.093 6.52 1.17 7.3
8/24/2022 7:00:00 PM 19.97 67.946 0.093 6.5 1.19 7.23
8/24/2022 7:15:00 PM 19.92 67.856 0.094 6.47 1.16 7.27
8/24/2022 7:30:00 PM 19.93 67.874 0.094 6.5 1.16 7.33
8/24/2022 7:45:00 PM 19.88 67.784 0.094 6.49 1.1 7.38
8/24/2022 8:00:00 PM 19.82 67.676 0.094 6.44 1.24 6.99
8/24/2022 8:15:00 PM 19.8 67.64 0.094 6.45 1.23 6.94
8/24/2022 8:30:00 PM 19.75 67.55 0.094 6.52 1.22 7.03
8/24/2022 8:45:00 PM 19.71 67.478 0.094 6.54 1.28 7.16
8/24/2022 9:00:00 PM 19.65 67.37 0.094 6.6 1.34 7.36
8/24/2022 9:15:00 PM 19.61 67.298 0.094 6.53 1.2 7.42
8/24/2022 9:30:00 PM 19.57 67.226 0.094 6.61 1.15 7.43
8/24/2022 9:45:00 PM 19.52 67.136 0.094 6.51 1.17 7.43
8/24/2022 10:00:00 PM 19.49 67.082 0.094 6.58 1.2 7.44
8/24/2022 10:15:00 PM 19.43 66.974 0.094 6.54 1.2 7.46
8/24/2022 10:30:00 PM 19.38 66.884 0.094 6.62 1.16 7.46
8/24/2022 10:45:00 PM 19.33 66.794 0.094 6.56 1.27 7.6
8/24/2022 11:00:00 PM 19.28 66.704 0.094 6.55 1.21 7.6
8/24/2022 11:15:00 PM 19.21 66.578 0.094 6.63 1.14 7.7
8/24/2022 11:30:00 PM 19.16 66.488 0.094 6.58 1.24 7.7
8/24/2022 11:45:00 PM 19.09 66.362 0.094 6.64 1.21 7.78
8/25/2022 12:00:00 AM 19.05 66.29 0.094 6.57 1.15 7.75
8/25/2022 12:15:00 AM 18.98 66.164 0.094 6.58 1.35 7.81
8/25/2022 12:30:00 AM 18.91 66.038 0.094 6.59 1.18 7.87
8/25/2022 12:45:00 AM 18.88 65.984 0.094 6.63 1.22 7.8
8/25/2022 1:00:00 AM 18.83 65.894 0.094 6.63 1.25 7.82
8/25/2022 1:15:00 AM 18.79 65.82201 0.094 6.55 1.2 7.77
8/25/2022 1:30:00 AM 18.74 65.732 0.094 6.6 1.2 7.81
8/25/2022 1:45:00 AM 18.7 65.66 0.094 6.61 1.2 7.77
8/25/2022 2:00:00 AM 18.67 65.606 0.094 6.58 1.17 7.79
8/25/2022 2:15:00 AM 18.62 65.516 0.094 6.58 1.22 7.82
8/25/2022 2:30:00 AM 18.59 65.462 0.094 6.62 1.17 7.85
8/25/2022 2:45:00 AM 18.52 65.336 0.094 6.66 1.2 7.91
8/25/2022 3:00:00 AM 18.5 65.3 0.094 6.63 1.18 7.9
8/25/2022 3:15:00 AM 18.44 65.192 0.094 6.61 1.24 7.94
8/25/2022 3:30:00 AM 18.4 65.12 0.094 6.6 1.18 7.98
8/25/2022 3:45:00 AM 18.37 65.066 0.094 6.59 1.2 7.98
8/25/2022 4:00:00 AM 18.37 65.066 0.094 6.62 1.21 7.98
8/25/2022 4:15:00 AM 18.35 65.03 0.094 6.62 1.21 7.95
8/25/2022 4:30:00 AM 18.33 64.994 0.094 6.66 1.24 7.98
8/25/2022 4:45:00 AM 18.31 64.958 0.094 6.61 1.22 8.03
8/25/2022 5:00:00 AM 18.29 64.922 0.094 6.59 1.29 7.95
8/25/2022 5:15:00 AM 18.26 64.868 0.094 6.59 1.27 8.02
8/25/2022 5:30:00 AM 18.24 64.832 0.094 6.6 1.44 7.98
8/25/2022 5:45:00 AM 18.23 64.814 0.094 6.66 1.19 7.93
8/25/2022 6:00:00 AM 18.22 64.796 0.094 6.58 1.48 7.94
8/25/2022 6:15:00 AM 18.19 64.742 0.094 6.64 1.41 7.9
8/25/2022 6:30:00 AM 18.15 64.67 0.094 6.58 1.33 7.97
8/25/2022 6:45:00 AM 18.14 64.652 0.094 6.58 1.29 7.93
8/25/2022 7:00:00 AM 18.08 64.544 0.094 6.6 1.22 8.05
8/25/2022 7:15:00 AM 18.1 64.58 0.094 6.61 1.3 7.94
8/25/2022 7:30:00 AM 18.09 64.562 0.095 6.57 1.23 7.89
8/25/2022 7:45:00 AM 18.05 64.49 0.094 6.66 1.25 8.03
8/25/2022 8:00:00 AM 18.05 64.49 0.094 6.64 1.24 8.03
8/25/2022 8:15:00 AM 18.02 64.436 0.094 6.61 1.22 8.13
8/25/2022 8:30:00 AM 18.02 64.436 0.094 6.62 1.19 8.2
8/25/2022 8:45:00 AM 18.02 64.436 0.094 6.65 1.21 8.3
8/25/2022 9:00:00 AM 18.05 64.49 0.094 6.62 1.17 8.23
8/25/2022 9:15:00 AM 18.12 64.616 0.094 6.57 1.22 7.97
8/25/2022 9:30:00 AM 18.13 64.634 0.094 6.58 1.3 8.13
8/25/2022 9:45:00 AM 18.17 64.706 0.094 6.59 1.16 8.06
8/25/2022 10:00:00 AM 18.25 64.85 0.094 6.52 1.15 7.73
8/25/2022 10:15:00 AM 18.54 65.372 0.096 6.46 1.23 7.12
8/25/2022 10:30:00 AM 18.51 65.318 0.095 6.54 1.24 7.45
8/25/2022 10:45:00 AM 18.52 65.336 0.095 6.44 1.23 7.27